
Distance (Route):
Temperature : -55.2°C
Humidity : 27.5%
Pressure : 0hPa| Receiver | Frames | First received | Last received |
|---|---|---|---|
| DM0DOS-11 | 329 | 2026-09-05 00:03:03 | 2026-09-05 01:05:27 |
| BIOWL1-15 | 182 | 2026-09-05 00:08:43 | 2026-09-05 01:01:02 |
| DJ2DS-15 | 99 | 2026-09-05 00:13:03 | 2026-09-05 00:59:19 |
| DL1XH-west | 75 | 2026-09-05 00:37:48 | 2026-09-05 00:52:31 |
| DB0UT-7 | 41 | 2026-09-05 00:08:16 | 2026-09-05 01:01:38 |
| DL1XH1-15 | 30 | 2026-09-05 00:44:06 | 2026-09-05 00:51:03 |
| BIOWL9-15 | 22 | 2026-09-05 00:10:05 | 2026-09-05 01:00:49 |
| AU51GT2 | 22 | 2026-09-05 00:22:26 | 2026-09-05 00:57:42 |
| HTAHTA | 1 | 2026-09-05 00:49:03 | 2026-09-05 00:49:03 |
| Receiver | Date | Latitude | Longitude | Direction | Speed | Altitude | Climb | Temperature | Humidity | Pressure | Voltage | Killtimer | Uptime | BKT | XDATA |
|---|---|---|---|---|---|---|---|---|---|---|---|---|---|---|---|
| DM0DOS-11 | 2026-09-05 01:05:27 | 52.62668 | 0.97915 | 116° | 204km/h | 11327m | -11.7m/s | -55.2°C | 27.5% | 0hPa | 2.5V | 08:15:02 | 02:15:09 | 00:00:00 | |
| DM0DOS-11 | 2026-09-05 01:05:17 | 52.62893 | 0.97158 | 115° | 199km/h | 11438m | -10.8m/s | -55.7°C | 25.2% | 0hPa | 2.5V | 08:15:12 | 02:14:59 | 00:00:00 | |
| DM0DOS-11 | 2026-09-05 01:05:07 | 52.63102 | 0.96407 | 113° | 201km/h | 11542m | -10.8m/s | -56°C | 23.8% | 0hPa | 2.6V | 08:15:22 | 02:14:49 | 00:00:00 | |
| DM0DOS-11 | 2026-09-05 01:04:55 | 52.63301 | 0.95655 | 111° | 197km/h | 11652m | -11.2m/s | -56.2°C | 22.2% | 0hPa | 2.6V | 08:15:32 | 02:14:39 | 00:00:00 | |
| DM0DOS-11 | 2026-09-05 01:04:45 | 52.63479 | 0.94904 | 109° | 188km/h | 11759m | -10.8m/s | -56.5°C | 20.7% | 0hPa | 2.6V | 08:15:42 | 02:14:29 | 00:00:00 | |
| DM0DOS-11 | 2026-09-05 01:04:37 | 52.63629 | 0.94165 | 106° | 184km/h | 11867m | -11.1m/s | -56.8°C | 19.6% | 0hPa | 2.5V | 08:15:52 | 02:14:19 | 00:00:00 | |
| DM0DOS-11 | 2026-09-05 01:04:25 | 52.63755 | 0.93421 | 103° | 188km/h | 11975m | -11.6m/s | -57.1°C | 17.8% | 0hPa | 2.5V | 08:16:02 | 02:14:09 | 00:00:00 | |
| DM0DOS-11 | 2026-09-05 01:04:19 | 52.63869 | 0.92652 | 103° | 188km/h | 12089m | -11.4m/s | -56.7°C | 15.4% | 0hPa | 2.5V | 08:16:12 | 02:13:59 | 00:00:00 | |
| DM0DOS-11 | 2026-09-05 01:04:09 | 52.63969 | 0.91891 | 102° | 184km/h | 12198m | -12.4m/s | -56.5°C | 13.1% | 0hPa | 2.6V | 08:16:22 | 02:13:49 | 00:00:00 | |
| DM0DOS-11 | 2026-09-05 01:03:57 | 52.64069 | 0.91139 | 102° | 188km/h | 12315m | -12.7m/s | -56.5°C | 10.7% | 0hPa | 2.5V | 08:16:32 | 02:13:39 | 00:00:00 | |
| DM0DOS-11 | 2026-09-05 01:03:49 | 52.64175 | 0.90373 | 102° | 192km/h | 12432m | -11.6m/s | -55°C | 7.6% | 0hPa | 2.6V | 08:16:42 | 02:13:29 | 00:00:00 | |
| DM0DOS-11 | 2026-09-05 01:03:37 | 52.64293 | 0.89601 | 106° | 188km/h | 12549m | -12m/s | -54.5°C | 6% | 0hPa | 2.5V | 08:16:52 | 02:13:19 | 00:00:00 | |
| DM0DOS-11 | 2026-09-05 01:03:29 | 52.64428 | 0.88858 | 108° | 179km/h | 12665m | -11.5m/s | -53.7°C | 5% | 0hPa | 2.5V | 08:17:02 | 02:13:09 | 00:00:00 | |
| DM0DOS-11 | 2026-09-05 01:02:53 | 52.64887 | 0.86565 | 106° | 164km/h | 13065m | -12m/s | -51.1°C | 3.7% | 0hPa | 2.5V | 08:17:36 | 02:12:35 | 00:00:00 | |
| DM0DOS-11 | 2026-09-05 01:02:30 | 52.65257 | 0.85137 | 113° | 137km/h | 13375m | -13.5m/s | -50.8°C | 3.4% | 0hPa | 2.5V | 08:18:01 | 02:12:10 | 00:00:00 | |
| DM0DOS-11 | 2026-09-05 01:02:20 | 52.65385 | 0.84638 | 112° | 122km/h | 13502m | -12.9m/s | -51.4°C | 3.6% | 0hPa | 2.5V | 08:18:11 | 02:12:00 | 00:00:00 | |
| DM0DOS-11 | 2026-09-05 01:02:10 | 52.65493 | 0.84180 | 109° | 111km/h | 13623m | -12.9m/s | -51.7°C | 3.7% | 0hPa | 2.6V | 08:18:21 | 02:11:50 | 00:00:00 | |
| DM0DOS-11 | 2026-09-05 01:01:57 | 52.65580 | 0.83682 | 104° | 115km/h | 13766m | -13.4m/s | -51.4°C | 3.6% | 0hPa | 2.6V | 08:18:32 | 02:11:39 | 00:00:00 | |
| DM0DOS-11 | 2026-09-05 01:01:47 | 52.65650 | 0.83228 | 99° | 106km/h | 13894m | -13.4m/s | -51.1°C | 3.5% | 0hPa | 2.5V | 08:18:42 | 02:11:29 | 00:00:00 | |
| DM0DOS-11 | 2026-09-05 01:01:39 | 52.65684 | 0.82747 | 94° | 110km/h | 14038m | -13.7m/s | -51.7°C | 3.6% | 0hPa | 2.6V | 08:18:53 | 02:11:18 | 00:00:00 | |
| DB0UT-7 | 2026-09-05 01:01:38 | 52.65671 | 0.82966 | 96° | 100km/h | 13971m | -14.1m/s | -51.3°C | 3.6% | 0hPa | 2.5V | 00:00:00 | 02:11:23 | 00:00:00 | |
| DM0DOS-11 | 2026-09-05 01:01:28 | 52.65710 | 0.82342 | 98° | 111km/h | 14157m | -13.9m/s | -51.6°C | 3.7% | 0hPa | 2.5V | 08:19:02 | 02:11:09 | 00:00:00 | |
| DM0DOS-11 | 2026-09-05 01:01:17 | 52.65747 | 0.81886 | 95° | 110km/h | 14290m | -14.4m/s | -51.6°C | 3.6% | 0hPa | 2.6V | 08:19:12 | 02:10:59 | 00:00:00 | |
| DM0DOS-11 | 2026-09-05 01:01:07 | 52.65784 | 0.81450 | 99° | 102km/h | 14425m | -13.7m/s | -51.3°C | 3.6% | 0hPa | 2.5V | 08:19:22 | 02:10:49 | 00:00:00 | |
| BIOWL1-15 | 2026-09-05 01:01:02 | 52.65804 | 0.81285 | 100° | 102km/h | 14480m | -14.2m/s | -50.9°C | 0.3% | 0hPa | 2.6V | 08:20:08 | 02:10:45 | 00:00:00 | |
| DM0DOS-11 | 2026-09-05 01:00:58 | 52.65833 | 0.81046 | 101° | 97km/h | 14562m | -14.1m/s | -50.8°C | 3.4% | 0hPa | 2.6V | 08:19:32 | 02:10:39 | 00:00:00 | |
| BIOWL1-15 | 2026-09-05 01:00:52 | 52.65853 | 0.80891 | 101° | 91km/h | 14617m | -13.8m/s | -50.9°C | 0.2% | 0hPa | 2.5V | 08:20:08 | 02:10:35 | 00:00:00 | |
| BIOWL9-15 | 2026-09-05 01:00:49 | 52.65857 | 0.80854 | 101° | 89km/h | 14630m | -13.7m/s | -50.8°C | 1.1% | -1.0hPa | 2.5V | 00:00:00 | 00:00:00 | 00:00:00 | |
| BIOWL1-15 | 2026-09-05 01:00:40 | 52.65915 | 0.80275 | 96° | 84km/h | 14866m | -14.8m/s | -50.7°C | 0.2% | 0hPa | 2.5V | 08:20:08 | 02:10:17 | 00:00:00 | |
| BIOWL1-15 | 2026-09-05 01:00:27 | 52.65927 | 0.80019 | 94° | 91km/h | 14967m | -15.1m/s | -51.5°C | 0.2% | 0hPa | 2.5V | 08:20:08 | 02:10:10 | 00:00:00 | |
| BIOWL1-15 | 2026-09-05 01:00:14 | 52.65945 | 0.79587 | 95° | 100km/h | 15128m | -15.1m/s | -52.7°C | 0.4% | 0hPa | 2.6V | 08:21:50 | 02:09:59 | 00:00:00 | |
| DM0DOS-11 | 2026-09-05 01:00:12 | 52.65953 | 0.79462 | 97° | 99km/h | 15172m | -15.2m/s | -53°C | 3.8% | 0hPa | 2.5V | 08:20:15 | 02:09:56 | 00:00:00 | |
| DM0DOS-11 | 2026-09-05 01:00:02 | 52.66003 | 0.79051 | 103° | 100km/h | 15318m | -14.2m/s | -52.6°C | 3.7% | 0hPa | 2.5V | 08:20:25 | 02:09:46 | 00:00:00 | |
| DM0DOS-11 | 2026-09-05 00:59:55 | 52.66073 | 0.78651 | 108° | 86km/h | 15477m | -15.5m/s | -52.7°C | 3.6% | 0hPa | 2.6V | 08:20:36 | 02:09:35 | 00:00:00 | |
| DB0UT-7 | 2026-09-05 00:59:50 | 52.66073 | 0.78651 | 109° | 77km/h | 15477m | -15.4m/s | -52.7°C | 3.6% | 0hPa | 2.5V | 00:00:00 | 00:00:00 | 00:00:00 | |
| DM0DOS-11 | 2026-09-05 00:59:43 | 52.66143 | 0.78320 | 108° | 80km/h | 15628m | -15.8m/s | -53.1°C | 3.8% | 0hPa | 2.5V | 08:20:46 | 02:09:25 | 00:00:00 | |
| DM0DOS-11 | 2026-09-05 00:59:36 | 52.66195 | 0.78029 | 105° | 69km/h | 15777m | -15.5m/s | -53°C | 3.7% | 0hPa | 2.5V | 08:20:56 | 02:09:15 | 00:00:00 | |
| BIOWL1-15 | 2026-09-05 00:59:24 | 52.66228 | 0.77859 | 110° | 71km/h | 15869m | -16.1m/s | -53.2°C | 0.4% | 0hPa | 2.6V | 08:21:50 | 02:09:09 | 00:00:00 | |
| DM0DOS-11 | 2026-09-05 00:59:23 | 52.66253 | 0.77743 | 109° | 69km/h | 15933m | -16.2m/s | -53.4°C | 3.7% | 0hPa | 2.5V | 08:21:06 | 02:09:05 | 00:00:00 | |
| DB0UT-7 | 2026-09-05 00:59:20 | 52.66252 | 0.77743 | 110° | 73km/h | 15933m | -16.1m/s | -53.4°C | 3.7% | 0hPa | 2.5V | 08:21:00 | 02:09:05 | 00:00:00 | |
| DJ2DS-15 | 2026-09-05 00:59:19 | 52.66265 | 0.77689 | 111° | 71km/h | 15964m | -16.2m/s | -53.5°C | 1.2% | -1.0hPa | 2.5V | 00:00:00 | 00:00:00 | 00:00:00 | |
| BIOWL9-15 | 2026-09-05 00:59:16 | 52.66278 | 0.77633 | 108° | 69km/h | 15995m | -15.9m/s | -53.5°C | 1.2% | -1.0hPa | 2.5V | 00:00:00 | 00:00:00 | 00:00:00 | |
| DM0DOS-11 | 2026-09-05 00:59:15 | 52.66318 | 0.77477 | 112° | 66km/h | 16088m | -16.6m/s | -53.8°C | 3.8% | 0hPa | 2.5V | 08:21:16 | 02:08:55 | 00:00:00 | |
| BIOWL1-15 | 2026-09-05 00:59:14 | 52.66331 | 0.77428 | 116° | 66km/h | 16121m | -16.6m/s | -54.1°C | 0.6% | 0hPa | 2.6V | 08:21:50 | 02:08:53 | 00:00:00 | |
| BIOWL1-15 | 2026-09-05 00:58:58 | 52.66393 | 0.77177 | 110° | 64km/h | 16279m | -16.7m/s | -54.1°C | 0.6% | 0hPa | 2.5V | 08:21:50 | 02:08:43 | 00:00:00 | |
| BIOWL1-15 | 2026-09-05 00:58:47 | 52.66434 | 0.76879 | 96° | 58km/h | 16467m | -16.3m/s | -54.8°C | 0.6% | 0hPa | 2.5V | 08:21:50 | 02:08:31 | 00:00:00 | |
| BIOWL9-15 | 2026-09-05 00:58:45 | 52.66435 | 0.76854 | 93° | 58km/h | 16483m | -16.4m/s | -54.8°C | 1.3% | -1.0hPa | 2.6V | 00:00:00 | 00:00:00 | 00:00:00 | |
| DM0DOS-11 | 2026-09-05 00:58:43 | 52.66429 | 0.76665 | 81° | 69km/h | 16591m | -16m/s | -54.7°C | 4% | 0hPa | 2.6V | 08:21:48 | 02:08:23 | 00:00:00 | |
| BIOWL1-15 | 2026-09-05 00:58:39 | 52.66426 | 0.76636 | 80° | 69km/h | 16607m | -15.8m/s | -54.9°C | 0.6% | 0hPa | 2.6V | 08:21:50 | 02:08:22 | 00:00:00 | |
| DJ2DS-15 | 2026-09-05 00:58:34 | 52.66417 | 0.76548 | 82° | 77km/h | 16653m | -16.1m/s | -55.0°C | 4.1% | 0hPa | 2.6V | 00:00:00 | 02:08:19 | 00:00:00 | |
| DM0DOS-11 | 2026-09-05 00:58:29 | 52.66402 | 0.76354 | 86° | 78km/h | 16747m | -15.9m/s | -55.2°C | 4.2% | 0hPa | 2.6V | 08:21:58 | 02:08:13 | 00:00:00 | |
| BIOWL1-15 | 2026-09-05 00:58:26 | 52.66401 | 0.76287 | 88° | 82km/h | 16779m | -15.8m/s | -55.3°C | 0.7% | 0hPa | 2.5V | 08:23:32 | 02:08:11 | 00:00:00 | |
| DM0DOS-11 | 2026-09-05 00:58:19 | 52.66402 | 0.76028 | 90° | 75km/h | 16903m | -16m/s | -55.2°C | 4.3% | 0hPa | 2.5V | 08:22:08 | 02:08:03 | 00:00:00 | |
| DB0UT-7 | 2026-09-05 00:58:19 | 52.66402 | 0.76059 | 92° | 75km/h | 16887m | -16.3m/s | -55.2°C | 4.3% | 0hPa | 2.5V | 00:00:00 | 00:00:00 | 00:00:00 | |
| DJ2DS-15 | 2026-09-05 00:58:14 | 52.66404 | 0.75908 | 91° | 77km/h | 16966m | -16.1m/s | -54.8°C | 4.1% | 0hPa | 2.5V | 00:00:00 | 02:07:59 | 00:00:00 | |
| DM0DOS-11 | 2026-09-05 00:58:13 | 52.66405 | 0.75730 | 89° | 71km/h | 17060m | -16.8m/s | -54°C | 3.8% | 0hPa | 2.5V | 08:22:18 | 02:07:53 | 00:00:00 | |
| DM0DOS-11 | 2026-09-05 00:57:54 | 52.66441 | 0.75149 | 98° | 78km/h | 17355m | -16.8m/s | -54°C | 3.9% | 0hPa | 2.5V | 08:22:36 | 02:07:35 | 00:00:00 | |
| DJ2DS-15 | 2026-09-05 00:57:54 | 52.66427 | 0.75277 | 99° | 69km/h | 17289m | -17.4m/s | -53.9°C | 3.9% | 0hPa | 2.6V | 00:00:00 | 02:07:39 | 00:00:00 | |
| DM0DOS-11 | 2026-09-05 00:57:44 | 52.66459 | 0.74866 | 92° | 62km/h | 17519m | -17.3m/s | -54.1°C | 3.9% | 0hPa | 2.5V | 08:22:46 | 02:07:25 | 00:00:00 | |
| AU51GT2 | 2026-09-05 00:57:42 | 52.66459 | 0.74866 | 92° | 60km/h | 17519m | -17.3m/s | 0°C | -1.0% | -1.0hPa | 2.5V | 00:00:00 | 00:00:00 | 00:00:00 | |
| DB0UT-7 | 2026-09-05 00:57:40 | 52.66459 | 0.74866 | 93° | 68km/h | 17519m | -17.3m/s | -54.1°C | 3.9% | 0hPa | 2.5V | 00:00:00 | 02:07:25 | 00:00:00 | |
| DM0DOS-11 | 2026-09-05 00:57:34 | 52.66463 | 0.74587 | 92° | 66km/h | 17686m | -17.7m/s | -54.5°C | 4% | 0hPa | 2.5V | 08:22:56 | 02:07:15 | 00:00:00 | |
| BIOWL1-15 | 2026-09-05 00:57:30 | 52.66463 | 0.74587 | 93° | 66km/h | 17686m | -17.7m/s | -54.5°C | 0.5% | 0hPa | 2.5V | 08:23:32 | 02:07:15 | 00:00:00 | |
| DM0DOS-11 | 2026-09-05 00:57:23 | 52.66447 | 0.74310 | 77° | 64km/h | 17859m | -18.4m/s | -54.1°C | 3.9% | 0hPa | 2.5V | 08:23:06 | 02:07:05 | 00:00:00 | |
| BIOWL1-15 | 2026-09-05 00:57:18 | 52.66422 | 0.74141 | 77° | 73km/h | 17965m | -18.8m/s | -54.4°C | 0.5% | 0hPa | 2.5V | 08:23:32 | 02:06:59 | 00:00:00 | |
| DJ2DS-15 | 2026-09-05 00:57:14 | 52.66422 | 0.74141 | 77° | 75km/h | 17965m | -18.7m/s | -54.3°C | 4.1% | 0hPa | 2.5V | 00:00:00 | 02:06:59 | 00:00:00 | |
| DM0DOS-11 | 2026-09-05 00:57:11 | 52.66405 | 0.74022 | 78° | 75km/h | 18037m | -18.4m/s | -54.3°C | 4.1% | 0hPa | 2.5V | 08:23:16 | 02:06:55 | 00:00:00 | |
| BIOWL1-15 | 2026-09-05 00:57:09 | 52.66394 | 0.73930 | 82° | 73km/h | 18089m | -18.1m/s | -54°C | 0.5% | 0hPa | 2.6V | 08:23:32 | 02:06:52 | 00:00:00 | |
| BIOWL1-15 | 2026-09-05 00:56:56 | 52.66393 | 0.73578 | 91° | 77km/h | 18284m | -18.2m/s | -53.4°C | 0.5% | 0hPa | 2.5V | 08:23:32 | 02:06:41 | 00:00:00 | |
| DM0DOS-11 | 2026-09-05 00:56:54 | 52.66388 | 0.73395 | 84° | 75km/h | 18391m | -18.8m/s | -52.8°C | 3.8% | 0hPa | 2.5V | 08:23:36 | 02:06:35 | 00:00:00 | |
| BIOWL1-15 | 2026-09-05 00:56:47 | 52.66381 | 0.73240 | 88° | 78km/h | 18483m | -18.3m/s | -52.7°C | 0.5% | 0hPa | 2.5V | 08:26:56 | 02:06:30 | 00:00:00 | |
| DM0DOS-11 | 2026-09-05 00:56:43 | 52.66385 | 0.73086 | 98° | 73km/h | 18570m | -18.4m/s | -52.1°C | 3.8% | 0hPa | 2.5V | 08:23:46 | 02:06:25 | 00:00:00 | |
| BIOWL1-15 | 2026-09-05 00:56:37 | 52.66406 | 0.72911 | 103° | 68km/h | 18681m | -19.6m/s | -51.5°C | 0.3% | 0hPa | 2.6V | 08:26:56 | 02:06:19 | 00:00:00 | |
| DJ2DS-15 | 2026-09-05 00:56:34 | 52.66406 | 0.72911 | 103° | 62km/h | 18681m | -19.6m/s | -51.5°C | 3.6% | 0hPa | 2.5V | 00:00:00 | 02:06:19 | 00:00:00 | |
| DM0DOS-11 | 2026-09-05 00:56:32 | 52.66422 | 0.72807 | 103° | 66km/h | 18756m | -18.9m/s | -50.7°C | 3.3% | 0hPa | 2.5V | 08:23:56 | 02:06:15 | 00:00:00 | |
| DM0DOS-11 | 2026-09-05 00:56:25 | 52.66460 | 0.72562 | 101° | 62km/h | 18946m | -19.8m/s | -50.1°C | 3.1% | 0hPa | 2.5V | 08:24:06 | 02:06:05 | 00:00:00 | |
| DJ2DS-15 | 2026-09-05 00:56:14 | 52.66482 | 0.72414 | 107° | 37km/h | 19062m | -20.1m/s | -50.6°C | 3.3% | 0hPa | 2.5V | 00:00:00 | 02:05:59 | 00:00:00 | |
| DM0DOS-11 | 2026-09-05 00:56:13 | 52.66498 | 0.72327 | 108° | 46km/h | 19138m | -19.7m/s | -50.6°C | 3.2% | 0hPa | 2.5V | 08:24:16 | 02:05:55 | 00:00:00 | |
| DB0UT-7 | 2026-09-05 00:56:09 | 52.66502 | 0.72309 | 113° | 24km/h | 19157m | -19.7m/s | -50.6°C | 3.2% | 0hPa | 2.5V | 00:00:00 | 00:00:00 | 00:00:00 | |
| DM0DOS-11 | 2026-09-05 00:56:03 | 52.66541 | 0.72200 | 132° | 26km/h | 19328m | -19.8m/s | -50.7°C | 3.1% | 0hPa | 2.5V | 08:24:26 | 02:05:45 | 00:00:00 | |
| BIOWL1-15 | 2026-09-05 00:55:47 | 52.66600 | 0.72140 | 148° | 11km/h | 19602m | -19.7m/s | -53°C | 0.3% | 0hPa | 2.5V | 08:26:56 | 02:05:31 | 00:00:00 | |
| DM0DOS-11 | 2026-09-05 00:55:45 | 52.66614 | 0.72117 | 108° | 18km/h | 19717m | -19.4m/s | -53.6°C | 4% | 0hPa | 2.5V | 08:24:46 | 02:05:25 | 00:00:00 | |
| BIOWL1-15 | 2026-09-05 00:55:37 | 52.66622 | 0.72072 | 100° | 29km/h | 19814m | -20.1m/s | -53.4°C | 0.5% | 0hPa | 2.5V | 08:26:56 | 02:05:20 | 00:00:00 | |
| DJ2DS-15 | 2026-09-05 00:55:34 | 52.66623 | 0.72060 | 95° | 29km/h | 19834m | -20.1m/s | -53.3°C | 3.9% | 0hPa | 2.5V | 00:00:00 | 02:05:19 | 00:00:00 | |
| DM0DOS-11 | 2026-09-05 00:55:33 | 52.66625 | 0.72013 | 85° | 29km/h | 19914m | -20.7m/s | -53.7°C | 4.1% | 0hPa | 2.5V | 08:24:56 | 02:05:15 | 00:00:00 | |
| BIOWL1-15 | 2026-09-05 00:55:26 | 52.66613 | 0.71945 | 60° | 31km/h | 20033m | -20.4m/s | -52.6°C | 0.4% | 0hPa | 2.6V | 08:26:56 | 02:05:09 | 00:00:00 | |
| DM0DOS-11 | 2026-09-05 00:55:25 | 52.66596 | 0.71900 | 53° | 35km/h | 20114m | -21.2m/s | -52.4°C | 3.7% | 0hPa | 2.5V | 08:25:06 | 02:05:05 | 00:00:00 | |
| BIOWL1-15 | 2026-09-05 00:55:16 | 52.66555 | 0.71794 | 69° | 27km/h | 20320m | -21.9m/s | -51.2°C | 0.1% | 0hPa | 2.5V | 08:26:56 | 02:04:55 | 00:00:00 | |
| DJ2DS-15 | 2026-09-05 00:55:14 | 52.66569 | 0.71836 | 59° | 33km/h | 20237m | -20.7m/s | -52.2°C | 3.6% | 0hPa | 2.5V | 00:00:00 | 02:04:59 | 00:00:00 | |
| DM0DOS-11 | 2026-09-05 00:55:13 | 52.66555 | 0.71794 | 68° | 27km/h | 20320m | -21.9m/s | -51.1°C | 3.3% | 0hPa | 2.5V | 08:25:16 | 02:04:55 | 00:00:00 | |
| BIOWL9-15 | 2026-09-05 00:55:08 | 52.66547 | 0.71759 | 73° | 27km/h | 20384m | -21.2m/s | -51.5°C | 0.9% | -1.0hPa | 2.5V | 00:00:00 | 00:00:00 | 00:00:00 | |
| DJ2DS-15 | 2026-09-05 00:55:06 | 52.66545 | 0.71747 | 76° | 31km/h | 20405m | -21.2m/s | -51.6°C | 0.9% | -1.0hPa | 2.5V | 00:00:00 | 00:00:00 | 00:00:00 | |
| DM0DOS-11 | 2026-09-05 00:55:05 | 52.66538 | 0.71659 | 83° | 38km/h | 20529m | -21.8m/s | -52.1°C | 3.5% | 0hPa | 2.5V | 08:25:26 | 02:04:45 | 00:00:00 | |
| BIOWL1-15 | 2026-09-05 00:55:00 | 52.66538 | 0.71659 | 83° | 38km/h | 20529m | -21.8m/s | -52.1°C | 0.2% | 0hPa | 2.5V | 08:26:56 | 02:04:45 | 00:00:00 | |
| DJ2DS-15 | 2026-09-05 00:54:54 | 52.66535 | 0.71563 | 88° | 35km/h | 20658m | -21.5m/s | -52.2°C | 3.5% | 0hPa | 2.6V | 00:00:00 | 02:04:39 | 00:00:00 | |
| DM0DOS-11 | 2026-09-05 00:54:53 | 52.66533 | 0.71494 | 89° | 40km/h | 20742m | -21.8m/s | -52.8°C | 3.7% | 0hPa | 2.5V | 08:25:36 | 02:04:35 | 00:00:00 | |
| BIOWL1-15 | 2026-09-05 00:54:48 | 52.66533 | 0.71458 | 87° | 42km/h | 20785m | -22m/s | -53°C | 0.5% | 0hPa | 2.6V | 08:26:56 | 02:04:33 | 00:00:00 | |
| DM0DOS-11 | 2026-09-05 00:54:44 | 52.66542 | 0.71340 | 114° | 31km/h | 20954m | -21.8m/s | -53.7°C | 4% | 0hPa | 2.5V | 08:25:46 | 02:04:25 | 00:00:00 | |
| DJ2DS-15 | 2026-09-05 00:54:34 | 52.66563 | 0.71290 | 141° | 9km/h | 21084m | -22.6m/s | -51.6°C | 3.3% | 0hPa | 2.5V | 00:00:00 | 02:04:19 | 00:00:00 | |
| DM0DOS-11 | 2026-09-05 00:54:33 | 52.66576 | 0.71275 | 153° | 11km/h | 21172m | -22.8m/s | -51.9°C | 3.3% | 0hPa | 2.5V | 08:25:56 | 02:04:15 | 00:00:00 | |
| BIOWL1-15 | 2026-09-05 00:54:31 | 52.66579 | 0.71273 | 169° | 9km/h | 21194m | -22.8m/s | -52°C | 0.2% | 0hPa | 2.6V | 08:26:56 | 02:04:14 | 00:00:00 | |
| DM0DOS-11 | 2026-09-05 00:54:21 | 52.66595 | 0.71279 | 253° | 5km/h | 21392m | -22.9m/s | -52.9°C | 3.6% | 0hPa | 2.5V | 08:26:06 | 02:04:05 | 00:00:00 | |
| BIOWL1-15 | 2026-09-05 00:54:19 | 52.66596 | 0.71281 | 253° | 7km/h | 21415m | -23.8m/s | -53.1°C | 0.4% | 0hPa | 2.6V | 08:26:56 | 02:04:04 | 00:00:00 | |
| DM0DOS-11 | 2026-09-05 00:54:14 | 52.66593 | 0.71270 | 65° | 9km/h | 21622m | -23.6m/s | -54°C | 4% | 0hPa | 2.5V | 08:26:16 | 02:03:55 | 00:00:00 | |
| BIOWL1-15 | 2026-09-05 00:54:09 | 52.66592 | 0.71266 | 72° | 11km/h | 21645m | -23.4m/s | -54°C | 0.6% | 0hPa | 2.6V | 08:26:56 | 02:03:54 | 00:00:00 | |
| BIOWL9-15 | 2026-09-05 00:54:05 | 52.66587 | 0.71239 | 66° | 16km/h | 21739m | -23.6m/s | -53.2°C | 1.0% | -1.0hPa | 2.5V | 00:00:00 | 00:00:00 | 00:00:00 | |
| DM0DOS-11 | 2026-09-05 00:54:04 | 52.66575 | 0.71193 | 64° | 24km/h | 21855m | -23.8m/s | -53.1°C | 3.8% | 0hPa | 2.5V | 08:26:26 | 02:03:45 | 00:00:00 | |
| BIOWL1-15 | 2026-09-05 00:54:00 | 52.66569 | 0.71172 | 71° | 31km/h | 21903m | -24.4m/s | -53.3°C | 0.6% | 0hPa | 2.6V | 08:26:56 | 02:03:43 | 00:00:00 | |
| DJ2DS-15 | 2026-09-05 00:53:54 | 52.66560 | 0.71123 | 79° | 37km/h | 21998m | -24.1m/s | -53.1°C | 3.8% | 0hPa | 2.6V | 08:26:00 | 02:03:39 | 00:00:00 | |
| DM0DOS-11 | 2026-09-05 00:53:52 | 52.66556 | 0.71048 | 94° | 38km/h | 22117m | -23.9m/s | -53.1°C | 3.9% | 0hPa | 2.6V | 08:26:37 | 02:03:34 | 00:00:00 | |
| DM0DOS-11 | 2026-09-05 00:53:41 | 52.66583 | 0.70881 | 115° | 35km/h | 22380m | -24.7m/s | -52°C | 3.7% | 0hPa | 2.6V | 08:26:48 | 02:03:23 | 00:00:00 | |
| DJ2DS-15 | 2026-09-05 00:53:34 | 52.66599 | 0.70837 | 120° | 11km/h | 22477m | -25.4m/s | -52.1°C | 3.7% | 0hPa | 2.5V | 00:00:00 | 02:03:19 | 00:00:00 | |
| DM0DOS-11 | 2026-09-05 00:53:30 | 52.66619 | 0.70794 | 141° | 13km/h | 22627m | -26.2m/s | -51.2°C | 3.4% | 0hPa | 2.5V | 08:26:58 | 02:03:13 | 00:00:00 | |
| BIOWL1-15 | 2026-09-05 00:53:30 | 52.66614 | 0.70804 | 123° | 20km/h | 22577m | -26.1m/s | -51.5°C | 0.3% | 0hPa | 2.5V | 08:26:56 | 02:03:15 | 00:00:00 | |
| DB0UT-7 | 2026-09-05 00:53:30 | 52.66614 | 0.70804 | 124° | 13km/h | 22577m | -26.0m/s | -51.4°C | 3.5% | 0hPa | 2.5V | 00:00:00 | 02:03:15 | 00:00:00 | |
| DM0DOS-11 | 2026-09-05 00:53:23 | 52.66628 | 0.70780 | 40° | 4km/h | 22881m | -26.3m/s | -50.8°C | 3.2% | 0hPa | 2.5V | 08:27:08 | 02:03:03 | 00:00:00 | |
| BIOWL1-15 | 2026-09-05 00:53:20 | 52.66629 | 0.70779 | 308° | 4km/h | 22829m | -26.5m/s | -50.8°C | 0.1% | 0hPa | 2.5V | 08:27:47 | 02:03:05 | 00:00:00 | |
| DJ2DS-15 | 2026-09-05 00:53:18 | 52.66628 | 0.70780 | 40° | 4km/h | 22881m | -26.3m/s | -50.8°C | 0.8% | -1.0hPa | 2.5V | 00:00:00 | 00:00:00 | 00:00:00 | |
| DJ2DS-15 | 2026-09-05 00:53:14 | 52.66622 | 0.70777 | 38° | 18km/h | 22985m | -26.6m/s | -51.4°C | 3.4% | 0hPa | 2.5V | 00:00:00 | 02:02:59 | 00:00:00 | |
| DM0DOS-11 | 2026-09-05 00:53:13 | 52.66605 | 0.70754 | 40° | 16km/h | 23141m | -26.3m/s | -52.3°C | 3.7% | 0hPa | 2.5V | 08:27:18 | 02:02:53 | 00:00:00 | |
| BIOWL1-15 | 2026-09-05 00:53:09 | 52.66608 | 0.70759 | 43° | 18km/h | 23115m | -26.4m/s | -52.1°C | 0.4% | 0hPa | 2.5V | 08:27:47 | 02:02:54 | 00:00:00 | |
| DM0DOS-11 | 2026-09-05 00:53:03 | 52.66590 | 0.70680 | 102° | 16km/h | 23397m | -26.8m/s | -52.6°C | 3.9% | 0hPa | 2.5V | 08:27:28 | 02:02:43 | 00:00:00 | |
| DB0UT-7 | 2026-09-05 00:53:00 | 52.66589 | 0.70695 | 88° | 15km/h | 23346m | -26.6m/s | -52.9°C | 4.1% | 0hPa | 2.6V | 08:27:00 | 00:00:00 | 00:00:00 | |
| DJ2DS-15 | 2026-09-05 00:52:54 | 52.66594 | 0.70650 | 115° | 16km/h | 23502m | -27.0m/s | -51.8°C | 3.8% | 0hPa | 2.6V | 00:00:00 | 02:02:39 | 00:00:00 | |
| DM0DOS-11 | 2026-09-05 00:52:53 | 52.66610 | 0.70611 | 138° | 22km/h | 23659m | -27.9m/s | -51.2°C | 3.6% | 0hPa | 2.5V | 08:27:38 | 02:02:33 | 00:00:00 | |
| DM0DOS-11 | 2026-09-05 00:52:43 | 52.66634 | 0.70554 | 106° | 15km/h | 23927m | -28.3m/s | -49.8°C | 3.3% | 0hPa | 2.5V | 08:27:48 | 02:02:23 | 00:00:00 | |
| BIOWL1-15 | 2026-09-05 00:52:34 | 52.66640 | 0.70533 | 122° | 13km/h | 24038m | -28.8m/s | -49.7°C | 0.1% | 0hPa | 2.6V | 18:12:15 | 02:02:19 | 00:00:00 | |
| DL1XH-west | 2026-09-05 00:52:31 | 52.66647 | 0.70527 | 169° | 11km/h | 24123m | -28.7m/s | -49.6°C | 0.1% | 0hPa | 2.5V | 08:29:29 | 02:02:16 | 00:00:00 | |
| DM0DOS-11 | 2026-09-05 00:52:29 | 52.66656 | 0.70525 | 192° | 7km/h | 24207m | -29.2m/s | -48.9°C | 3% | 0hPa | 2.6V | 08:27:58 | 02:02:13 | 00:00:00 | |
| BIOWL1-15 | 2026-09-05 00:52:23 | 52.66665 | 0.70526 | 97° | 4km/h | 24382m | -29.4m/s | -49.2°C | 0% | 0hPa | 2.6V | 18:12:15 | 02:02:07 | 00:00:00 | |
| DM0DOS-11 | 2026-09-05 00:52:22 | 52.66662 | 0.70520 | 63° | 9km/h | 24497m | -29.5m/s | -50.2°C | 3.2% | 0hPa | 2.6V | 08:28:08 | 02:02:03 | 00:00:00 | |
| DJ2DS-15 | 2026-09-05 00:52:14 | 52.66657 | 0.70507 | 76° | 9km/h | 24614m | -30.3m/s | -50.5°C | 3.4% | 0hPa | 2.5V | 00:00:00 | 02:01:59 | 00:00:00 | |
| DM0DOS-11 | 2026-09-05 00:52:12 | 52.66661 | 0.70481 | 140° | 11km/h | 24790m | -29.1m/s | -50.7°C | 3.5% | 0hPa | 2.5V | 08:28:18 | 02:01:53 | 00:00:00 | |
| BIOWL1-15 | 2026-09-05 00:52:12 | 52.66657 | 0.70499 | 91° | 9km/h | 24673m | -30.1m/s | -50.5°C | 0.2% | 0hPa | 2.6V | 18:12:15 | 02:01:57 | 00:00:00 | |
| DL1XH-west | 2026-09-05 00:52:04 | 52.66672 | 0.70471 | 174° | 11km/h | 24906m | -30.2m/s | -50.4°C | 0.3% | 0hPa | 2.5V | 08:29:29 | 02:01:49 | 00:00:00 | |
| DM0DOS-11 | 2026-09-05 00:52:02 | 52.66685 | 0.70470 | 164° | 2km/h | 25084m | -30.6m/s | -50°C | 3.3% | 0hPa | 2.5V | 08:28:28 | 02:01:43 | 00:00:00 | |
| BIOWL1-15 | 2026-09-05 00:52:02 | 52.66684 | 0.70470 | 184° | 7km/h | 25054m | -30.8m/s | -49.9°C | 0.1% | 0hPa | 2.5V | 18:12:15 | 02:01:44 | 00:00:00 | |
| AU51GT2 | 2026-09-05 00:52:01 | 52.66682 | 0.70469 | 204° | 7km/h | 25023m | -30.5m/s | -49.9°C | 0.8% | -1.0hPa | 2.5V | 00:00:00 | 00:00:00 | 00:00:00 | |
| DJ2DS-15 | 2026-09-05 00:51:54 | 52.66686 | 0.70467 | 88° | 7km/h | 25205m | -30.3m/s | -49.9°C | 3.3% | 0hPa | 2.5V | 00:00:00 | 02:01:39 | 00:00:00 | |
| DM0DOS-11 | 2026-09-05 00:51:52 | 52.66690 | 0.70446 | 117° | 9km/h | 25382m | -30.7m/s | -50.1°C | 3.4% | 0hPa | 2.6V | 08:28:38 | 02:01:33 | 00:00:00 | |
| BIOWL1-15 | 2026-09-05 00:51:51 | 52.66687 | 0.70457 | 111° | 7km/h | 25293m | -30.4m/s | -49.9°C | 0.2% | 0hPa | 2.5V | 18:12:15 | 02:01:36 | 00:00:00 | |
| DM0DOS-11 | 2026-09-05 00:51:43 | 52.66710 | 0.70432 | 180° | 2km/h | 25690m | -32.5m/s | -50°C | 3.5% | 0hPa | 2.6V | 08:28:48 | 02:01:23 | 00:00:00 | |
| DB0UT-7 | 2026-09-05 00:51:41 | 52.66706 | 0.70433 | 180° | 13km/h | 25596m | -32.0m/s | -50.1°C | 3.4% | 0hPa | 2.6V | 00:00:00 | 00:00:00 | 00:00:00 | |
| DJ2DS-15 | 2026-09-05 00:51:34 | 52.66710 | 0.70423 | 74° | 13km/h | 25817m | -31.9m/s | -49.9°C | 3.5% | 0hPa | 2.6V | 00:00:00 | 02:01:19 | 00:00:00 | |
| DM0DOS-11 | 2026-09-05 00:51:33 | 52.66712 | 0.70400 | 126° | 9km/h | 26010m | -34.9m/s | -49.5°C | 3.5% | 0hPa | 2.6V | 08:28:58 | 02:01:13 | 00:00:00 | |
| BIOWL1-15 | 2026-09-05 00:51:32 | 52.66710 | 0.70416 | 89° | 11km/h | 25879m | -32.5m/s | -49.8°C | 0.3% | 0hPa | 2.5V | 18:12:15 | 02:01:17 | 00:00:00 | |
| DL1XH-west | 2026-09-05 00:51:30 | 52.66711 | 0.70403 | 108° | 11km/h | 25977m | -34.6m/s | -49.6°C | 0.3% | 0hPa | 2.5V | 08:29:29 | 02:01:14 | 00:00:00 | |
| AU51GT2 | 2026-09-05 00:51:30 | 52.66711 | 0.70403 | 108° | 11km/h | 25977m | -34.6m/s | -49.6°C | 0.9% | -1.0hPa | 2.5V | 00:00:00 | 00:00:00 | 00:00:00 | |
| DM0DOS-11 | 2026-09-05 00:51:23 | 52.66743 | 0.70365 | 155° | 18km/h | 26407m | -40.9m/s | -48.1°C | 3.1% | 0hPa | 2.5V | 08:29:08 | 02:01:03 | 00:00:00 | |
| BIOWL1-15 | 2026-09-05 00:51:22 | 52.66728 | 0.70382 | 145° | 16km/h | 26246m | -43m/s | -48.8°C | 0.2% | 0hPa | 2.6V | 18:12:15 | 02:01:07 | 00:00:00 | |
| DJ2DS-15 | 2026-09-05 00:51:14 | 52.66762 | 0.70347 | 156° | 16km/h | 26572m | -42.4m/s | -47.4°C | 3.0% | 0hPa | 2.5V | 00:00:00 | 02:00:59 | 00:00:00 | |
| DM0DOS-11 | 2026-09-05 00:51:13 | 52.66790 | 0.70335 | 176° | 16km/h | 26821m | -44.5m/s | -47°C | 2.9% | 0hPa | 2.5V | 08:29:18 | 02:00:53 | 00:00:00 | |
| DL1XH-west | 2026-09-05 00:51:07 | 52.66795 | 0.70334 | 174° | 16km/h | 26866m | -46.4m/s | -47°C | 0% | 0hPa | 2.6V | 08:29:29 | 02:00:52 | 00:00:00 | |
| DM0DOS-11 | 2026-09-05 00:51:03 | 52.66832 | 0.70366 | 227° | 13km/h | 27306m | -45.2m/s | -47.6°C | 3% | 0hPa | 2.5V | 08:29:29 | 02:00:42 | 00:00:00 | |
| DL1XH1-15 | 2026-09-05 00:51:03 | 52.66824 | 0.70351 | 219° | 15km/h | 27172m | -44.6m/s | -47.1°C | 2.9% | 0hPa | 2.6V | 08:30:00 | 02:00:45 | 00:00:00 | |
| DL1XH-west | 2026-09-05 00:50:56 | 52.66834 | 0.70370 | 244° | 9km/h | 27350m | -44.6m/s | -47.7°C | 0% | 0hPa | 2.5V | 18:12:15 | 02:00:41 | 00:00:00 | |
| BIOWL1-15 | 2026-09-05 00:50:52 | 52.66837 | 0.70383 | 234° | 4km/h | 27530m | -46.1m/s | -47.1°C | 0% | 0hPa | 2.5V | 18:12:15 | 02:00:37 | 00:00:00 | |
| DM0DOS-11 | 2026-09-05 00:50:52 | 52.66839 | 0.70385 | 156° | 0km/h | 27697m | -38.6m/s | -47.5°C | 3% | 0hPa | 2.5V | 08:30:00 | 02:00:33 | 00:00:00 | |
| DL1XH1-15 | 2026-09-05 00:50:51 | 52.66840 | 0.70383 | 78° | 2km/h | 27772m | -36.9m/s | -47.5°C | 2.9% | 0hPa | 2.5V | 08:30:00 | 02:00:31 | 00:00:00 | |
| DL1XH-west | 2026-09-05 00:50:46 | 52.66840 | 0.70383 | 78° | 2km/h | 27772m | -36.9m/s | -47.5°C | 0% | 0hPa | 2.5V | 18:12:15 | 02:00:31 | 00:00:00 | |
| DM0DOS-11 | 2026-09-05 00:50:42 | 52.66839 | 0.70350 | 92° | 15km/h | 28033m | -25.9m/s | -47.7°C | 3.2% | 0hPa | 2.5V | 08:30:00 | 02:00:23 | 00:00:00 | |
| DB0UT-7 | 2026-09-05 00:50:41 | 52.66839 | 0.70367 | 92° | 22km/h | 27943m | -32.4m/s | -47.7°C | 3.1% | 0hPa | 2.5V | 00:00:00 | 00:00:00 | 00:00:00 | |
| DL1XH1-15 | 2026-09-05 00:50:37 | 52.66841 | 0.70339 | 112° | 13km/h | 28079m | -19.1m/s | -47.7°C | 3.2% | 0hPa | 2.5V | 08:30:00 | 02:00:21 | 00:00:00 | |
| BIOWL1-15 | 2026-09-05 00:50:37 | 52.66840 | 0.70344 | 106° | 15km/h | 28058m | -23.8m/s | -47.7°C | 0.1% | 0hPa | 2.5V | 18:12:15 | 02:00:22 | 00:00:00 | |
| DL1XH-west | 2026-09-05 00:50:35 | 52.66844 | 0.70328 | 136° | 13km/h | 28110m | -14.6m/s | -47.6°C | 0.2% | 0hPa | 2.6V | 18:12:15 | 02:00:19 | 00:00:00 | |
| DJ2DS-15 | 2026-09-05 00:50:34 | 52.66844 | 0.70328 | 137° | 26km/h | 28110m | -14.5m/s | -47.5°C | 3.2% | 0hPa | 2.6V | 00:00:00 | 02:00:19 | 00:00:00 | |
| DM0DOS-11 | 2026-09-05 00:50:32 | 52.66867 | 0.70313 | 179° | 18km/h | 28226m | -26.2m/s | -46.5°C | 2.9% | 0hPa | 2.6V | 08:30:00 | 02:00:13 | 00:00:00 | |
| DL1XH1-15 | 2026-09-05 00:50:27 | 52.66878 | 0.70315 | 184° | 26km/h | 28276m | -22.4m/s | -46.4°C | 2.9% | 0hPa | 2.5V | 08:30:00 | 02:00:11 | 00:00:00 | |
| BIOWL1-15 | 2026-09-05 00:50:26 | 52.66878 | 0.70315 | 185° | 26km/h | 28276m | -22.4m/s | -46.4°C | 0% | 0hPa | 2.5V | 18:12:15 | 02:00:11 | 00:00:00 | |
| DL1XH-west | 2026-09-05 00:50:25 | 52.66885 | 0.70316 | 183° | 27km/h | 28299m | -22.1m/s | -46.1°C | 0% | 0hPa | 2.5V | 18:12:15 | 02:00:10 | 00:00:00 | |
| BIOWL1-15 | 2026-09-05 00:50:18 | 52.66956 | 0.70344 | 200° | 24km/h | 28497m | -24.4m/s | -46.2°C | 0% | 0hPa | 2.5V | 18:12:15 | 02:00:01 | 00:00:00 | |
| DL1XH1-15 | 2026-09-05 00:50:17 | 52.66956 | 0.70344 | 199° | 24km/h | 28497m | -24.4m/s | -46.2°C | 2.8% | 0hPa | 2.5V | 08:30:00 | 02:00:01 | 00:00:00 | |
| DL1XH-west | 2026-09-05 00:50:14 | 52.66966 | 0.70353 | 221° | 16km/h | 28543m | -22.2m/s | -46.3°C | 0% | 0hPa | 2.5V | 18:12:15 | 01:59:59 | 00:00:00 | |
| DJ2DS-15 | 2026-09-05 00:50:14 | 52.66966 | 0.70353 | 222° | 7km/h | 28544m | -22.2m/s | -46.3°C | 2.9% | 0hPa | 2.6V | 00:00:00 | 01:59:59 | 00:00:00 | |
| DM0DOS-11 | 2026-09-05 00:50:12 | 52.66972 | 0.70365 | 28° | 2km/h | 28700m | -33m/s | -46.1°C | 2.8% | 0hPa | 2.6V | 08:30:00 | 01:59:53 | 00:00:00 | |
| BIOWL1-15 | 2026-09-05 00:50:05 | 52.66971 | 0.70362 | 100° | 4km/h | 28801m | -35m/s | -46.4°C | 0% | 0hPa | 2.5V | 18:12:15 | 01:59:50 | 00:00:00 | |
| DL1XH-west | 2026-09-05 00:50:03 | 52.66972 | 0.70358 | 99° | 4km/h | 28869m | -33.5m/s | -46.5°C | 0% | 0hPa | 2.6V | 18:12:15 | 01:59:48 | 00:00:00 | |
| DM0DOS-11 | 2026-09-05 00:50:01 | 52.66969 | 0.70348 | 44° | 5km/h | 29018m | -19.8m/s | -45.7°C | 2.6% | 0hPa | 2.6V | 08:30:00 | 01:59:43 | 00:00:00 | |
| BIOWL1-15 | 2026-09-05 00:49:55 | 52.66965 | 0.70344 | 9° | 5km/h | 29036m | 8.9m/s | -45.8°C | 0% | 0hPa | 2.5V | 18:12:15 | 01:59:40 | 00:00:00 | |
| DL1XH-west | 2026-09-05 00:49:52 | 52.66964 | 0.70341 | 136° | 9km/h | 29018m | 6.8m/s | -46°C | 0% | 0hPa | 2.6V | 18:12:15 | 01:59:37 | 00:00:00 | |
| BIOWL1-15 | 2026-09-05 00:49:44 | 52.66969 | 0.70281 | 91° | 16km/h | 28956m | 4.5m/s | -46.7°C | 0% | 0hPa | 2.5V | 18:12:15 | 01:59:26 | 00:00:00 | |
| DM0DOS-11 | 2026-09-05 00:49:44 | 52.66971 | 0.70267 | 120° | 7km/h | 28938m | 6m/s | -46.7°C | 2.8% | 0hPa | 2.5V | 08:30:00 | 01:59:23 | 00:00:00 | |
| DL1XH-west | 2026-09-05 00:49:42 | 52.66970 | 0.70288 | 84° | 18km/h | 28960m | 4.8m/s | -46.7°C | 0% | 0hPa | 2.6V | 18:12:15 | 01:59:27 | 00:00:00 | |
| BIOWL1-15 | 2026-09-05 00:49:33 | 52.66981 | 0.70264 | 202° | 7km/h | 28909m | 4.8m/s | -46.8°C | 0% | 0hPa | 2.5V | 18:12:15 | 01:59:18 | 00:00:00 | |
| DL1XH-west | 2026-09-05 00:49:32 | 52.66982 | 0.70266 | 263° | 5km/h | 28903m | 6.8m/s | -46.8°C | 0% | 0hPa | 2.5V | 18:12:15 | 01:59:17 | 00:00:00 | |
| DM0DOS-11 | 2026-09-05 00:49:31 | 52.66972 | 0.70272 | 11° | 13km/h | 28879m | 6.2m/s | -46.8°C | 2.9% | 0hPa | 2.5V | 08:30:00 | 01:59:13 | 00:00:00 | |
| DL1XH-west | 2026-09-05 00:49:22 | 52.66971 | 0.70268 | 237° | 11km/h | 28844m | 5.6m/s | -46.7°C | 0% | 0hPa | 2.5V | 18:12:15 | 01:59:07 | 00:00:00 | |
| DL1XH1-15 | 2026-09-05 00:49:22 | 52.66977 | 0.70288 | 280° | 11km/h | 28814m | 7m/s | -46.7°C | 2.9% | 0hPa | 2.5V | 08:30:00 | 01:59:02 | 00:00:00 | |
| DM0DOS-11 | 2026-09-05 00:49:19 | 52.66977 | 0.70284 | 254° | 9km/h | 28820m | 5.5m/s | -46.7°C | 2.9% | 0hPa | 2.5V | 08:30:00 | 01:59:03 | 00:00:00 | |
| BIOWL1-15 | 2026-09-05 00:49:19 | 52.66976 | 0.70280 | 235° | 11km/h | 28826m | 5.7m/s | -46.7°C | 0% | 0hPa | 2.5V | 18:12:15 | 01:59:04 | 00:00:00 | |
| DJ2DS-15 | 2026-09-05 00:49:14 | 52.66971 | 0.70299 | 349° | 7km/h | 28797m | 6.9m/s | -46.6°C | 2.9% | 0hPa | 2.5V | 00:00:00 | 01:58:59 | 00:00:00 | |
| DM0DOS-11 | 2026-09-05 00:49:13 | 52.66964 | 0.70288 | 165° | 5km/h | 28754m | 6.7m/s | -46.5°C | 2.8% | 0hPa | 2.5V | 08:30:00 | 01:58:52 | 00:00:00 | |
| DL1XH-west | 2026-09-05 00:49:12 | 52.66967 | 0.70296 | 46° | 11km/h | 28783m | 5.8m/s | -46.6°C | 0% | 0hPa | 2.5V | 18:12:15 | 01:58:57 | 00:00:00 | |
| DB0UT-7 | 2026-09-05 00:49:11 | 52.66966 | 0.70293 | 50° | 9km/h | 28777m | 6.5m/s | -46.5°C | 2.8% | 0hPa | 2.5V | 00:00:00 | 01:58:56 | 00:00:00 | |
| DL1XH1-15 | 2026-09-05 00:49:07 | 52.66972 | 0.70291 | 236° | 9km/h | 28730m | 7.2m/s | -46.4°C | 2.8% | 0hPa | 2.5V | 08:30:00 | 01:58:48 | 00:00:00 | |
| HTAHTA | 2026-09-05 00:49:03 | 52.66973 | 0.70314 | 281° | 2km/h | 28688m | 6.3m/s | 0°C | -1.0% | -1.0hPa | 2.5V | 00:00:00 | 00:00:00 | 00:00:00 | |
| DM0DOS-11 | 2026-09-05 00:49:01 | 52.66973 | 0.70311 | 257° | 5km/h | 28699m | 5m/s | -46.3°C | 2.8% | 0hPa | 2.5V | 08:30:00 | 01:58:43 | 00:00:00 | |
| DL1XH-west | 2026-09-05 00:49:01 | 52.66973 | 0.70300 | 275° | 13km/h | 28717m | 5.6m/s | -46.4°C | 0% | 0hPa | 2.6V | 18:12:15 | 01:58:46 | 00:00:00 | |
| DL1XH1-15 | 2026-09-05 00:48:57 | 52.66972 | 0.70318 | 196° | 2km/h | 28670m | 6m/s | -46.2°C | 2.8% | 0hPa | 2.5V | 08:30:00 | 01:58:38 | 00:00:00 | |
| BIOWL1-15 | 2026-09-05 00:48:55 | 52.66973 | 0.70316 | 297° | 4km/h | 28682m | 6.3m/s | -46.2°C | 0% | 0hPa | 2.6V | 18:12:15 | 01:58:40 | 00:00:00 | |
| DL1XH-west | 2026-09-05 00:48:50 | 52.66977 | 0.70318 | 205° | 11km/h | 28652m | 5.2m/s | -46.3°C | 0% | 0hPa | 2.6V | 18:12:15 | 01:58:35 | 00:00:00 | |
| DM0DOS-11 | 2026-09-05 00:48:49 | 52.66982 | 0.70326 | 243° | 16km/h | 28639m | 6.3m/s | -46.3°C | 2.8% | 0hPa | 2.5V | 08:30:00 | 01:58:33 | 00:00:00 | |
| DL1XH1-15 | 2026-09-05 00:48:47 | 52.66993 | 0.70352 | 203° | 11km/h | 28609m | 5.8m/s | -46.2°C | 2.8% | 0hPa | 2.5V | 08:30:00 | 01:58:28 | 00:00:00 | |
| BIOWL1-15 | 2026-09-05 00:48:44 | 52.66990 | 0.70349 | 215° | 13km/h | 28615m | 6.2m/s | -46.3°C | 0% | 0hPa | 2.5V | 18:12:15 | 01:58:29 | 00:00:00 | |
| DL1XH-west | 2026-09-05 00:48:40 | 52.66999 | 0.70357 | 202° | 7km/h | 28591m | 5.1m/s | -46.2°C | 0% | 0hPa | 2.6V | 18:12:15 | 01:58:25 | 00:00:00 | |
| BIOWL1-15 | 2026-09-05 00:48:38 | 52.67019 | 0.70362 | 216° | 20km/h | 28554m | 6m/s | -46.3°C | 0% | 0hPa | 2.5V | 18:12:15 | 01:58:19 | 00:00:00 | |
| DJ2DS-15 | 2026-09-05 00:48:34 | 52.67019 | 0.70362 | 217° | 27km/h | 28554m | 6.0m/s | -46.3°C | 2.9% | 0hPa | 2.5V | 00:00:00 | 01:58:19 | 00:00:00 | |
| DM0DOS-11 | 2026-09-05 00:48:31 | 52.67055 | 0.70388 | 195° | 26km/h | 28516m | 6m/s | -46.2°C | 2.9% | 0hPa | 2.5V | 08:30:00 | 01:58:13 | 00:00:00 | |
| DL1XH-west | 2026-09-05 00:48:30 | 52.67041 | 0.70383 | 196° | 29km/h | 28528m | 6.3m/s | -46.3°C | 0% | 0hPa | 2.6V | 18:12:15 | 01:58:15 | 00:00:00 | |
| DJ2DS-15 | 2026-09-05 00:48:29 | 52.67048 | 0.70385 | 192° | 27km/h | 28523m | 5.7m/s | -46.2°C | 0.7% | -1.0hPa | 2.6V | 00:00:00 | 00:00:00 | 00:00:00 | |
| DL1XH1-15 | 2026-09-05 00:48:25 | 52.67098 | 0.70398 | 190° | 31km/h | 28470m | 6.7m/s | -45.8°C | 2.7% | 0hPa | 2.6V | 08:30:00 | 01:58:05 | 00:00:00 | |
| BIOWL1-15 | 2026-09-05 00:48:25 | 52.67078 | 0.70397 | 177° | 20km/h | 28486m | 6.1m/s | -45.9°C | 0% | 0hPa | 2.5V | 18:12:15 | 01:58:08 | 00:00:00 | |
| DL1XH-west | 2026-09-05 00:48:19 | 52.67114 | 0.70408 | 205° | 40km/h | 28456m | 6m/s | -45.7°C | 0% | 0hPa | 2.5V | 18:12:15 | 01:58:03 | 00:00:00 | |
| DM0DOS-11 | 2026-09-05 00:48:19 | 52.67114 | 0.70408 | 204° | 38km/h | 28456m | 6m/s | -45.6°C | 2.7% | 0hPa | 2.5V | 08:30:00 | 01:58:03 | 00:00:00 | |
| DJ2DS-15 | 2026-09-05 00:48:14 | 52.67153 | 0.70430 | 195° | 27km/h | 28432m | 5.4m/s | -45.5°C | 2.7% | 0hPa | 2.5V | 00:00:00 | 01:57:59 | 00:00:00 | |
| DM0DOS-11 | 2026-09-05 00:48:13 | 52.67202 | 0.70437 | 173° | 29km/h | 28392m | 4.5m/s | -45.5°C | 2.6% | 0hPa | 2.5V | 08:30:00 | 01:57:52 | 00:00:00 | |
| DL1XH1-15 | 2026-09-05 00:48:13 | 52.67182 | 0.70441 | 180° | 24km/h | 28409m | 6m/s | -45.4°C | 2.6% | 0hPa | 2.6V | 08:30:00 | 01:57:55 | 00:00:00 | |
| BIOWL1-15 | 2026-09-05 00:48:12 | 52.67176 | 0.70440 | 190° | 24km/h | 28414m | 4.9m/s | -45.5°C | 0% | 0hPa | 2.6V | 18:12:15 | 01:57:56 | 00:00:00 | |
| DL1XH-west | 2026-09-05 00:48:08 | 52.67195 | 0.70439 | 168° | 27km/h | 28397m | 5.2m/s | -45.5°C | 0% | 0hPa | 2.5V | 18:12:15 | 01:57:53 | 00:00:00 | |
| BIOWL1-15 | 2026-09-05 00:48:02 | 52.67240 | 0.70455 | 204° | 38km/h | 28362m | 6.7m/s | -45.9°C | 0% | 0hPa | 2.5V | 18:12:15 | 01:57:47 | 00:00:00 | |
| DM0DOS-11 | 2026-09-05 00:48:01 | 52.67276 | 0.70471 | 185° | 16km/h | 28334m | 6.5m/s | -46.2°C | 2.7% | 0hPa | 2.5V | 08:30:00 | 01:57:42 | 00:00:00 | |
| DL1XH1-15 | 2026-09-05 00:48:00 | 52.67257 | 0.70465 | 194° | 33km/h | 28351m | 4.5m/s | -46°C | 2.7% | 0hPa | 2.6V | 08:30:00 | 01:57:45 | 00:00:00 | |
| DL1XH-west | 2026-09-05 00:47:58 | 52.67271 | 0.70470 | 190° | 22km/h | 28341m | 6.5m/s | -46.1°C | 0% | 0hPa | 2.5V | 18:12:15 | 01:57:43 | 00:00:00 | |
| DL1XH1-15 | 2026-09-05 00:47:55 | 52.67311 | 0.70443 | 167° | 31km/h | 28295m | 6.3m/s | -46.8°C | 2.8% | 0hPa | 2.6V | 08:30:00 | 01:57:35 | 00:00:00 | |
| BIOWL1-15 | 2026-09-05 00:47:51 | 52.67304 | 0.70447 | 158° | 33km/h | 28301m | 5.3m/s | -46.7°C | 0% | 0hPa | 2.6V | 18:12:15 | 01:57:36 | 00:00:00 | |
| DM0DOS-11 | 2026-09-05 00:47:48 | 52.67333 | 0.70444 | 190° | 27km/h | 28278m | 5.2m/s | -46.8°C | 2.8% | 0hPa | 2.5V | 08:30:00 | 01:57:32 | 00:00:00 | |
| DL1XH-west | 2026-09-05 00:47:48 | 52.67326 | 0.70443 | 188° | 27km/h | 28284m | 5m/s | -46.8°C | 0% | 0hPa | 2.5V | 18:12:15 | 01:57:33 | 00:00:00 | |
| BIOWL1-15 | 2026-09-05 00:47:45 | 52.67369 | 0.70440 | 160° | 15km/h | 28245m | 6.5m/s | -46.8°C | 0% | 0hPa | 2.6V | 18:12:15 | 01:57:26 | 00:00:00 | |
| DM0DOS-11 | 2026-09-05 00:47:42 | 52.67379 | 0.70425 | 127° | 18km/h | 28222m | 6m/s | -47°C | 2.8% | 0hPa | 2.5V | 08:30:00 | 01:57:22 | 00:00:00 | |
| DL1XH1-15 | 2026-09-05 00:47:42 | 52.67372 | 0.70438 | 151° | 11km/h | 28239m | 5.4m/s | -46.8°C | 2.8% | 0hPa | 2.6V | 08:30:00 | 01:57:25 | 00:00:00 | |
| DL1XH-west | 2026-09-05 00:47:38 | 52.67376 | 0.70431 | 130° | 15km/h | 28228m | 6.6m/s | -46.9°C | 0% | 0hPa | 2.5V | 18:12:15 | 01:57:23 | 00:00:00 | |
| DL1XH1-15 | 2026-09-05 00:47:35 | 52.67405 | 0.70401 | 159° | 18km/h | 28183m | 6m/s | -47.5°C | 2.9% | 0hPa | 2.6V | 08:30:00 | 01:57:15 | 00:00:00 | |
| BIOWL1-15 | 2026-09-05 00:47:32 | 52.67405 | 0.70401 | 160° | 18km/h | 28183m | 6m/s | -47.6°C | 0% | 0hPa | 2.6V | 18:12:15 | 01:57:15 | 00:00:00 | |
| DM0DOS-11 | 2026-09-05 00:47:32 | 52.67416 | 0.70390 | 137° | 15km/h | 28168m | 5.5m/s | -47.6°C | 2.9% | 0hPa | 2.5V | 08:30:00 | 01:57:12 | 00:00:00 | |
| DL1XH-west | 2026-09-05 00:47:28 | 52.67413 | 0.70394 | 142° | 16km/h | 28173m | 4.2m/s | -47.6°C | 0% | 0hPa | 2.5V | 18:12:15 | 01:57:13 | 00:00:00 | |
| DM0DOS-11 | 2026-09-05 00:47:22 | 52.67432 | 0.70339 | 119° | 13km/h | 28112m | 4.6m/s | -47.7°C | 3% | 0hPa | 2.5V | 08:30:00 | 01:57:02 | 00:00:00 | |
| DL1XH-west | 2026-09-05 00:47:17 | 52.67432 | 0.70339 | 120° | 13km/h | 28112m | 4.6m/s | -47.7°C | 0% | 0hPa | 2.5V | 18:12:15 | 01:57:02 | 00:00:00 | |
| DL1XH1-15 | 2026-09-05 00:47:15 | 52.67439 | 0.70318 | 108° | 18km/h | 28091m | 4.7m/s | -47.9°C | 3% | 0hPa | 2.5V | 08:30:00 | 01:56:58 | 00:00:00 | |
| DJ2DS-15 | 2026-09-05 00:47:13 | 52.67439 | 0.70318 | 109° | 16km/h | 28091m | 4.7m/s | -47.8°C | 3.0% | 0hPa | 2.5V | 00:00:00 | 01:56:58 | 00:00:00 | |
| DM0DOS-11 | 2026-09-05 00:47:12 | 52.67433 | 0.70270 | 82° | 24km/h | 28057m | 5.8m/s | -47.9°C | 3% | 0hPa | 2.5V | 08:30:00 | 01:56:52 | 00:00:00 | |
| BIOWL1-15 | 2026-09-05 00:47:09 | 52.67436 | 0.70288 | 66° | 22km/h | 28068m | 5.1m/s | -47.9°C | 0% | 0hPa | 2.5V | 18:12:15 | 01:56:54 | 00:00:00 | |
| DL1XH-west | 2026-09-05 00:47:06 | 52.67433 | 0.70260 | 93° | 22km/h | 28051m | 4.8m/s | -47.9°C | 0% | 0hPa | 2.6V | 18:12:15 | 01:56:51 | 00:00:00 | |
| DL1XH1-15 | 2026-09-05 00:47:05 | 52.67435 | 0.70234 | 99° | 9km/h | 28029m | 5.1m/s | -48°C | 3% | 0hPa | 2.5V | 08:30:00 | 01:56:47 | 00:00:00 | |
| BIOWL1-15 | 2026-09-05 00:46:59 | 52.67437 | 0.70220 | 101° | 15km/h | 28012m | 4.9m/s | -48.1°C | 0% | 0hPa | 2.5V | 18:12:15 | 01:56:44 | 00:00:00 | |
| DM0DOS-11 | 2026-09-05 00:46:57 | 52.67437 | 0.70206 | 60° | 11km/h | 27994m | 5.8m/s | -48.2°C | 3.1% | 0hPa | 2.6V | 08:30:00 | 01:56:41 | 00:00:00 | |
| DL1XH-west | 2026-09-05 00:46:56 | 52.67436 | 0.70206 | 61° | 11km/h | 27994m | 5.8m/s | -48.2°C | 0.1% | 0hPa | 2.6V | 18:12:15 | 01:56:41 | 00:00:00 | |
| DL1XH1-15 | 2026-09-05 00:46:54 | 52.67434 | 0.70188 | 95° | 13km/h | 27972m | 4.8m/s | -48.2°C | 3.1% | 0hPa | 2.5V | 08:30:00 | 01:56:37 | 00:00:00 | |
| BIOWL1-15 | 2026-09-05 00:46:48 | 52.67436 | 0.70179 | 172° | 5km/h | 27949m | 5.6m/s | -48.1°C | 0.1% | 0hPa | 2.5V | 18:12:15 | 01:56:33 | 00:00:00 | |
| DM0DOS-11 | 2026-09-05 00:46:47 | 52.67440 | 0.70176 | 156° | 13km/h | 27936m | 6m/s | -48.1°C | 3% | 0hPa | 2.6V | 08:30:00 | 01:56:31 | 00:00:00 | |
| DL1XH-west | 2026-09-05 00:46:45 | 52.67444 | 0.70174 | 153° | 13km/h | 27931m | 4.9m/s | -48.1°C | 0.1% | 0hPa | 2.6V | 18:12:15 | 01:56:30 | 00:00:00 | |
| DL1XH1-15 | 2026-09-05 00:46:44 | 52.67448 | 0.70169 | 75° | 2km/h | 27914m | 5.6m/s | -48.1°C | 3.1% | 0hPa | 2.5V | 08:30:00 | 01:56:27 | 00:00:00 | |
| BIOWL1-15 | 2026-09-05 00:46:38 | 52.67446 | 0.70162 | 83° | 4km/h | 27890m | 4.9m/s | -48.2°C | 0.1% | 0hPa | 2.5V | 18:12:15 | 01:56:23 | 00:00:00 | |
| DM0DOS-11 | 2026-09-05 00:46:36 | 52.67446 | 0.70161 | 261° | 4km/h | 27879m | 6.5m/s | -48.1°C | 3.1% | 0hPa | 2.6V | 08:30:00 | 01:56:21 | 00:00:00 | |
| DL1XH-west | 2026-09-05 00:46:34 | 52.67448 | 0.70167 | 233° | 11km/h | 27868m | 5.9m/s | -48.1°C | 0% | 0hPa | 2.5V | 18:12:15 | 01:56:19 | 00:00:00 | |
| DJ2DS-15 | 2026-09-05 00:46:33 | 52.67450 | 0.70171 | 213° | 7km/h | 27861m | 6.9m/s | -48.0°C | 3.0% | 0hPa | 2.6V | 00:00:00 | 01:56:18 | 00:00:00 | |
| DM0DOS-11 | 2026-09-05 00:46:31 | 52.67464 | 0.70179 | 345° | 5km/h | 27822m | 6m/s | -48.2°C | 3.1% | 0hPa | 2.6V | 08:30:00 | 01:56:11 | 00:00:00 | |
| DL1XH-west | 2026-09-05 00:46:23 | 52.67461 | 0.70178 | 32° | 4km/h | 27804m | 5.4m/s | -48.2°C | 0.1% | 0hPa | 2.5V | 18:12:15 | 01:56:08 | 00:00:00 | |
| DM0DOS-11 | 2026-09-05 00:46:21 | 52.67466 | 0.70174 | 124° | 2km/h | 27757m | 6.9m/s | -48.1°C | 3.1% | 0hPa | 2.6V | 08:30:00 | 01:56:00 | 00:00:00 | |
| DL1XH1-15 | 2026-09-05 00:46:19 | 52.67466 | 0.70174 | 124° | 2km/h | 27757m | 6.9m/s | -48.1°C | 3.1% | 0hPa | 2.6V | 08:30:00 | 01:56:00 | 00:00:00 | |
| DL1XH-west | 2026-09-05 00:46:13 | 52.67465 | 0.70174 | 354° | 5km/h | 27744m | 5.9m/s | -48.1°C | 0.1% | 0hPa | 2.5V | 18:12:15 | 01:55:58 | 00:00:00 | |
| DJ2DS-15 | 2026-09-05 00:46:13 | 52.67465 | 0.70174 | 354° | 11km/h | 27744m | 5.9m/s | -48.0°C | 3.1% | 0hPa | 2.6V | 00:00:00 | 01:55:58 | 00:00:00 | |
| DB0UT-7 | 2026-09-05 00:46:11 | 52.67462 | 0.70174 | 351° | 13km/h | 27732m | 5.0m/s | -47.9°C | 3.1% | 0hPa | 2.6V | 00:00:00 | 01:55:56 | 00:00:00 | |
| DL1XH1-15 | 2026-09-05 00:46:09 | 52.67460 | 0.70198 | 221° | 15km/h | 27696m | 6.4m/s | -47.7°C | 0% | 0hPa | 2.6V | 08:30:00 | 01:55:50 | 00:00:00 | |
| DL1XH-west | 2026-09-05 00:46:03 | 52.67467 | 0.70203 | 201° | 15km/h | 27686m | 4.5m/s | -47.6°C | 0% | 0hPa | 2.5V | 18:12:15 | 01:55:48 | 00:00:00 | |
| DM0DOS-11 | 2026-09-05 00:45:55 | 52.67471 | 0.70228 | 281° | 9km/h | 27637m | 5.9m/s | -47.3°C | 2.9% | 0hPa | 2.6V | 08:30:00 | 01:55:40 | 00:00:00 | |
| DL1XH-west | 2026-09-05 00:45:52 | 52.67473 | 0.70244 | 246° | 16km/h | 27619m | 6.3m/s | -47.3°C | 0% | 0hPa | 2.5V | 18:12:15 | 01:55:37 | 00:00:00 | |
| AU51GT2 | 2026-09-05 00:45:49 | 52.67485 | 0.70264 | 222° | 18km/h | 27596m | 6.5m/s | -47.7°C | 0.7% | -1.0hPa | 2.6V | 00:00:00 | 00:00:00 | 00:00:00 | |
| DL1XH1-15 | 2026-09-05 00:45:46 | 52.67493 | 0.70282 | 250° | 15km/h | 27578m | 5.7m/s | -47.9°C | 0% | 0hPa | 2.6V | 00:00:00 | 01:55:30 | 00:00:00 | |
| DL1XH-west | 2026-09-05 00:45:41 | 52.67495 | 0.70299 | 267° | 13km/h | 27555m | 5.8m/s | -47.9°C | 0% | 0hPa | 2.6V | 18:12:15 | 01:55:26 | 00:00:00 | |
| BIOWL1-15 | 2026-09-05 00:45:35 | 52.67501 | 0.70353 | 242° | 16km/h | 27512m | 6.3m/s | -48.1°C | 0.1% | 0hPa | 2.5V | 18:12:15 | 01:55:19 | 00:00:00 | |
| DL1XH1-15 | 2026-09-05 00:45:34 | 52.67505 | 0.70364 | 243° | 13km/h | 27500m | 5.8m/s | -48°C | 0% | 0hPa | 2.5V | 00:00:00 | 01:55:17 | 00:00:00 | |
| DL1XH-west | 2026-09-05 00:45:31 | 52.67506 | 0.70368 | 229° | 9km/h | 27493m | 6.8m/s | -48°C | 0.1% | 0hPa | 2.6V | 18:12:15 | 01:55:16 | 00:00:00 | |
| DJ2DS-15 | 2026-09-05 00:45:29 | 52.67510 | 0.70371 | 205° | 7km/h | 27481m | 4.6m/s | -47.9°C | 0.7% | -1.0hPa | 2.6V | 00:00:00 | 00:00:00 | 00:00:00 | |
| DM0DOS-11 | 2026-09-05 00:45:25 | 52.67517 | 0.70394 | 248° | 26km/h | 27457m | 6.1m/s | -47.8°C | 3% | 0hPa | 2.6V | 08:30:00 | 01:55:10 | 00:00:00 | |
| DL1XH1-15 | 2026-09-05 00:45:22 | 52.67544 | 0.70462 | 226° | 20km/h | 27414m | 6.8m/s | -47.7°C | 0% | 0hPa | 2.5V | 00:00:00 | 01:55:03 | 00:00:00 | |
| BIOWL1-15 | 2026-09-05 00:45:22 | 52.67528 | 0.70424 | 234° | 31km/h | 27439m | 4.9m/s | -47.7°C | 0% | 0hPa | 2.5V | 18:12:15 | 01:55:07 | 00:00:00 | |
| DL1XH-west | 2026-09-05 00:45:20 | 52.67537 | 0.70445 | 238° | 29km/h | 27427m | 6.1m/s | -47.7°C | 0% | 0hPa | 2.6V | 18:12:15 | 01:55:05 | 00:00:00 | |
| DM0DOS-11 | 2026-09-05 00:45:19 | 52.67554 | 0.70472 | 208° | 13km/h | 27398m | 4.9m/s | -47.7°C | 3% | 0hPa | 2.6V | 08:30:00 | 01:55:00 | 00:00:00 | |
| AU51GT2 | 2026-09-05 00:45:17 | 52.67551 | 0.70470 | 199° | 13km/h | 27403m | 4.6m/s | -47.7°C | 0.7% | -1.0hPa | 2.5V | 00:00:00 | 00:00:00 | 00:00:00 | |
| DJ2DS-15 | 2026-09-05 00:45:13 | 52.67558 | 0.70480 | 250° | 24km/h | 27386m | 5.8m/s | -47.7°C | 3.0% | 0hPa | 2.5V | 00:00:00 | 01:54:58 | 00:00:00 | |
| DL1XH1-15 | 2026-09-05 00:45:11 | 52.67575 | 0.70540 | 244° | 27km/h | 27351m | 6.7m/s | -47.9°C | 0% | 0hPa | 2.5V | 00:00:00 | 01:54:52 | 00:00:00 | |
| DL1XH-west | 2026-09-05 00:45:09 | 52.67568 | 0.70519 | 240° | 29km/h | 27362m | 5.5m/s | -47.9°C | 0.1% | 0hPa | 2.5V | 18:12:15 | 01:54:54 | 00:00:00 | |
| DM0DOS-11 | 2026-09-05 00:45:09 | 52.67579 | 0.70559 | 246° | 22km/h | 27338m | 5.4m/s | -47.9°C | 3% | 0hPa | 2.6V | 08:30:00 | 01:54:50 | 00:00:00 | |
| DM0DOS-11 | 2026-09-05 00:44:59 | 52.67617 | 0.70622 | 212° | 31km/h | 27280m | 6m/s | -47.7°C | 3% | 0hPa | 2.6V | 08:30:00 | 01:54:40 | 00:00:00 | |
| DL1XH-west | 2026-09-05 00:44:58 | 52.67602 | 0.70601 | 234° | 20km/h | 27299m | 4.5m/s | -47.9°C | 0% | 0hPa | 2.5V | 18:12:15 | 01:54:43 | 00:00:00 | |
| BIOWL1-15 | 2026-09-05 00:44:57 | 52.67611 | 0.70615 | 217° | 27km/h | 27287m | 7m/s | -47.8°C | 0% | 0hPa | 2.6V | 18:12:15 | 01:54:41 | 00:00:00 | |
| DL1XH1-15 | 2026-09-05 00:44:54 | 52.67631 | 0.70636 | 208° | 31km/h | 27269m | 6.1m/s | -47.7°C | 0% | 0hPa | 2.5V | 00:00:00 | 01:54:38 | 00:00:00 | |
| DJ2DS-15 | 2026-09-05 00:44:53 | 52.67631 | 0.70636 | 209° | 26km/h | 27270m | 6.0m/s | -47.6°C | 3.0% | 0hPa | 2.5V | 00:00:00 | 01:54:38 | 08:30:00 | |
| DM0DOS-11 | 2026-09-05 00:44:48 | 52.67678 | 0.70672 | 213° | 26km/h | 27223m | 6.3m/s | -48.1°C | 3.1% | 0hPa | 2.6V | 08:30:00 | 01:54:30 | 00:00:00 | |
| DL1XH-west | 2026-09-05 00:44:47 | 52.67666 | 0.70661 | 203° | 29km/h | 27234m | 5.3m/s | -48°C | 0% | 0hPa | 2.5V | 18:12:15 | 01:54:32 | 00:00:00 | |
| AU51GT2 | 2026-09-05 00:44:47 | 52.67672 | 0.70666 | 206° | 27km/h | 27229m | 5.0m/s | -48.1°C | 0.8% | -1.0hPa | 2.5V | 00:00:00 | 00:00:00 | 00:00:00 | |
| BIOWL1-15 | 2026-09-05 00:44:44 | 52.67683 | 0.70678 | 221° | 24km/h | 27217m | 6.3m/s | -48.1°C | 0.1% | 0hPa | 2.5V | 18:12:15 | 01:54:29 | 00:00:00 | |
| DB0UT-7 | 2026-09-05 00:44:41 | 52.67697 | 0.70701 | 224° | 20km/h | 27201m | 6.2m/s | -48.0°C | 3.1% | 0hPa | 2.6V | 00:00:00 | 00:00:00 | 00:00:00 | |
| DL1XH1-15 | 2026-09-05 00:44:36 | 52.67727 | 0.70730 | 194° | 20km/h | 27171m | 5.8m/s | -48°C | 0% | 0hPa | 2.6V | 00:00:00 | 01:54:21 | 00:00:00 | |
| DL1XH-west | 2026-09-05 00:44:36 | 52.67726 | 0.70730 | 195° | 20km/h | 27171m | 5.8m/s | -48°C | 0.1% | 0hPa | 2.6V | 18:12:15 | 01:54:21 | 00:00:00 | |
| DJ2DS-15 | 2026-09-05 00:44:33 | 52.67741 | 0.70735 | 195° | 20km/h | 27153m | 6.1m/s | -48.0°C | 3.1% | 0hPa | 2.5V | 00:00:00 | 01:54:18 | 00:00:00 | |
| DM0DOS-11 | 2026-09-05 00:44:30 | 52.67785 | 0.70775 | 208° | 24km/h | 27098m | 6.5m/s | -47.8°C | 3.1% | 0hPa | 2.5V | 08:30:00 | 01:54:09 | 00:00:00 | |
| DL1XH1-15 | 2026-09-05 00:44:26 | 52.67789 | 0.70778 | 201° | 18km/h | 27091m | 6.8m/s | -47.8°C | 0% | 0hPa | 2.5V | 00:00:00 | 01:54:08 | 00:00:00 | |
| BIOWL1-15 | 2026-09-05 00:44:26 | 52.67802 | 0.70778 | 165° | 20km/h | 27072m | 6.8m/s | -47.7°C | 0% | 0hPa | 2.6V | 18:12:15 | 01:54:05 | 00:00:00 | |
| DL1XH-west | 2026-09-05 00:44:26 | 52.67779 | 0.70769 | 212° | 27km/h | 27104m | 5.3m/s | -47.9°C | 0% | 0hPa | 2.6V | 18:12:15 | 01:54:10 | 00:00:00 | |
| DM0DOS-11 | 2026-09-05 00:44:19 | 52.67825 | 0.70766 | 191° | 15km/h | 27036m | 6.8m/s | -47.5°C | 2.9% | 0hPa | 2.5V | 08:30:00 | 01:53:59 | 00:00:00 | |
| DL1XH-west | 2026-09-05 00:44:15 | 52.67821 | 0.70766 | 180° | 11km/h | 27042m | 5.3m/s | -47.5°C | 0% | 0hPa | 2.6V | 18:12:15 | 01:54:00 | 00:00:00 | |
| DL1XH1-15 | 2026-09-05 00:44:11 | 52.67838 | 0.70774 | 200° | 18km/h | 27017m | 6m/s | 0°C | 0% | 0hPa | 2.6V | 00:00:00 | 01:53:56 | 00:00:00 | |
| DB0UT-7 | 2026-09-05 00:44:11 | 52.67838 | 0.70773 | 201° | 15km/h | 27018m | 6.0m/s | -47.5°C | 2.9% | 0hPa | 2.5V | 00:00:00 | 01:53:56 | 00:00:00 | |
| DM0DOS-11 | 2026-09-05 00:44:09 | 52.67863 | 0.70760 | 121° | 13km/h | 26970m | 7.2m/s | -47.9°C | 3% | 0hPa | 2.5V | 08:30:00 | 01:53:48 | 00:00:00 | |
| DL1XH1-15 | 2026-09-05 00:44:06 | 52.67865 | 0.70751 | 110° | 9km/h | 26957m | 5.2m/s | 0°C | 0% | 0hPa | 2.6V | 00:00:00 | 01:53:46 | 00:00:00 | |
| DL1XH-west | 2026-09-05 00:44:05 | 52.67857 | 0.70769 | 145° | 16km/h | 26982m | 5.3m/s | -47.9°C | 0% | 0hPa | 2.6V | 18:12:15 | 01:53:50 | 00:00:00 | |
| BIOWL1-15 | 2026-09-05 00:44:04 | 52.67860 | 0.70764 | 136° | 16km/h | 26976m | 5.4m/s | -47.9°C | 0% | 0hPa | 2.5V | 18:12:15 | 01:53:49 | 00:00:00 | |
| DM0DOS-11 | 2026-09-05 00:43:58 | 52.67884 | 0.70738 | 152° | 16km/h | 26909m | 7m/s | -47.8°C | 3% | 0hPa | 2.5V | 08:30:00 | 01:53:38 | 00:00:00 | |
| DL1XH-west | 2026-09-05 00:43:55 | 52.67878 | 0.70743 | 154° | 9km/h | 26921m | 5.3m/s | -47.8°C | 0% | 0hPa | 2.6V | 18:12:15 | 01:53:40 | 00:00:00 | |
| BIOWL1-15 | 2026-09-05 00:43:53 | 52.67884 | 0.70738 | 153° | 16km/h | 26909m | 7m/s | -47.8°C | 0% | 0hPa | 2.5V | 18:12:15 | 01:53:38 | 00:00:00 | |
| DJ2DS-15 | 2026-09-05 00:43:53 | 52.67884 | 0.70738 | 153° | 20km/h | 26909m | 6.9m/s | -47.7°C | 3.0% | 0hPa | 2.5V | 00:00:00 | 01:53:38 | 00:00:00 | |
| DM0DOS-11 | 2026-09-05 00:43:48 | 52.67920 | 0.70702 | 157° | 15km/h | 26849m | 5.6m/s | -48°C | 3% | 0hPa | 2.5V | 08:30:00 | 01:53:28 | 00:00:00 | |
| DL1XH-west | 2026-09-05 00:43:44 | 52.67917 | 0.70705 | 162° | 16km/h | 26855m | 6.2m/s | -48°C | 0% | 0hPa | 2.5V | 18:12:15 | 01:53:29 | 00:00:00 | |
| BIOWL1-15 | 2026-09-05 00:43:42 | 52.67924 | 0.70699 | 154° | 18km/h | 26844m | 4.4m/s | -48°C | 0% | 0hPa | 2.5V | 18:12:15 | 01:53:27 | 00:00:00 | |
| DJ2DS-15 | 2026-09-05 00:43:41 | 52.67934 | 0.70692 | 158° | 26km/h | 26834m | 6.0m/s | -48.1°C | 0.7% | -1.0hPa | 2.5V | 00:00:00 | 00:00:00 | 00:00:00 | |
| DM0DOS-11 | 2026-09-05 00:43:38 | 52.67976 | 0.70684 | 156° | 16km/h | 26795m | 5.4m/s | -48.1°C | 3% | 0hPa | 2.5V | 08:30:00 | 01:53:18 | 00:00:00 | |
| DL1XH-west | 2026-09-05 00:43:34 | 52.67972 | 0.70686 | 170° | 16km/h | 26801m | 5.7m/s | -48.1°C | 0% | 0hPa | 2.5V | 18:12:15 | 01:53:19 | 00:00:00 | |
| BIOWL1-15 | 2026-09-05 00:43:32 | 52.67990 | 0.70675 | 166° | 24km/h | 26779m | 5.7m/s | -48.1°C | 0% | 0hPa | 2.6V | 18:12:15 | 01:53:15 | 00:00:00 | |
| DM0DOS-11 | 2026-09-05 00:43:28 | 52.68034 | 0.70655 | 163° | 27km/h | 26739m | 5.3m/s | -48.2°C | 3% | 0hPa | 2.5V | 08:30:00 | 01:53:08 | 00:00:00 | |
| DL1XH-west | 2026-09-05 00:43:24 | 52.68027 | 0.70659 | 164° | 27km/h | 26745m | 6.5m/s | -48.2°C | 0% | 0hPa | 2.5V | 18:12:15 | 01:53:09 | 00:00:00 | |
| BIOWL1-15 | 2026-09-05 00:43:21 | 52.68059 | 0.70636 | 149° | 26km/h | 26717m | 4.7m/s | -48.2°C | 0% | 0hPa | 2.5V | 18:12:15 | 01:53:04 | 00:00:00 | |
| DL1XH-west | 2026-09-05 00:43:13 | 52.68088 | 0.70612 | 124° | 16km/h | 26685m | 5.5m/s | -48.5°C | 0.1% | 0hPa | 2.5V | 18:12:15 | 01:52:58 | 00:00:00 | |
| DJ2DS-15 | 2026-09-05 00:43:13 | 52.68088 | 0.70612 | 125° | 20km/h | 26686m | 5.4m/s | -48.4°C | 3.1% | 0hPa | 2.5V | 00:00:00 | 01:52:58 | 00:00:00 | |
| DB0UT-7 | 2026-09-05 00:43:11 | 52.68093 | 0.70598 | 121° | 18km/h | 26675m | 5.7m/s | -48.4°C | 3.1% | 0hPa | 2.5V | 00:00:00 | 01:52:56 | 00:00:00 | |
| DM0DOS-11 | 2026-09-05 00:43:07 | 52.68121 | 0.70550 | 151° | 15km/h | 26630m | 5.2m/s | -48.6°C | 3.1% | 0hPa | 2.5V | 08:30:00 | 01:52:48 | 00:00:00 | |
| DL1XH-west | 2026-09-05 00:43:02 | 52.68124 | 0.70547 | 143° | 13km/h | 26625m | 5.3m/s | -48.7°C | 0% | 0hPa | 2.5V | 18:12:15 | 01:52:47 | 00:00:00 | |
| BIOWL1-15 | 2026-09-05 00:43:00 | 52.68130 | 0.70525 | 114° | 18km/h | 26602m | 6m/s | -48.8°C | 0% | 0hPa | 2.5V | 18:12:15 | 01:52:43 | 00:00:00 | |
| DM0DOS-11 | 2026-09-05 00:42:57 | 52.68153 | 0.70492 | 141° | 27km/h | 26575m | 4.7m/s | -49.1°C | 3.1% | 0hPa | 2.5V | 08:30:00 | 01:52:38 | 00:00:00 | |
| DL1XH-west | 2026-09-05 00:42:51 | 52.68163 | 0.70480 | 154° | 22km/h | 26566m | 4.8m/s | -49.2°C | 0.1% | 0hPa | 2.6V | 18:12:15 | 01:52:36 | 00:00:00 | |
| DM0DOS-11 | 2026-09-05 00:42:47 | 52.68188 | 0.70462 | 117° | 11km/h | 26525m | 5.8m/s | -49.4°C | 3.2% | 0hPa | 2.5V | 08:30:00 | 01:52:28 | 00:00:00 | |
| BIOWL1-15 | 2026-09-05 00:42:45 | 52.68186 | 0.70470 | 115° | 11km/h | 26535m | 4.3m/s | -49.3°C | 0% | 0hPa | 2.6V | 18:12:15 | 01:52:30 | 00:00:00 | |
| DL1XH-west | 2026-09-05 00:42:41 | 52.68191 | 0.70455 | 142° | 13km/h | 26514m | 5.2m/s | -49.4°C | 0.1% | 0hPa | 2.6V | 18:12:15 | 01:52:26 | 00:00:00 | |
| DB0UT-7 | 2026-09-05 00:42:41 | 52.68191 | 0.70455 | 143° | 11km/h | 26514m | 5.2m/s | -49.3°C | 3.2% | 0hPa | 2.5V | 00:00:00 | 00:00:00 | 00:00:00 | |
| DM0DOS-11 | 2026-09-05 00:42:37 | 52.68211 | 0.70433 | 151° | 4km/h | 26471m | 5.9m/s | -49.6°C | 3.2% | 0hPa | 2.5V | 08:30:00 | 01:52:18 | 00:00:00 | |
| BIOWL1-15 | 2026-09-05 00:42:34 | 52.68212 | 0.70433 | 152° | 4km/h | 26471m | 5.9m/s | 0°C | 0% | 0hPa | 2.5V | 18:12:15 | 01:52:18 | 00:00:00 | |
| DL1XH-west | 2026-09-05 00:42:30 | 52.68214 | 0.70422 | 110° | 15km/h | 26455m | 5.2m/s | -49.7°C | 0.1% | 0hPa | 2.6V | 18:12:15 | 01:52:15 | 00:00:00 | |
| DM0DOS-11 | 2026-09-05 00:42:24 | 52.68236 | 0.70391 | 153° | 11km/h | 26414m | 6.2m/s | -49.9°C | 3.3% | 0hPa | 2.5V | 08:30:00 | 01:52:08 | 00:00:00 | |
| BIOWL1-15 | 2026-09-05 00:42:24 | 52.68233 | 0.70394 | 142° | 15km/h | 26420m | 5.1m/s | 0°C | 0% | 0hPa | 2.5V | 18:12:15 | 01:52:09 | 00:00:00 | |
| DL1XH-west | 2026-09-05 00:42:19 | 52.68240 | 0.70394 | 345° | 2km/h | 26392m | 6.1m/s | -50°C | 0.2% | 0hPa | 2.5V | 18:12:15 | 01:52:04 | 00:00:00 | |
| BIOWL1-15 | 2026-09-05 00:42:13 | 52.68274 | 0.70392 | 220° | 16km/h | 26322m | 4.5m/s | 0°C | 0% | 0hPa | 2.6V | 18:12:15 | 01:51:51 | 00:00:00 | |
| DL1XH-west | 2026-09-05 00:42:09 | 52.68263 | 0.70381 | 196° | 16km/h | 26338m | 6m/s | -50°C | 0.1% | 0hPa | 2.5V | 18:12:15 | 01:51:54 | 00:00:00 | |
| DL1XH-west | 2026-09-05 00:41:58 | 52.68294 | 0.70384 | 137° | 16km/h | 26277m | 6.8m/s | -50.5°C | 0.2% | 0hPa | 2.5V | 18:12:15 | 01:51:43 | 00:00:00 | |
| DM0DOS-11 | 2026-09-05 00:41:58 | 52.68305 | 0.70372 | 189° | 7km/h | 26249m | 4.6m/s | -50.6°C | 3.5% | 0hPa | 2.5V | 08:30:00 | 01:51:38 | 00:00:00 | |
| DL1XH-west | 2026-09-05 00:41:48 | 52.68316 | 0.70359 | 146° | 20km/h | 26222m | 6.3m/s | -50.6°C | 0.2% | 0hPa | 2.5V | 18:12:15 | 01:51:33 | 00:00:00 | |
| DM0DOS-11 | 2026-09-05 00:41:44 | 52.68340 | 0.70335 | 133° | 20km/h | 26193m | 5.8m/s | -50.5°C | 3.4% | 0hPa | 2.5V | 08:30:00 | 01:51:28 | 00:00:00 | |
| BIOWL1-15 | 2026-09-05 00:41:38 | 52.68356 | 0.70300 | 143° | 11km/h | 26145m | 6.6m/s | 0°C | 0% | 0hPa | 2.6V | 18:12:15 | 01:51:20 | 00:00:00 | |
| DL1XH-west | 2026-09-05 00:41:37 | 52.68353 | 0.70307 | 109° | 13km/h | 26158m | 5.2m/s | 0°C | 0% | 0hPa | 2.5V | 18:12:15 | 01:51:22 | 00:00:00 | |
| DM0DOS-11 | 2026-09-05 00:41:37 | 52.68361 | 0.70295 | 150° | 13km/h | 26135m | 4.6m/s | -50.3°C | 3.4% | 0hPa | 2.5V | 08:30:00 | 01:51:18 | 00:00:00 | |
| DL1XH-west | 2026-09-05 00:41:27 | 52.68374 | 0.70261 | 125° | 15km/h | 26100m | 5.8m/s | 0°C | 0% | 0hPa | 2.5V | 18:12:15 | 01:51:12 | 00:00:00 | |
| DM0DOS-11 | 2026-09-05 00:41:24 | 52.68377 | 0.70241 | 79° | 11km/h | 26076m | 5.3m/s | -50.2°C | 3.3% | 0hPa | 2.5V | 08:30:00 | 01:51:08 | 00:00:00 | |
| DM0DOS-11 | 2026-09-05 00:41:17 | 52.68386 | 0.70200 | 82° | 15km/h | 26015m | 5.6m/s | -50.5°C | 3.4% | 0hPa | 2.5V | 08:30:00 | 01:50:58 | 00:00:00 | |
| DL1XH-west | 2026-09-05 00:41:17 | 52.68384 | 0.70216 | 110° | 15km/h | 26033m | 6.2m/s | 0°C | 0% | 0hPa | 2.6V | 18:12:15 | 01:51:01 | 00:00:00 | |
| DJ2DS-15 | 2026-09-05 00:41:16 | 52.68384 | 0.70216 | 110° | 13km/h | 26033m | 6.2m/s | -50.4°C | 0.9% | -1.0hPa | 2.5V | 00:00:00 | 00:00:00 | 00:00:00 | |
| DJ2DS-15 | 2026-09-05 00:41:13 | 52.68386 | 0.70200 | 83° | 13km/h | 26016m | 5.6m/s | -50.5°C | 3.4% | 0hPa | 2.5V | 00:00:00 | 01:50:58 | 00:00:00 | |
| DB0UT-7 | 2026-09-05 00:41:11 | 52.68383 | 0.70187 | 61° | 9km/h | 26002m | 6.2m/s | -50.5°C | 3.4% | 0hPa | 2.5V | 00:00:00 | 01:50:56 | 00:00:00 | |
| AU51GT2 | 2026-09-05 00:41:09 | 52.68376 | 0.70166 | 71° | 13km/h | 25985m | 6.7m/s | -50.5°C | 0.9% | -1.0hPa | 2.5V | 00:00:00 | 00:00:00 | 00:00:00 | |
| DM0DOS-11 | 2026-09-05 00:41:04 | 52.68380 | 0.70143 | 99° | 9km/h | 25955m | 5.3m/s | -50.4°C | 3.4% | 0hPa | 2.5V | 08:30:00 | 01:50:48 | 00:00:00 | |
| DL1XH-west | 2026-09-05 00:41:04 | 52.68379 | 0.70147 | 111° | 13km/h | 25960m | 6.3m/s | 0°C | 0% | 0hPa | 2.5V | 18:12:15 | 01:50:49 | 00:00:00 | |
| DM0DOS-11 | 2026-09-05 00:40:58 | 52.68365 | 0.70125 | 122° | 7km/h | 25892m | 6.3m/s | -50.4°C | 3.3% | 0hPa | 2.5V | 08:30:00 | 01:50:38 | 00:00:00 | |
| DL1XH-west | 2026-09-05 00:40:53 | 52.68365 | 0.70125 | 123° | 7km/h | 25892m | 6.3m/s | 0°C | 0% | 0hPa | 2.5V | 18:12:15 | 01:50:38 | 00:00:00 | |
| DJ2DS-15 | 2026-09-05 00:40:53 | 52.68364 | 0.70125 | 123° | 7km/h | 25892m | 6.2m/s | -50.3°C | 3.3% | 0hPa | 2.5V | 00:00:00 | 01:50:38 | 00:00:00 | |
| DM0DOS-11 | 2026-09-05 00:40:44 | 52.68377 | 0.70109 | 137° | 7km/h | 25831m | 6.2m/s | -50.4°C | 3.3% | 0hPa | 2.5V | 08:30:00 | 01:50:28 | 00:00:00 | |
| DL1XH-west | 2026-09-05 00:40:42 | 52.68379 | 0.70107 | 155° | 7km/h | 25824m | 6.8m/s | 0°C | 0% | 0hPa | 2.5V | 18:12:15 | 01:50:27 | 00:00:00 | |
| DB0UT-7 | 2026-09-05 00:40:41 | 52.68380 | 0.70106 | 158° | 13km/h | 25818m | 5.9m/s | -50.3°C | 3.3% | 0hPa | 2.6V | 00:00:00 | 00:00:00 | 00:00:00 | |
| DM0DOS-11 | 2026-09-05 00:40:38 | 52.68394 | 0.70104 | 184° | 11km/h | 25767m | 7.1m/s | -50.5°C | 3.4% | 0hPa | 2.5V | 08:30:00 | 01:50:18 | 00:00:00 | |
| DL1XH-west | 2026-09-05 00:40:31 | 52.68404 | 0.70103 | 183° | 15km/h | 25749m | 6.5m/s | 0°C | 0% | 0hPa | 2.6V | 18:12:15 | 01:50:15 | 00:00:00 | |
| DM0DOS-11 | 2026-09-05 00:40:24 | 52.68424 | 0.70100 | 203° | 16km/h | 25707m | 5.4m/s | -50.5°C | 3.5% | 0hPa | 2.5V | 08:30:00 | 01:50:08 | 00:00:00 | |
| DL1XH-west | 2026-09-05 00:40:21 | 52.68432 | 0.70106 | 205° | 16km/h | 25697m | 5.9m/s | 0°C | 0% | 0hPa | 2.6V | 18:12:15 | 01:50:06 | 00:00:00 | |
| DM0DOS-11 | 2026-09-05 00:40:18 | 52.68463 | 0.70118 | 188° | 15km/h | 25650m | 7m/s | -50.4°C | 3.5% | 0hPa | 2.5V | 08:30:00 | 01:49:58 | 00:00:00 | |
| DL1XH-west | 2026-09-05 00:40:11 | 52.68470 | 0.70117 | 175° | 16km/h | 25638m | 5.3m/s | 0°C | 0% | 0hPa | 2.6V | 18:12:15 | 01:49:56 | 00:00:00 | |
| DB0UT-7 | 2026-09-05 00:40:11 | 52.68470 | 0.70117 | 176° | 15km/h | 25638m | 5.2m/s | -50.2°C | 3.4% | 0hPa | 2.5V | 00:00:00 | 01:49:56 | 00:00:00 | |
| AU51GT2 | 2026-09-05 00:40:07 | 52.68491 | 0.70120 | 176° | 11km/h | 25609m | 6.3m/s | -50.1°C | 0.8% | -1.0hPa | 2.5V | 00:00:00 | 00:00:00 | 00:00:00 | |
| DJ2DS-15 | 2026-09-05 00:40:04 | 52.68496 | 0.70118 | 169° | 9km/h | 25598m | 5.3m/s | -50.0°C | 0.8% | -1.0hPa | 2.5V | 00:00:00 | 00:00:00 | 00:00:00 | |
| DM0DOS-11 | 2026-09-05 00:40:03 | 52.68518 | 0.70109 | 146° | 20km/h | 25561m | 5.1m/s | -49.8°C | 3.4% | 0hPa | 2.5V | 08:30:00 | 01:49:43 | 00:00:00 | |
| DL1XH-west | 2026-09-05 00:40:01 | 52.68506 | 0.70118 | 174° | 16km/h | 25579m | 5.4m/s | 0°C | 0% | 0hPa | 2.6V | 18:12:15 | 01:49:46 | 00:00:00 | |
| DM0DOS-11 | 2026-09-05 00:39:53 | 52.68549 | 0.70081 | 150° | 11km/h | 25504m | 5m/s | -49.7°C | 3.3% | 0hPa | 2.5V | 08:30:00 | 01:49:33 | 00:00:00 | |
| DL1XH-west | 2026-09-05 00:39:49 | 52.68547 | 0.70083 | 141° | 9km/h | 25510m | 6.3m/s | 0°C | 0% | 0hPa | 2.5V | 18:12:15 | 01:49:34 | 00:00:00 | |
| DB0UT-7 | 2026-09-05 00:39:41 | 52.68569 | 0.70044 | 138° | 15km/h | 25465m | 5.0m/s | -49.6°C | 3.3% | 0hPa | 2.5V | 00:00:00 | 00:00:00 | 00:00:00 | |
| DM0DOS-11 | 2026-09-05 00:39:40 | 52.68578 | 0.70028 | 118° | 16km/h | 25448m | 5.7m/s | -49.7°C | 3.3% | 0hPa | 2.5V | 08:30:00 | 01:49:23 | 00:00:00 | |
| DL1XH-west | 2026-09-05 00:39:38 | 52.68578 | 0.70028 | 119° | 16km/h | 25448m | 5.7m/s | 0°C | 0% | 0hPa | 2.5V | 18:12:15 | 01:49:23 | 00:00:00 | |
| BIOWL1-15 | 2026-09-05 00:39:29 | 52.68594 | 0.69929 | 78° | 13km/h | 25363m | 6m/s | -49.8°C | 0.2% | 0hPa | 2.5V | 18:12:15 | 01:49:07 | 00:00:00 | |
| DL1XH-west | 2026-09-05 00:39:26 | 52.68594 | 0.69956 | 108° | 15km/h | 25385m | 4.8m/s | 0°C | 0% | 0hPa | 2.6V | 18:12:15 | 01:49:11 | 00:00:00 | |
| DM0DOS-11 | 2026-09-05 00:39:20 | 52.68591 | 0.69908 | 86° | 15km/h | 25343m | 4.2m/s | -49.9°C | 3.3% | 0hPa | 2.5V | 08:30:00 | 01:49:03 | 00:00:00 | |
| BIOWL1-15 | 2026-09-05 00:39:19 | 52.68592 | 0.69898 | 122° | 13km/h | 25333m | 6.6m/s | -49.8°C | 0.2% | 0hPa | 2.6V | 18:12:15 | 01:49:01 | 00:00:00 | |
| DL1XH-west | 2026-09-05 00:39:13 | 52.68600 | 0.69890 | 153° | 11km/h | 25317m | 5.4m/s | 0°C | 0% | 0hPa | 2.5V | 18:12:15 | 01:48:58 | 00:00:00 | |
| DJ2DS-15 | 2026-09-05 00:39:13 | 52.68600 | 0.69890 | 153° | 9km/h | 25318m | 5.4m/s | -49.7°C | 3.3% | 0hPa | 2.6V | 00:00:00 | 01:48:58 | 00:00:00 | |
| DB0UT-7 | 2026-09-05 00:39:11 | 52.68603 | 0.69884 | 119° | 7km/h | 25308m | 4.0m/s | -49.6°C | 3.3% | 0hPa | 2.6V | 00:00:00 | 01:48:56 | 08:30:00 | |
| DM0DOS-11 | 2026-09-05 00:39:10 | 52.68606 | 0.69875 | 105° | 4km/h | 25293m | 5m/s | -49.6°C | 3.2% | 0hPa | 2.5V | 08:30:00 | 01:48:53 | 00:00:00 | |
| BIOWL1-15 | 2026-09-05 00:39:05 | 52.68605 | 0.69868 | 71° | 9km/h | 25276m | 4.3m/s | -49.7°C | 0.2% | 0hPa | 2.6V | 18:12:15 | 01:48:50 | 00:00:00 | |
| BIOWL1-15 | 2026-09-05 00:38:59 | 52.68627 | 0.69855 | 169° | 13km/h | 25226m | 4.2m/s | -49.7°C | 0.1% | 0hPa | 2.6V | 18:12:15 | 01:48:40 | 00:00:00 | |
| DL1XH-west | 2026-09-05 00:38:56 | 52.68623 | 0.69856 | 168° | 16km/h | 25231m | 5.5m/s | 0°C | 0% | 0hPa | 2.6V | 18:12:15 | 01:48:41 | 00:00:00 | |
| BIOWL1-15 | 2026-09-05 00:38:44 | 52.68640 | 0.69842 | 184° | 11km/h | 25164m | 5.2m/s | -50°C | 0.1% | 0hPa | 2.5V | 18:12:15 | 01:48:28 | 00:00:00 | |
| BIOWL1-15 | 2026-09-05 00:38:34 | 52.68653 | 0.69838 | 119° | 4km/h | 25112m | 4.8m/s | -50.3°C | 0.2% | 0hPa | 2.5V | 18:12:15 | 01:48:18 | 00:00:00 | |
| DJ2DS-15 | 2026-09-05 00:38:33 | 52.68653 | 0.69838 | 120° | 11km/h | 25112m | 4.7m/s | -50.2°C | 3.3% | 0hPa | 2.5V | 00:00:00 | 01:48:18 | 00:00:00 | |
| DM0DOS-11 | 2026-09-05 00:38:30 | 52.68659 | 0.69840 | 178° | 11km/h | 25086m | 6.3m/s | -50.3°C | 3.3% | 0hPa | 2.5V | 08:30:00 | 01:48:13 | 00:00:00 | |
| BIOWL1-15 | 2026-09-05 00:38:24 | 52.68673 | 0.69834 | 160° | 13km/h | 25066m | 4.3m/s | -50.3°C | 0.2% | 0hPa | 2.5V | 18:12:15 | 01:48:09 | 00:00:00 | |
| DL1XH-west | 2026-09-05 00:38:23 | 52.68675 | 0.69832 | 146° | 13km/h | 25061m | 5m/s | 0°C | 0% | 0hPa | 2.5V | 18:12:15 | 01:48:08 | 00:00:00 | |
| BIOWL1-15 | 2026-09-05 00:38:14 | 52.68698 | 0.69805 | 157° | 22km/h | 25015m | 4.8m/s | -50.8°C | 0.2% | 0hPa | 2.5V | 18:12:15 | 01:47:59 | 00:00:00 | |
| DL1XH-west | 2026-09-05 00:38:04 | 52.68739 | 0.69741 | 110° | 13km/h | 24963m | 4.8m/s | 0°C | 0% | 0hPa | 2.5V | 18:12:15 | 01:47:49 | 00:00:00 | |
| BIOWL1-15 | 2026-09-05 00:38:04 | 52.68740 | 0.69736 | 118° | 15km/h | 24957m | 6m/s | -51.4°C | 0.3% | 0hPa | 2.5V | 18:12:15 | 01:47:48 | 00:00:00 | |
| DM0DOS-11 | 2026-09-05 00:38:03 | 52.68754 | 0.69715 | 152° | 13km/h | 24931m | 5m/s | -51.4°C | 3.5% | 0hPa | 2.5V | 08:30:00 | 01:47:43 | 00:00:00 | |
| BIOWL1-15 | 2026-09-05 00:37:53 | 52.68765 | 0.69688 | 99° | 15km/h | 24903m | 6m/s | -51.5°C | 0.3% | 0hPa | 2.5V | 18:12:15 | 01:47:38 | 00:00:00 | |
| DB0UT-7 | 2026-09-05 00:37:52 | 52.68766 | 0.69682 | 91° | 13km/h | 24898m | 4.5m/s | -51.4°C | 3.5% | 0hPa | 2.5V | 00:00:00 | 01:47:37 | 00:00:00 | |
| DM0DOS-11 | 2026-09-05 00:37:50 | 52.68769 | 0.69659 | 117° | 11km/h | 24877m | 4.7m/s | -51.5°C | 3.6% | 0hPa | 2.5V | 08:30:00 | 01:47:33 | 00:00:00 | |
| DL1XH-west | 2026-09-05 00:37:48 | 52.68769 | 0.69659 | 117° | 11km/h | 24877m | 4.7m/s | 0°C | 0% | 0hPa | 2.5V | 18:12:15 | 01:47:33 | 00:00:00 | |
| DM0DOS-11 | 2026-09-05 00:37:43 | 52.68774 | 0.69603 | 81° | 15km/h | 24823m | 5.2m/s | -51.5°C | 3.6% | 0hPa | 2.5V | 08:30:00 | 01:47:23 | 00:00:00 | |
| BIOWL1-15 | 2026-09-05 00:37:42 | 52.68775 | 0.69584 | 109° | 11km/h | 24800m | 4.9m/s | -51.5°C | 0.4% | 0hPa | 2.5V | 18:12:15 | 01:47:19 | 00:00:00 | |
| BIOWL1-15 | 2026-09-05 00:37:31 | 52.68774 | 0.69569 | 73° | 16km/h | 24783m | 4.7m/s | -51.4°C | 0.4% | 0hPa | 2.6V | 18:12:15 | 01:47:16 | 00:00:00 | |
| DM0DOS-11 | 2026-09-05 00:37:30 | 52.68771 | 0.69546 | 74° | 22km/h | 24765m | 4.9m/s | -51.3°C | 3.6% | 0hPa | 2.5V | 08:30:00 | 01:47:13 | 00:00:00 | |
| DM0DOS-11 | 2026-09-05 00:37:23 | 52.68765 | 0.69498 | 66° | 13km/h | 24710m | 5.2m/s | -51.2°C | 3.5% | 0hPa | 2.5V | 08:30:00 | 01:47:03 | 00:00:00 | |
| BIOWL1-15 | 2026-09-05 00:37:20 | 52.68767 | 0.69505 | 85° | 7km/h | 24721m | 5.9m/s | 0°C | 0% | 0hPa | 2.6V | 18:12:15 | 01:47:05 | 00:00:00 | |
| BIOWL1-15 | 2026-09-05 00:37:10 | 52.68754 | 0.69456 | 68° | 9km/h | 24663m | 5.6m/s | 0°C | 0% | 0hPa | 2.6V | 18:12:15 | 01:46:55 | 00:00:00 | |
| DM0DOS-11 | 2026-09-05 00:37:03 | 52.68745 | 0.69422 | 63° | 4km/h | 24592m | 4.6m/s | -50.9°C | 3.6% | 0hPa | 2.5V | 08:30:00 | 01:46:43 | 00:00:00 | |
| BIOWL1-15 | 2026-09-05 00:36:59 | 52.68741 | 0.69421 | 161° | 4km/h | 24564m | 6.2m/s | 0°C | 0% | 0hPa | 2.5V | 18:12:15 | 01:46:38 | 00:00:00 | |
| BIOWL1-15 | 2026-09-05 00:36:49 | 52.68748 | 0.69395 | 110° | 18km/h | 24529m | 6.8m/s | 0°C | 0% | 0hPa | 2.5V | 18:12:15 | 01:46:32 | 00:00:00 | |
| BIOWL1-15 | 2026-09-05 00:36:42 | 52.68765 | 0.69373 | 166° | 11km/h | 24450m | 5.7m/s | 0°C | 0% | 0hPa | 2.5V | 18:12:15 | 01:46:18 | 00:00:00 | |
| DM0DOS-11 | 2026-09-05 00:36:42 | 52.68759 | 0.69375 | 193° | 7km/h | 24477m | 6m/s | -50°C | 3.3% | 0hPa | 2.5V | 08:30:00 | 01:46:23 | 00:00:00 | |
| BIOWL1-15 | 2026-09-05 00:36:23 | 52.68799 | 0.69353 | 182° | 16km/h | 24378m | 6m/s | 0°C | 0% | 0hPa | 2.6V | 18:12:15 | 01:46:06 | 00:00:00 | |
| BIOWL1-15 | 2026-09-05 00:36:13 | 52.68827 | 0.69354 | 164° | 13km/h | 24333m | 6.5m/s | 0°C | 0% | 0hPa | 2.5V | 18:12:15 | 01:45:58 | 00:00:00 | |
| DJ2DS-15 | 2026-09-05 00:36:12 | 52.68830 | 0.69352 | 158° | 18km/h | 24328m | 5.3m/s | -49.6°C | 3.2% | 0hPa | 2.5V | 00:00:00 | 01:45:57 | 00:00:00 | |
| DM0DOS-11 | 2026-09-05 00:36:11 | 52.68845 | 0.69344 | 170° | 24km/h | 24305m | 5.2m/s | -49.9°C | 3.2% | 0hPa | 2.5V | 08:30:00 | 01:45:53 | 00:00:00 | |
| BIOWL1-15 | 2026-09-05 00:36:05 | 52.68874 | 0.69339 | 171° | 26km/h | 24276m | 4.9m/s | 0°C | 0% | 0hPa | 2.5V | 18:12:15 | 01:45:48 | 00:00:00 | |
| DM0DOS-11 | 2026-09-05 00:36:01 | 52.68893 | 0.69324 | 135° | 13km/h | 24247m | 5.9m/s | -50.4°C | 3.4% | 0hPa | 2.5V | 08:30:00 | 01:45:43 | 00:00:00 | |
| BIOWL9-15 | 2026-09-05 00:35:58 | 52.68909 | 0.69312 | 169° | 18km/h | 24224m | 5.8m/s | -50.3°C | 0.9% | -1.0hPa | 2.5V | 00:00:00 | 00:00:00 | 00:00:00 | |
| DJ2DS-15 | 2026-09-05 00:35:52 | 52.68920 | 0.69310 | 174° | 18km/h | 24213m | 6.2m/s | -50.3°C | 3.4% | 0hPa | 2.5V | 00:00:00 | 01:45:37 | 08:30:00 | |
| DM0DOS-11 | 2026-09-05 00:35:51 | 52.68940 | 0.69298 | 127° | 16km/h | 24191m | 5.7m/s | -50.2°C | 3.4% | 0hPa | 2.5V | 08:30:00 | 01:45:33 | 00:00:00 | |
| BIOWL1-15 | 2026-09-05 00:35:50 | 52.68942 | 0.69291 | 107° | 18km/h | 24186m | 5.2m/s | 0°C | 0% | 0hPa | 2.6V | 18:12:15 | 01:45:32 | 00:00:00 | |
| DM0DOS-11 | 2026-09-05 00:35:41 | 52.68967 | 0.69245 | 161° | 20km/h | 24137m | 4.3m/s | -50.5°C | 3.4% | 0hPa | 2.5V | 08:30:00 | 01:45:23 | 00:00:00 | |
| BIOWL1-15 | 2026-09-05 00:35:39 | 52.68962 | 0.69247 | 166° | 20km/h | 24142m | 5.8m/s | 0°C | 0% | 0hPa | 2.5V | 18:12:15 | 01:45:24 | 00:00:00 | |
| DJ2DS-15 | 2026-09-05 00:35:32 | 52.68980 | 0.69215 | 97° | 15km/h | 24105m | 5.2m/s | -50.2°C | 3.4% | 0hPa | 2.5V | 00:00:00 | 01:45:17 | 00:00:00 | |
| DM0DOS-11 | 2026-09-05 00:35:31 | 52.68980 | 0.69184 | 87° | 15km/h | 24084m | 4m/s | -50.1°C | 3.4% | 0hPa | 2.5V | 08:30:00 | 01:45:13 | 00:00:00 | |
| BIOWL1-15 | 2026-09-05 00:35:29 | 52.68980 | 0.69190 | 84° | 18km/h | 24089m | 5.5m/s | 0°C | 0% | 0hPa | 2.5V | 18:12:15 | 01:45:14 | 00:00:00 | |
| BIOWL9-15 | 2026-09-05 00:35:27 | 52.68980 | 0.69178 | 102° | 13km/h | 24080m | 4.5m/s | -50.1°C | 0.9% | -1.0hPa | 2.5V | 00:00:00 | 00:00:00 | 00:00:00 | |
| DM0DOS-11 | 2026-09-05 00:35:21 | 52.69002 | 0.69135 | 115° | 9km/h | 24030m | 4.2m/s | -50°C | 3.3% | 0hPa | 2.5V | 08:30:00 | 01:45:03 | 00:00:00 | |
| BIOWL1-15 | 2026-09-05 00:35:18 | 52.69003 | 0.69129 | 78° | 5km/h | 24019m | 6m/s | 0°C | 0% | 0hPa | 2.6V | 18:12:15 | 01:45:01 | 00:00:00 | |
| DJ2DS-15 | 2026-09-05 00:35:12 | 52.69006 | 0.69117 | 135° | 15km/h | 23997m | 4.4m/s | -50.2°C | 3.4% | 0hPa | 2.5V | 00:00:00 | 01:44:57 | 00:00:00 | |
| DM0DOS-11 | 2026-09-05 00:35:11 | 52.69018 | 0.69102 | 145° | 16km/h | 23975m | 6.4m/s | -50.2°C | 3.3% | 0hPa | 2.5V | 08:30:00 | 01:44:53 | 00:00:00 | |
| BIOWL1-15 | 2026-09-05 00:35:04 | 52.69025 | 0.69092 | 28° | 2km/h | 23952m | 4.6m/s | 0°C | 0% | 0hPa | 2.5V | 18:12:15 | 01:44:49 | 00:00:00 | |
| DB0UT-7 | 2026-09-05 00:35:03 | 52.69024 | 0.69091 | 29° | 20km/h | 23948m | 4.0m/s | -50.1°C | 3.3% | 0hPa | 2.5V | 00:00:00 | 01:44:48 | 00:00:00 | |
| DM0DOS-11 | 2026-09-05 00:35:01 | 52.69031 | 0.69073 | 144° | 18km/h | 23922m | 6m/s | -50.2°C | 3.3% | 0hPa | 2.5V | 08:30:00 | 01:44:43 | 00:00:00 | |
| BIOWL9-15 | 2026-09-05 00:34:56 | 52.69039 | 0.69065 | 152° | 18km/h | 23911m | 5.0m/s | -50.3°C | 0.9% | -1.0hPa | 2.5V | 00:00:00 | 00:00:00 | 00:00:00 | |
| DJ2DS-15 | 2026-09-05 00:34:52 | 52.69055 | 0.69045 | 143° | 24km/h | 23889m | 6.0m/s | -50.3°C | 3.4% | 0hPa | 2.5V | 00:00:00 | 01:44:37 | 00:00:00 | |
| DM0DOS-11 | 2026-09-05 00:34:51 | 52.69064 | 0.69031 | 123° | 15km/h | 23865m | 5.5m/s | -50.5°C | 3.4% | 0hPa | 2.5V | 08:30:00 | 01:44:33 | 00:00:00 | |
| DM0DOS-11 | 2026-09-05 00:34:41 | 52.69115 | 0.68968 | 148° | 31km/h | 23809m | 5.9m/s | -50.5°C | 3.4% | 0hPa | 2.5V | 08:30:00 | 01:44:23 | 00:00:00 | |
| DJ2DS-15 | 2026-09-05 00:34:39 | 52.69108 | 0.68975 | 147° | 33km/h | 23815m | 6.2m/s | -50.5°C | 0.9% | -1.0hPa | 2.5V | 00:00:00 | 00:00:00 | 00:00:00 | |
| DB0UT-7 | 2026-09-05 00:34:33 | 52.69145 | 0.68935 | 157° | 27km/h | 23780m | 5.6m/s | -50.4°C | 3.3% | 0hPa | 2.5V | 00:00:00 | 00:00:00 | 00:00:00 | |
| DJ2DS-15 | 2026-09-05 00:34:32 | 52.69151 | 0.68930 | 158° | 24km/h | 23775m | 4.6m/s | -50.4°C | 3.3% | 0hPa | 2.5V | 00:00:00 | 01:44:17 | 00:00:00 | |
| DM0DOS-11 | 2026-09-05 00:34:30 | 52.69172 | 0.68907 | 139° | 26km/h | 23751m | 6.4m/s | -50.5°C | 3.4% | 0hPa | 2.5V | 08:30:00 | 01:44:13 | 00:00:00 | |
| AU51GT2 | 2026-09-05 00:34:25 | 52.69185 | 0.68886 | 125° | 24km/h | 23733m | 6.9m/s | -50.6°C | 0.9% | -1.0hPa | 2.5V | 00:00:00 | 00:00:00 | 00:00:00 | |
| DM0DOS-11 | 2026-09-05 00:34:23 | 52.69209 | 0.68831 | 122° | 24km/h | 23693m | 4.2m/s | -50.6°C | 3.4% | 0hPa | 2.5V | 08:30:00 | 01:44:03 | 00:00:00 | |
| DJ2DS-15 | 2026-09-05 00:34:12 | 52.69225 | 0.68792 | 104° | 24km/h | 23659m | 5.4m/s | -50.8°C | 3.4% | 0hPa | 2.5V | 00:00:00 | 01:43:57 | 00:00:00 | |
| DM0DOS-11 | 2026-09-05 00:34:11 | 52.69231 | 0.68764 | 110° | 22km/h | 23637m | 6.2m/s | -50.8°C | 3.4% | 0hPa | 2.5V | 08:30:00 | 01:43:53 | 00:00:00 | |
| DM0DOS-11 | 2026-09-05 00:34:00 | 52.69262 | 0.68669 | 115° | 22km/h | 23579m | 5m/s | -50.7°C | 3.4% | 0hPa | 2.5V | 08:30:00 | 01:43:43 | 00:00:00 | |
| AU51GT2 | 2026-09-05 00:33:54 | 52.69267 | 0.68632 | 94° | 24km/h | 23557m | 4.7m/s | -50.7°C | 0.9% | -1.0hPa | 2.6V | 00:00:00 | 00:00:00 | 00:00:00 | |
| DJ2DS-15 | 2026-09-05 00:33:52 | 52.69269 | 0.68611 | 107° | 16km/h | 23545m | 5.6m/s | -50.7°C | 3.3% | 0hPa | 2.6V | 00:00:00 | 01:43:37 | 00:00:00 | |
| DM0DOS-11 | 2026-09-05 00:33:50 | 52.69276 | 0.68578 | 107° | 16km/h | 23523m | 5.4m/s | -50.9°C | 3.4% | 0hPa | 2.5V | 08:30:00 | 01:43:33 | 00:00:00 | |
| DM0DOS-11 | 2026-09-05 00:33:40 | 52.69287 | 0.68531 | 112° | 18km/h | 23467m | 4.7m/s | -51.4°C | 3.4% | 0hPa | 2.5V | 08:30:00 | 01:43:23 | 00:00:00 | |
| DJ2DS-15 | 2026-09-05 00:33:32 | 52.69297 | 0.68495 | 129° | 27km/h | 23434m | 4.6m/s | -51.9°C | 3.6% | 0hPa | 2.5V | 00:00:00 | 01:43:17 | 00:00:00 | |
| DM0DOS-11 | 2026-09-05 00:33:30 | 52.69307 | 0.68454 | 103° | 35km/h | 23411m | 5.4m/s | -52.1°C | 3.6% | 0hPa | 2.5V | 08:30:00 | 01:43:13 | 00:00:00 | |
| DJ2DS-15 | 2026-09-05 00:33:27 | 52.69309 | 0.68440 | 107° | 35km/h | 23406m | 6.3m/s | -52.1°C | 1.0% | -1.0hPa | 2.5V | 00:00:00 | 00:00:00 | 00:00:00 | |
| AU51GT2 | 2026-09-05 00:33:23 | 52.69318 | 0.68387 | 97° | 26km/h | 23383m | 4.9m/s | -52.1°C | 1.0% | -1.0hPa | 2.5V | 00:00:00 | 00:00:00 | 00:00:00 | |
| DM0DOS-11 | 2026-09-05 00:33:20 | 52.69322 | 0.68341 | 83° | 20km/h | 23353m | 5.4m/s | -52.1°C | 3.6% | 0hPa | 2.5V | 08:30:00 | 01:43:03 | 00:00:00 | |
| BIOWL1-15 | 2026-09-05 00:33:10 | 52.69313 | 0.68205 | 81° | 22km/h | 23278m | 6.5m/s | -52.4°C | 0.4% | 0hPa | 2.6V | 18:12:15 | 01:42:50 | 00:00:00 | |
| DM0DOS-11 | 2026-09-05 00:33:10 | 52.69316 | 0.68234 | 83° | 26km/h | 23296m | 6.4m/s | -52.3°C | 3.6% | 0hPa | 2.5V | 08:30:00 | 01:42:53 | 00:00:00 | |
| DB0UT-7 | 2026-09-05 00:33:10 | 52.69317 | 0.68256 | 88° | 11km/h | 23307m | 5.8m/s | -52.2°C | 3.6% | 0hPa | 2.6V | 00:00:00 | 01:42:55 | 00:00:00 | |
| DM0DOS-11 | 2026-09-05 00:33:00 | 52.69299 | 0.68136 | 69° | 29km/h | 23238m | 5.1m/s | -52.6°C | 3.8% | 0hPa | 2.5V | 08:30:00 | 01:42:43 | 00:00:00 | |
| BIOWL1-15 | 2026-09-05 00:33:00 | 52.69304 | 0.68158 | 67° | 27km/h | 23250m | 6m/s | -52.6°C | 0.5% | 0hPa | 2.6V | 18:12:15 | 01:42:45 | 00:00:00 | |
| BIOWL9-15 | 2026-09-05 00:32:52 | 52.69273 | 0.68077 | 50° | 18km/h | 23200m | 6.3m/s | -52.5°C | 1.0% | -1.0hPa | 2.6V | 00:00:00 | 00:00:00 | 00:00:00 | |
| DJ2DS-15 | 2026-09-05 00:32:51 | 52.69273 | 0.68077 | 51° | 20km/h | 23200m | 6.3m/s | -52.4°C | 3.8% | 0hPa | 2.6V | 00:00:00 | 01:42:36 | 08:30:00 | |
| DM0DOS-11 | 2026-09-05 00:32:50 | 52.69263 | 0.68055 | 59° | 22km/h | 23182m | 6.7m/s | -52.3°C | 3.8% | 0hPa | 2.5V | 08:30:00 | 01:42:33 | 00:00:00 | |
| BIOWL1-15 | 2026-09-05 00:32:50 | 52.69270 | 0.68070 | 49° | 24km/h | 23194m | 5.7m/s | -52.4°C | 0.6% | 0hPa | 2.6V | 18:12:15 | 01:42:35 | 00:00:00 | |
| DM0DOS-11 | 2026-09-05 00:32:40 | 52.69230 | 0.67989 | 40° | 15km/h | 23129m | 5.1m/s | -51.9°C | 3.7% | 0hPa | 2.6V | 08:30:00 | 01:42:23 | 00:00:00 | |
| BIOWL1-15 | 2026-09-05 00:32:39 | 52.69233 | 0.67993 | 41° | 15km/h | 23135m | 5.8m/s | -51.9°C | 0.5% | 0hPa | 2.5V | 18:12:15 | 01:42:24 | 00:00:00 | |
| DJ2DS-15 | 2026-09-05 00:32:31 | 52.69211 | 0.67956 | 58° | 15km/h | 23093m | 4.1m/s | -51.5°C | 3.6% | 0hPa | 2.6V | 00:00:00 | 01:42:16 | 00:00:00 | |
| DM0DOS-11 | 2026-09-05 00:32:30 | 52.69205 | 0.67931 | 77° | 18km/h | 23076m | 5.2m/s | -51.6°C | 3.6% | 0hPa | 2.6V | 08:30:00 | 01:42:13 | 00:00:00 | |
| BIOWL1-15 | 2026-09-05 00:32:28 | 52.69199 | 0.67909 | 46° | 11km/h | 23054m | 5.3m/s | -51.5°C | 0.4% | 0hPa | 2.5V | 18:12:15 | 01:42:09 | 00:00:00 | |
| AU51GT2 | 2026-09-05 00:32:21 | 52.69193 | 0.67904 | 24° | 9km/h | 23038m | 5.7m/s | -51.5°C | 0.9% | -1.0hPa | 2.6V | 00:00:00 | 00:00:00 | 00:00:00 | |
| DM0DOS-11 | 2026-09-05 00:32:20 | 52.69184 | 0.67892 | 51° | 18km/h | 23023m | 4.6m/s | -51.5°C | 3.6% | 0hPa | 2.6V | 08:30:00 | 01:42:03 | 00:00:00 | |
| BIOWL1-15 | 2026-09-05 00:32:19 | 52.69178 | 0.67877 | 58° | 11km/h | 23007m | 4.9m/s | -51.4°C | 0.4% | 0hPa | 2.6V | 18:12:15 | 01:42:00 | 00:00:00 | |
| DJ2DS-15 | 2026-09-05 00:32:15 | 52.69178 | 0.67877 | 58° | 9km/h | 23007m | 4.9m/s | -51.4°C | 1.0% | -1.0hPa | 2.5V | 00:00:00 | 00:00:00 | 00:00:00 | |
| DJ2DS-15 | 2026-09-05 00:32:11 | 52.69172 | 0.67868 | 36° | 9km/h | 22985m | 6.4m/s | -51.2°C | 3.5% | 0hPa | 2.5V | 00:00:00 | 01:41:56 | 00:00:00 | |
| DM0DOS-11 | 2026-09-05 00:32:09 | 52.69170 | 0.67863 | 61° | 7km/h | 22968m | 6m/s | -51.4°C | 3.5% | 0hPa | 2.5V | 08:30:00 | 01:41:53 | 00:00:00 | |
| BIOWL1-15 | 2026-09-05 00:32:05 | 52.69169 | 0.67852 | 103° | 9km/h | 22951m | 5.8m/s | -51.5°C | 0.4% | 0hPa | 2.6V | 18:12:15 | 01:41:50 | 00:00:00 | |
| DM0DOS-11 | 2026-09-05 00:31:59 | 52.69175 | 0.67823 | 153° | 11km/h | 22915m | 5.2m/s | -51.3°C | 3.6% | 0hPa | 2.5V | 08:30:00 | 01:41:43 | 00:00:00 | |
| BIOWL1-15 | 2026-09-05 00:31:58 | 52.69184 | 0.67817 | 169° | 11km/h | 22893m | 5.4m/s | -51.3°C | 0.4% | 0hPa | 2.5V | 18:12:15 | 01:41:39 | 00:00:00 | |
| BIOWL9-15 | 2026-09-05 00:31:50 | 52.69197 | 0.67814 | 159° | 5km/h | 22866m | 4.3m/s | -51.1°C | 0.9% | -1.0hPa | 2.5V | 00:00:00 | 00:00:00 | 00:00:00 | |
| DM0DOS-11 | 2026-09-05 00:31:49 | 52.69199 | 0.67813 | 163° | 9km/h | 22861m | 6.6m/s | -51.1°C | 3.5% | 0hPa | 2.5V | 08:30:00 | 01:41:33 | 00:00:00 | |
| BIOWL1-15 | 2026-09-05 00:31:44 | 52.69216 | 0.67790 | 143° | 9km/h | 22813m | 5.1m/s | -51.1°C | 0.3% | 0hPa | 2.5V | 18:12:15 | 01:41:24 | 00:00:00 | |
| DM0DOS-11 | 2026-09-05 00:31:39 | 52.69218 | 0.67788 | 150° | 9km/h | 22808m | 5m/s | -51.1°C | 3.4% | 0hPa | 2.5V | 08:30:00 | 01:41:23 | 00:00:00 | |
| BIOWL1-15 | 2026-09-05 00:31:32 | 52.69228 | 0.67785 | 90° | 4km/h | 22777m | 3.9m/s | -51.1°C | 0.4% | 0hPa | 2.6V | 18:12:15 | 01:41:17 | 00:00:00 | |
| DJ2DS-15 | 2026-09-05 00:31:31 | 52.69228 | 0.67782 | 110° | 16km/h | 22773m | 5.2m/s | -51.1°C | 3.4% | 0hPa | 2.5V | 00:00:00 | 01:41:16 | 00:00:00 | |
| BIOWL1-15 | 2026-09-05 00:31:21 | 52.69268 | 0.67686 | 124° | 22km/h | 22678m | 5.8m/s | -52.1°C | 0.4% | 0hPa | 2.5V | 18:12:15 | 01:40:58 | 00:00:00 | |
| DM0DOS-11 | 2026-09-05 00:31:19 | 52.69256 | 0.67718 | 109° | 13km/h | 22705m | 5.5m/s | -51.5°C | 3.4% | 0hPa | 2.5V | 08:30:00 | 01:41:03 | 00:00:00 | |
| BIOWL9-15 | 2026-09-05 00:31:19 | 52.69256 | 0.67718 | 109° | 11km/h | 22705m | 5.5m/s | -51.5°C | 0.9% | -1.0hPa | 2.5V | 00:00:00 | 00:00:00 | 00:00:00 | |
| DM0DOS-11 | 2026-09-05 00:31:13 | 52.69283 | 0.67653 | 111° | 18km/h | 22651m | 4.1m/s | -52.5°C | 3.7% | 0hPa | 2.5V | 08:30:00 | 01:40:53 | 00:00:00 | |
| BIOWL1-15 | 2026-09-05 00:31:10 | 52.69278 | 0.67666 | 130° | 20km/h | 22662m | 5.6m/s | -52.4°C | 0.4% | 0hPa | 2.6V | 18:12:15 | 01:40:55 | 00:00:00 | |
| DJ2DS-15 | 2026-09-05 00:31:03 | 52.69298 | 0.67619 | 129° | 22km/h | 22624m | 6.5m/s | -52.6°C | 1.0% | -1.0hPa | 2.6V | 00:00:00 | 00:00:00 | 00:00:00 | |
| DM0DOS-11 | 2026-09-05 00:31:00 | 52.69316 | 0.67577 | 117° | 27km/h | 22596m | 6m/s | -52.6°C | 3.8% | 0hPa | 2.6V | 08:30:00 | 01:40:43 | 00:00:00 | |
| BIOWL1-15 | 2026-09-05 00:31:00 | 52.69309 | 0.67595 | 129° | 26km/h | 22607m | 6.3m/s | -52.7°C | 0.5% | 0hPa | 2.6V | 18:12:15 | 01:40:45 | 00:00:00 | |
| BIOWL1-15 | 2026-09-05 00:30:51 | 52.69345 | 0.67441 | 107° | 20km/h | 22524m | 5.5m/s | -52.5°C | 0.5% | 0hPa | 2.6V | 18:12:15 | 01:40:30 | 00:00:00 | |
| DJ2DS-15 | 2026-09-05 00:30:51 | 52.69335 | 0.67490 | 105° | 27km/h | 22557m | 6.3m/s | -52.6°C | 3.8% | 0hPa | 2.7V | 00:00:00 | 01:40:36 | 00:00:00 | |
| DM0DOS-11 | 2026-09-05 00:30:50 | 52.69339 | 0.67463 | 113° | 20km/h | 22539m | 6m/s | -52.5°C | 3.7% | 0hPa | 2.6V | 08:30:00 | 01:40:33 | 00:00:00 | |
| BIOWL9-15 | 2026-09-05 00:30:48 | 52.69341 | 0.67456 | 117° | 18km/h | 22534m | 4.3m/s | -52.6°C | 1.0% | -1.0hPa | 2.6V | 00:00:00 | 00:00:00 | 00:00:00 | |
| DM0DOS-11 | 2026-09-05 00:30:40 | 52.69365 | 0.67365 | 116° | 33km/h | 22485m | 5.1m/s | -52.5°C | 3.6% | 0hPa | 2.6V | 08:30:00 | 01:40:23 | 00:00:00 | |
| BIOWL1-15 | 2026-09-05 00:30:39 | 52.69374 | 0.67343 | 123° | 29km/h | 22473m | 5.3m/s | -52.4°C | 0.4% | 0hPa | 2.6V | 18:12:15 | 01:40:21 | 00:00:00 | |
| DJ2DS-15 | 2026-09-05 00:30:31 | 52.69388 | 0.67287 | 112° | 35km/h | 22444m | 5.5m/s | -52.6°C | 3.7% | 0hPa | 2.6V | 00:00:00 | 01:40:16 | 00:00:00 | |
| DM0DOS-11 | 2026-09-05 00:30:30 | 52.69395 | 0.67248 | 99° | 35km/h | 22426m | 5.4m/s | -52.9°C | 3.7% | 0hPa | 2.6V | 08:30:00 | 01:40:13 | 00:00:00 | |
| BIOWL1-15 | 2026-09-05 00:30:24 | 52.69416 | 0.67140 | 112° | 31km/h | 22379m | 4.8m/s | -53.1°C | 0.5% | 0hPa | 2.6V | 18:12:15 | 01:40:05 | 00:00:00 | |
| DM0DOS-11 | 2026-09-05 00:30:23 | 52.69421 | 0.67114 | 100° | 35km/h | 22367m | 6.3m/s | -53.1°C | 3.7% | 0hPa | 2.6V | 08:30:00 | 01:40:03 | 00:00:00 | |
| BIOWL1-15 | 2026-09-05 00:30:13 | 52.69444 | 0.66900 | 88° | 38km/h | 22288m | 4.7m/s | -53.6°C | 0.6% | 0hPa | 2.5V | 18:12:15 | 01:39:49 | 00:00:00 | |
| DM0DOS-11 | 2026-09-05 00:30:12 | 52.69439 | 0.66963 | 104° | 37km/h | 22310m | 5.7m/s | -53.4°C | 3.8% | 0hPa | 2.5V | 08:30:00 | 01:39:53 | 00:00:00 | |
| BIOWL1-15 | 2026-09-05 00:30:01 | 52.69444 | 0.66841 | 92° | 38km/h | 22266m | 5.4m/s | -53.6°C | 0.7% | 0hPa | 2.6V | 18:12:15 | 01:39:45 | 00:00:00 | |
| DM0DOS-11 | 2026-09-05 00:30:00 | 52.69444 | 0.66789 | 92° | 44km/h | 22249m | 5.4m/s | -53.6°C | 4% | 0hPa | 2.6V | 08:30:00 | 01:39:42 | 00:00:00 | |
| BIOWL1-15 | 2026-09-05 00:29:52 | 52.69448 | 0.66681 | 96° | 31km/h | 22209m | 6.1m/s | -53.3°C | 0.6% | 0hPa | 2.6V | 18:12:15 | 01:39:35 | 00:00:00 | |
| DJ2DS-15 | 2026-09-05 00:29:51 | 52.69447 | 0.66694 | 93° | 33km/h | 22215m | 6.4m/s | -53.3°C | 3.9% | 0hPa | 2.7V | 00:00:00 | 01:39:36 | 08:30:00 | |
| DM0DOS-11 | 2026-09-05 00:29:49 | 52.69448 | 0.66641 | 82° | 33km/h | 22190m | 5.4m/s | -53.2°C | 3.9% | 0hPa | 2.6V | 08:30:00 | 01:39:32 | 00:00:00 | |
| AU51GT2 | 2026-09-05 00:29:46 | 52.69447 | 0.66628 | 83° | 31km/h | 22185m | 5.1m/s | -53.2°C | 1.1% | -1.0hPa | 2.6V | 00:00:00 | 00:00:00 | 00:00:00 | |
| BIOWL9-15 | 2026-09-05 00:29:45 | 52.69446 | 0.66615 | 84° | 29km/h | 22179m | 6.4m/s | -53.2°C | 1.1% | -1.0hPa | 2.6V | 00:00:00 | 00:00:00 | 00:00:00 | |
| BIOWL1-15 | 2026-09-05 00:29:40 | 52.69440 | 0.66555 | 84° | 29km/h | 22150m | 6.4m/s | -53.1°C | 0.6% | 0hPa | 2.6V | 18:12:15 | 01:39:25 | 00:00:00 | |
| DM0DOS-11 | 2026-09-05 00:29:39 | 52.69438 | 0.66516 | 80° | 33km/h | 22133m | 5.9m/s | -53.2°C | 3.8% | 0hPa | 2.6V | 08:30:00 | 01:39:22 | 00:00:00 | |
| BIOWL1-15 | 2026-09-05 00:29:31 | 52.69427 | 0.66401 | 72° | 33km/h | 22089m | 5.5m/s | -53.2°C | 0.6% | 0hPa | 2.5V | 18:12:15 | 01:39:14 | 00:00:00 | |
| DJ2DS-15 | 2026-09-05 00:29:31 | 52.69432 | 0.66430 | 80° | 31km/h | 22100m | 5.9m/s | -53.2°C | 3.9% | 0hPa | 2.6V | 00:00:00 | 01:39:16 | 00:00:00 | |
| DM0DOS-11 | 2026-09-05 00:29:29 | 52.69422 | 0.66377 | 68° | 27km/h | 22078m | 4.8m/s | -53.2°C | 3.9% | 0hPa | 2.6V | 08:30:00 | 01:39:12 | 00:00:00 | |
| BIOWL1-15 | 2026-09-05 00:29:18 | 52.69378 | 0.66225 | 52° | 27km/h | 22005m | 5.7m/s | -52.9°C | 0.5% | 0hPa | 2.6V | 18:12:15 | 01:38:59 | 00:00:00 | |
| DM0DOS-11 | 2026-09-05 00:29:18 | 52.69390 | 0.66256 | 61° | 33km/h | 22022m | 5.1m/s | -52.9°C | 3.8% | 0hPa | 2.6V | 08:30:00 | 01:39:02 | 00:00:00 | |
| BIOWL1-15 | 2026-09-05 00:29:05 | 52.69344 | 0.66129 | 66° | 26km/h | 21955m | 5.7m/s | -52.8°C | 0.5% | 0hPa | 2.6V | 18:12:15 | 01:38:50 | 00:00:00 | |
| DM0DOS-11 | 2026-09-05 00:29:03 | 52.69325 | 0.66077 | 67° | 24km/h | 21919m | 5.9m/s | -53°C | 3.9% | 0hPa | 2.6V | 08:30:00 | 01:38:43 | 00:00:00 | |
| BIOWL1-15 | 2026-09-05 00:28:55 | 52.69317 | 0.66043 | 71° | 31km/h | 21904m | 4.3m/s | 0°C | 0% | 0hPa | 2.6V | 18:12:15 | 01:38:40 | 00:00:00 | |
| DM0DOS-11 | 2026-09-05 00:28:53 | 52.69300 | 0.65984 | 49° | 20km/h | 21868m | 5.7m/s | -52.7°C | 3.8% | 0hPa | 2.6V | 08:30:00 | 01:38:33 | 00:00:00 | |
| BIOWL1-15 | 2026-09-05 00:28:44 | 52.69290 | 0.65957 | 66° | 22km/h | 21847m | 4.7m/s | 0°C | 0% | 0hPa | 2.5V | 18:12:15 | 01:38:29 | 00:00:00 | |
| BIOWL1-15 | 2026-09-05 00:28:34 | 52.69279 | 0.65879 | 56° | 15km/h | 21797m | 5.4m/s | 0°C | 0% | 0hPa | 2.6V | 18:12:15 | 01:38:19 | 00:00:00 | |
| DM0DOS-11 | 2026-09-05 00:28:32 | 52.69269 | 0.65844 | 85° | 16km/h | 21767m | 6m/s | -52.6°C | 3.8% | 0hPa | 2.6V | 08:30:00 | 01:38:13 | 00:00:00 | |
| BIOWL1-15 | 2026-09-05 00:28:23 | 52.69271 | 0.65812 | 87° | 13km/h | 21741m | 5.6m/s | 0°C | 0% | 0hPa | 2.6V | 18:12:15 | 01:38:08 | 00:00:00 | |
| DM0DOS-11 | 2026-09-05 00:28:19 | 52.69263 | 0.65788 | 72° | 13km/h | 21717m | 4.5m/s | -52.6°C | 3.8% | 0hPa | 2.6V | 08:30:00 | 01:38:03 | 00:00:00 | |
| DM0DOS-11 | 2026-09-05 00:28:13 | 52.69260 | 0.65728 | 77° | 11km/h | 21668m | 4.6m/s | -52.1°C | 3.7% | 0hPa | 2.6V | 08:30:00 | 01:37:53 | 00:00:00 | |
| BIOWL9-15 | 2026-09-05 00:28:12 | 52.69260 | 0.65750 | 104° | 15km/h | 21687m | 4.2m/s | -52.3°C | 1.0% | -1.0hPa | 2.6V | 00:00:00 | 00:00:00 | 00:00:00 | |
| BIOWL1-15 | 2026-09-05 00:28:12 | 52.69260 | 0.65728 | 77° | 11km/h | 21668m | 4.6m/s | 0°C | 0% | 0hPa | 2.6V | 18:12:15 | 01:37:53 | 00:00:00 | |
| DJ2DS-15 | 2026-09-05 00:28:11 | 52.69261 | 0.65743 | 103° | 13km/h | 21682m | 5.5m/s | -52.2°C | 3.7% | 0hPa | 2.6V | 00:00:00 | 01:37:56 | 00:00:00 | |
| AU51GT2 | 2026-09-05 00:28:08 | 52.69260 | 0.65724 | 86° | 9km/h | 21663m | 5.4m/s | -52.1°C | 1.0% | -1.0hPa | 2.6V | 00:00:00 | 00:00:00 | 00:00:00 | |
| DB0UT-7 | 2026-09-05 00:28:05 | 52.69259 | 0.65716 | 77° | 11km/h | 21653m | 4.8m/s | -52.0°C | 3.7% | 0hPa | 2.6V | 00:00:00 | 01:37:50 | 00:00:00 | |
| DJ2DS-15 | 2026-09-05 00:28:03 | 52.69256 | 0.65700 | 83° | 13km/h | 21638m | 5.9m/s | -52.0°C | 1.0% | -1.0hPa | 2.6V | 00:00:00 | 00:00:00 | 00:00:00 | |
| DM0DOS-11 | 2026-09-05 00:28:01 | 52.69258 | 0.65675 | 94° | 16km/h | 21618m | 5.2m/s | -51.8°C | 3.6% | 0hPa | 2.6V | 08:30:00 | 01:37:43 | 00:00:00 | |
| BIOWL1-15 | 2026-09-05 00:28:01 | 52.69257 | 0.65694 | 101° | 15km/h | 21632m | 4.8m/s | 0°C | 0% | 0hPa | 2.7V | 18:12:15 | 01:37:46 | 00:00:00 | |
| DM0DOS-11 | 2026-09-05 00:27:51 | 52.69261 | 0.65635 | 94° | 11km/h | 21570m | 4.7m/s | -51.7°C | 3.5% | 0hPa | 2.6V | 08:30:00 | 01:37:33 | 00:00:00 | |
| DJ2DS-15 | 2026-09-05 00:27:51 | 52.69260 | 0.65646 | 83° | 9km/h | 21585m | 4.4m/s | -51.6°C | 3.5% | 0hPa | 2.7V | 00:00:00 | 01:37:36 | 00:00:00 | |
| DM0DOS-11 | 2026-09-05 00:27:41 | 52.69275 | 0.65609 | 200° | 4km/h | 21520m | 6.3m/s | -52°C | 3.7% | 0hPa | 2.6V | 08:30:00 | 01:37:23 | 00:00:00 | |
| AU51GT2 | 2026-09-05 00:27:37 | 52.69275 | 0.65613 | 302° | 4km/h | 21511m | 4.0m/s | -52.0°C | 1.0% | -1.0hPa | 2.6V | 00:00:00 | 00:00:00 | 00:00:00 | |
| DB0UT-7 | 2026-09-05 00:27:35 | 52.69275 | 0.65614 | 336° | 4km/h | 21506m | 5.9m/s | -52.0°C | 3.6% | 0hPa | 2.6V | 00:00:00 | 00:00:00 | 00:00:00 | |
| DM0DOS-11 | 2026-09-05 00:27:31 | 52.69285 | 0.65619 | 208° | 13km/h | 21469m | 5.4m/s | -52°C | 3.5% | 0hPa | 2.6V | 08:30:00 | 01:37:13 | 00:00:00 | |
| DJ2DS-15 | 2026-09-05 00:27:31 | 52.69276 | 0.65612 | 189° | 7km/h | 21485m | 5.7m/s | -52.0°C | 3.6% | 0hPa | 2.6V | 00:00:00 | 01:37:16 | 00:00:00 | |
| DJ2DS-15 | 2026-09-05 00:27:26 | 52.69290 | 0.65621 | 167° | 7km/h | 21459m | 5.0m/s | -52.1°C | 1.0% | -1.0hPa | 2.6V | 00:00:00 | 00:00:00 | 00:00:00 | |
| DM0DOS-11 | 2026-09-05 00:27:21 | 52.69291 | 0.65607 | 29° | 4km/h | 21417m | 5.2m/s | -52.4°C | 3.8% | 0hPa | 2.6V | 08:30:00 | 01:37:03 | 00:00:00 | |
| DM0DOS-11 | 2026-09-05 00:27:11 | 52.69282 | 0.65611 | 21° | 4km/h | 21366m | 4.7m/s | -52.6°C | 3.8% | 0hPa | 2.6V | 08:30:00 | 01:36:53 | 00:00:00 | |
| DJ2DS-15 | 2026-09-05 00:27:11 | 52.69285 | 0.65608 | 317° | 7km/h | 21382m | 4.1m/s | -52.6°C | 3.8% | 0hPa | 2.6V | 00:00:00 | 01:36:56 | 00:00:00 | |
| AU51GT2 | 2026-09-05 00:27:06 | 52.69282 | 0.65610 | 147° | 4km/h | 21351m | 4.9m/s | -52.5°C | 1.1% | -1.0hPa | 2.6V | 00:00:00 | 00:00:00 | 00:00:00 | |
| DM0DOS-11 | 2026-09-05 00:27:01 | 52.69293 | 0.65603 | 178° | 4km/h | 21312m | 4.5m/s | -52.3°C | 3.7% | 0hPa | 2.6V | 08:30:00 | 01:36:43 | 00:00:00 | |
| DM0DOS-11 | 2026-09-05 00:26:51 | 52.69320 | 0.65596 | 144° | 15km/h | 21259m | 5.8m/s | -52°C | 3.7% | 0hPa | 2.6V | 08:30:00 | 01:36:33 | 00:00:00 | |
| DJ2DS-15 | 2026-09-05 00:26:50 | 52.69313 | 0.65601 | 171° | 15km/h | 21269m | 4.1m/s | -52.1°C | 1.1% | -1.0hPa | 2.6V | 00:00:00 | 00:00:00 | 00:00:00 | |
| DM0DOS-11 | 2026-09-05 00:26:43 | 52.69352 | 0.65577 | 174° | 16km/h | 21206m | 6.2m/s | -51.9°C | 3.7% | 0hPa | 2.6V | 08:30:00 | 01:36:23 | 00:00:00 | |
| AU51GT2 | 2026-09-05 00:26:35 | 52.69364 | 0.65567 | 123° | 13km/h | 21185m | 4.4m/s | -51.8°C | 1.0% | -1.0hPa | 2.6V | 00:00:00 | 00:00:00 | 00:00:00 | |
| DM0DOS-11 | 2026-09-05 00:26:33 | 52.69380 | 0.65542 | 137° | 20km/h | 21151m | 5.4m/s | -51.7°C | 3.7% | 0hPa | 2.6V | 08:30:00 | 01:36:13 | 00:00:00 | |
| DJ2DS-15 | 2026-09-05 00:26:31 | 52.69371 | 0.65555 | 147° | 22km/h | 21168m | 5.0m/s | -51.7°C | 3.6% | 0hPa | 2.6V | 00:00:00 | 01:36:16 | 00:00:00 | |
| DM0DOS-11 | 2026-09-05 00:26:23 | 52.69419 | 0.65484 | 142° | 24km/h | 21095m | 6.1m/s | -51.4°C | 3.5% | 0hPa | 2.6V | 08:30:00 | 01:36:03 | 00:00:00 | |
| DM0DOS-11 | 2026-09-05 00:26:13 | 52.69460 | 0.65410 | 125° | 22km/h | 21040m | 5.1m/s | -51.3°C | 3.4% | 0hPa | 2.6V | 08:30:00 | 01:35:53 | 00:00:00 | |
| DJ2DS-15 | 2026-09-05 00:26:11 | 52.69450 | 0.65436 | 119° | 27km/h | 21056m | 5.2m/s | -51.2°C | 3.4% | 0hPa | 2.6V | 00:00:00 | 01:35:56 | 00:00:00 | |
| AU51GT2 | 2026-09-05 00:26:04 | 52.69478 | 0.65368 | 130° | 24km/h | 21013m | 5.5m/s | -51.5°C | 1.0% | -1.0hPa | 2.6V | 00:00:00 | 00:00:00 | 00:00:00 | |
| DM0DOS-11 | 2026-09-05 00:26:03 | 52.69498 | 0.65318 | 121° | 35km/h | 20986m | 5.7m/s | -51.9°C | 3.5% | 0hPa | 2.6V | 08:30:00 | 01:35:43 | 00:00:00 | |
| DJ2DS-15 | 2026-09-05 00:25:51 | 52.69523 | 0.65241 | 114° | 37km/h | 20949m | 4.5m/s | -52.2°C | 3.6% | 0hPa | 2.7V | 00:00:00 | 01:35:36 | 00:00:00 | |
| DM0DOS-11 | 2026-09-05 00:25:49 | 52.69532 | 0.65202 | 108° | 37km/h | 20932m | 5.7m/s | -52.9°C | 3.8% | 0hPa | 2.6V | 08:30:00 | 01:35:33 | 00:00:00 | |
| DM0DOS-11 | 2026-09-05 00:25:43 | 52.69557 | 0.65057 | 92° | 37km/h | 20876m | 5.3m/s | -52.8°C | 3.8% | 0hPa | 2.6V | 08:30:00 | 01:35:23 | 00:00:00 | |
| DJ2DS-15 | 2026-09-05 00:25:38 | 52.69557 | 0.65057 | 92° | 37km/h | 20876m | 5.3m/s | -52.8°C | 1.1% | -1.0hPa | 2.6V | 00:00:00 | 00:00:00 | 00:00:00 | |
| DM0DOS-11 | 2026-09-05 00:25:33 | 52.69565 | 0.64886 | 90° | 42km/h | 20821m | 6.1m/s | -52.5°C | 3.8% | 0hPa | 2.6V | 08:30:00 | 01:35:13 | 00:00:00 | |
| BIOWL1-15 | 2026-09-05 00:25:24 | 52.69564 | 0.64822 | 87° | 35km/h | 20800m | 4.6m/s | 0°C | 0% | 0hPa | 2.6V | 18:12:15 | 01:35:09 | 00:00:00 | |
| DM0DOS-11 | 2026-09-05 00:25:23 | 52.69556 | 0.64724 | 89° | 46km/h | 20768m | 4.2m/s | -52.5°C | 3.8% | 0hPa | 2.6V | 08:30:00 | 01:35:03 | 00:00:00 | |
| BIOWL1-15 | 2026-09-05 00:25:13 | 52.69535 | 0.64475 | 77° | 46km/h | 20702m | 4.9m/s | 0°C | 0% | 0hPa | 2.7V | 18:12:15 | 01:34:50 | 00:00:00 | |
| DM0DOS-11 | 2026-09-05 00:25:13 | 52.69542 | 0.64527 | 75° | 42km/h | 20716m | 5.7m/s | -52.1°C | 3.7% | 0hPa | 2.6V | 08:30:00 | 01:34:53 | 00:00:00 | |
| DJ2DS-15 | 2026-09-05 00:25:11 | 52.69549 | 0.64579 | 84° | 44km/h | 20733m | 4.5m/s | -52.2°C | 3.7% | 0hPa | 2.6V | 00:00:00 | 01:34:56 | 00:00:00 | |
| BIOWL9-15 | 2026-09-05 00:25:06 | 52.69535 | 0.64475 | 77° | 46km/h | 20702m | 4.9m/s | -52.1°C | 1.0% | -1.0hPa | 2.6V | 00:00:00 | 00:00:00 | 00:00:00 | |
| DM0DOS-11 | 2026-09-05 00:25:03 | 52.69520 | 0.64345 | 82° | 42km/h | 20666m | 5.4m/s | -51.9°C | 3.6% | 0hPa | 2.6V | 08:30:00 | 01:34:43 | 00:00:00 | |
| BIOWL1-15 | 2026-09-05 00:24:56 | 52.69517 | 0.64310 | 83° | 42km/h | 20657m | 4.9m/s | 0°C | 0% | 0hPa | 2.7V | 18:12:15 | 01:34:41 | 00:00:00 | |
| DM0DOS-11 | 2026-09-05 00:24:51 | 52.69508 | 0.64167 | 85° | 35km/h | 20616m | 4.8m/s | -52°C | 3.6% | 0hPa | 2.6V | 08:30:00 | 01:34:33 | 00:00:00 | |
| BIOWL1-15 | 2026-09-05 00:24:45 | 52.69503 | 0.64112 | 84° | 33km/h | 20596m | 5.9m/s | 0°C | 0% | 0hPa | 2.6V | 18:12:15 | 01:34:29 | 00:00:00 | |
| DM0DOS-11 | 2026-09-05 00:24:43 | 52.69500 | 0.64015 | 83° | 44km/h | 20567m | 5m/s | -52.2°C | 3.7% | 0hPa | 2.6V | 08:30:00 | 01:34:23 | 00:00:00 | |
| BIOWL1-15 | 2026-09-05 00:24:34 | 52.69493 | 0.63949 | 69° | 38km/h | 20547m | 5.6m/s | 0°C | 0% | 0hPa | 2.6V | 18:12:15 | 01:34:19 | 00:00:00 | |
| DJ2DS-15 | 2026-09-05 00:24:31 | 52.69484 | 0.63906 | 77° | 31km/h | 20533m | 5.2m/s | -52.1°C | 3.7% | 0hPa | 2.6V | 00:00:00 | 01:34:16 | 00:00:00 | |
| DM0DOS-11 | 2026-09-05 00:24:29 | 52.69477 | 0.63863 | 72° | 35km/h | 20517m | 4.9m/s | -52.1°C | 3.8% | 0hPa | 2.6V | 08:30:00 | 01:34:13 | 00:00:00 | |
| DM0DOS-11 | 2026-09-05 00:24:23 | 52.69452 | 0.63738 | 63° | 24km/h | 20468m | 4.7m/s | -51.9°C | 3.7% | 0hPa | 2.6V | 08:30:00 | 01:34:03 | 00:00:00 | |
| DM0DOS-11 | 2026-09-05 00:24:14 | 52.69427 | 0.63626 | 50° | 27km/h | 20419m | 4.3m/s | -51.7°C | 3.7% | 0hPa | 2.6V | 08:30:00 | 01:33:53 | 00:00:00 | |
| DJ2DS-15 | 2026-09-05 00:24:11 | 52.69437 | 0.63659 | 78° | 24km/h | 20434m | 4.8m/s | -51.8°C | 3.7% | 0hPa | 2.7V | 00:00:00 | 01:33:56 | 00:00:00 | |
| DB0UT-7 | 2026-09-05 00:24:05 | 52.69415 | 0.63605 | 41° | 51km/h | 20403m | 6.0m/s | -51.5°C | 3.7% | 0hPa | 2.7V | 00:00:00 | 01:33:50 | 00:00:00 | |
| DM0DOS-11 | 2026-09-05 00:24:03 | 52.69397 | 0.63556 | 59° | 26km/h | 20367m | 4.2m/s | -51.2°C | 3.6% | 0hPa | 2.6V | 08:30:00 | 01:33:43 | 00:00:00 | |
| AU51GT2 | 2026-09-05 00:23:59 | 52.69400 | 0.63565 | 64° | 22km/h | 20372m | 5.7m/s | -51.3°C | 1.0% | -1.0hPa | 2.6V | 00:00:00 | 00:00:00 | 00:00:00 | |
| DM0DOS-11 | 2026-09-05 00:23:53 | 52.69360 | 0.63486 | 38° | 22km/h | 20317m | 5.8m/s | -50.8°C | 3.4% | 0hPa | 2.6V | 08:30:00 | 01:33:33 | 00:00:00 | |
| DJ2DS-15 | 2026-09-05 00:23:51 | 52.69372 | 0.63501 | 42° | 22km/h | 20332m | 5.4m/s | -50.9°C | 3.5% | 0hPa | 2.7V | 00:00:00 | 01:33:36 | 08:30:00 | |
| DM0DOS-11 | 2026-09-05 00:23:43 | 52.69329 | 0.63407 | 39° | 24km/h | 20269m | 4.6m/s | -50.7°C | 3.3% | 0hPa | 2.6V | 08:30:00 | 01:33:23 | 00:00:00 | |
| DM0DOS-11 | 2026-09-05 00:23:33 | 52.69293 | 0.63343 | 73° | 20km/h | 20220m | 4.5m/s | -51.7°C | 3.5% | 0hPa | 2.6V | 08:30:00 | 01:33:13 | 00:00:00 | |
| DJ2DS-15 | 2026-09-05 00:23:31 | 52.69299 | 0.63367 | 62° | 26km/h | 20235m | 4.7m/s | -51.1°C | 3.4% | 0hPa | 2.6V | 00:00:00 | 01:33:16 | 00:00:00 | |
| AU51GT2 | 2026-09-05 00:23:28 | 52.69293 | 0.63343 | 73° | 18km/h | 20220m | 4.6m/s | 0°C | -1.0% | -1.0hPa | 2.6V | 00:00:00 | 00:00:00 | 00:00:00 | |
| DM0DOS-11 | 2026-09-05 00:23:23 | 52.69245 | 0.63270 | 49° | 29km/h | 20172m | 5.9m/s | -52.2°C | 3.7% | 0hPa | 2.6V | 08:30:00 | 01:33:03 | 00:00:00 | |
| DM0DOS-11 | 2026-09-05 00:23:13 | 52.69204 | 0.63177 | 41° | 29km/h | 20124m | 5.5m/s | -52.3°C | 3.7% | 0hPa | 2.6V | 08:30:00 | 01:32:53 | 00:00:00 | |
| DJ2DS-15 | 2026-09-05 00:23:11 | 52.69218 | 0.63201 | 52° | 26km/h | 20139m | 5.1m/s | -52.2°C | 3.7% | 0hPa | 2.6V | 00:00:00 | 01:32:56 | 00:00:00 | |
| DM0DOS-11 | 2026-09-05 00:23:03 | 52.69151 | 0.63111 | 42° | 24km/h | 20075m | 4.8m/s | -52.3°C | 3.6% | 0hPa | 2.6V | 08:30:00 | 01:32:43 | 00:00:00 | |
| AU51GT2 | 2026-09-05 00:22:57 | 52.69147 | 0.63104 | 47° | 24km/h | 20070m | 5.6m/s | 0°C | -1.0% | -1.0hPa | 2.6V | 00:00:00 | 00:00:00 | 00:00:00 | |
| DM0DOS-11 | 2026-09-05 00:22:53 | 52.69110 | 0.63031 | 60° | 20km/h | 20025m | 3.8m/s | -52.5°C | 3.6% | 0hPa | 2.6V | 08:30:00 | 01:32:33 | 00:00:00 | |
| DJ2DS-15 | 2026-09-05 00:22:51 | 52.69121 | 0.63054 | 50° | 24km/h | 20040m | 4.0m/s | -52.5°C | 3.7% | 0hPa | 2.7V | 00:00:00 | 01:32:36 | 00:00:00 | |
| DM0DOS-11 | 2026-09-05 00:22:44 | 52.69086 | 0.62945 | 67° | 24km/h | 19972m | 5.6m/s | -53°C | 3.8% | 0hPa | 2.6V | 08:30:00 | 01:32:23 | 00:00:00 | |
| BIOWL1-15 | 2026-09-05 00:22:38 | 52.69086 | 0.62945 | 68° | 24km/h | 19972m | 5.6m/s | -53°C | 0.6% | 0hPa | 2.6V | 18:12:15 | 01:32:23 | 00:00:00 | |
| DJ2DS-15 | 2026-09-05 00:22:38 | 52.69084 | 0.62936 | 74° | 22km/h | 19967m | 4.3m/s | -53.0°C | 1.1% | -1.0hPa | 2.6V | 00:00:00 | 00:00:00 | 00:00:00 | |
| DM0DOS-11 | 2026-09-05 00:22:33 | 52.69070 | 0.62841 | 73° | 24km/h | 19920m | 4.2m/s | -53.2°C | 3.8% | 0hPa | 2.6V | 08:30:00 | 01:32:13 | 00:00:00 | |
| BIOWL1-15 | 2026-09-05 00:22:27 | 52.69069 | 0.62832 | 71° | 22km/h | 19914m | 6m/s | -53.3°C | 0.6% | 0hPa | 2.6V | 18:12:15 | 01:32:12 | 00:00:00 | |
| AU51GT2 | 2026-09-05 00:22:26 | 52.69067 | 0.62824 | 72° | 20km/h | 19909m | 4.3m/s | 0°C | -1.0% | -1.0hPa | 2.7V | 00:00:00 | 00:00:00 | 00:00:00 | |
| DM0DOS-11 | 2026-09-05 00:22:23 | 52.69066 | 0.62736 | 99° | 33km/h | 19868m | 5.6m/s | -53.5°C | 3.9% | 0hPa | 2.7V | 08:30:00 | 01:32:03 | 00:00:00 | |
| BIOWL1-15 | 2026-09-05 00:22:15 | 52.69076 | 0.62618 | 98° | 24km/h | 19811m | 5.5m/s | -53.2°C | 0.6% | 0hPa | 2.6V | 18:12:15 | 01:31:52 | 00:00:00 | |
| DM0DOS-11 | 2026-09-05 00:22:13 | 52.69076 | 0.62627 | 94° | 22km/h | 19816m | 4.3m/s | -53.3°C | 3.8% | 0hPa | 2.7V | 08:30:00 | 01:31:53 | 00:00:00 | |
| DJ2DS-15 | 2026-09-05 00:22:11 | 52.69076 | 0.62657 | 90° | 22km/h | 19833m | 4.9m/s | -53.3°C | 3.9% | 0hPa | 2.7V | 00:00:00 | 01:31:56 | 00:00:00 | |
| DM0DOS-11 | 2026-09-05 00:22:02 | 52.69091 | 0.62532 | 115° | 20km/h | 19762m | 6.6m/s | -53.7°C | 4% | 0hPa | 2.7V | 08:30:00 | 01:31:43 | 00:00:00 | |
| BIOWL1-15 | 2026-09-05 00:22:02 | 52.69082 | 0.62569 | 110° | 22km/h | 19783m | 5.4m/s | -53.2°C | 0.6% | 0hPa | 2.6V | 18:12:15 | 01:31:47 | 00:00:00 | |
| BIOWL9-15 | 2026-09-05 00:21:59 | 52.69089 | 0.62540 | 112° | 22km/h | 19768m | 4.6m/s | -53.5°C | 1.2% | -1.0hPa | 2.7V | 00:00:00 | 00:00:00 | 00:00:00 | |
| DM0DOS-11 | 2026-09-05 00:21:53 | 52.69109 | 0.62472 | 139° | 22km/h | 19703m | 6.4m/s | -53.4°C | 3.9% | 0hPa | 2.7V | 08:30:00 | 01:31:33 | 00:00:00 | |
| BIOWL1-15 | 2026-09-05 00:21:49 | 52.69105 | 0.62478 | 128° | 20km/h | 19710m | 6.1m/s | -53.4°C | 0.7% | 0hPa | 2.7V | 18:12:15 | 01:31:34 | 00:00:00 | |
| BIOWL1-15 | 2026-09-05 00:21:45 | 52.69147 | 0.62436 | 143° | 16km/h | 19655m | 4.5m/s | -53.1°C | 0.6% | 0hPa | 2.6V | 18:12:15 | 01:31:24 | 00:00:00 | |
| DM0DOS-11 | 2026-09-05 00:21:41 | 52.69151 | 0.62432 | 146° | 16km/h | 19651m | 4.2m/s | -53°C | 3.9% | 0hPa | 2.7V | 08:30:00 | 01:31:23 | 00:00:00 | |
| DM0DOS-11 | 2026-09-05 00:21:33 | 52.69202 | 0.62398 | 145° | 20km/h | 19601m | 5.7m/s | -52.8°C | 3.8% | 0hPa | 2.6V | 08:30:00 | 01:31:13 | 00:00:00 | |
| BIOWL1-15 | 2026-09-05 00:21:28 | 52.69202 | 0.62398 | 146° | 20km/h | 19601m | 5.7m/s | -52.8°C | 0.5% | 0hPa | 2.6V | 18:12:15 | 01:31:13 | 00:00:00 | |
| DM0DOS-11 | 2026-09-05 00:21:23 | 52.69259 | 0.62367 | 170° | 24km/h | 19551m | 5m/s | -52.6°C | 3.9% | 0hPa | 2.6V | 08:30:00 | 01:31:03 | 00:00:00 | |
| BIOWL1-15 | 2026-09-05 00:21:18 | 52.69259 | 0.62367 | 171° | 24km/h | 19551m | 5m/s | -52.6°C | 0.6% | 0hPa | 2.6V | 18:12:15 | 01:31:03 | 00:00:00 | |
| BIOWL1-15 | 2026-09-05 00:21:08 | 52.69306 | 0.62301 | 162° | 31km/h | 19499m | 6.7m/s | -52.3°C | 0.5% | 0hPa | 2.6V | 18:12:15 | 01:30:53 | 00:00:00 | |
| DM0DOS-11 | 2026-09-05 00:21:01 | 52.69371 | 0.62233 | 122° | 40km/h | 19436m | 8.2m/s | -52.1°C | 3.7% | 0hPa | 2.6V | 08:30:00 | 01:30:43 | 00:00:00 | |
| BIOWL9-15 | 2026-09-05 00:20:57 | 52.69377 | 0.62220 | 128° | 40km/h | 19428m | 7.6m/s | -52.0°C | 1.1% | -1.0hPa | 2.6V | 00:00:00 | 00:00:00 | 00:00:00 | |
| DM0DOS-11 | 2026-09-05 00:20:53 | 52.69436 | 0.62105 | 114° | 40km/h | 19369m | 7.6m/s | -52.2°C | 3.8% | 0hPa | 2.6V | 08:30:00 | 01:30:33 | 00:00:00 | |
| BIOWL1-15 | 2026-09-05 00:20:53 | 52.69405 | 0.62175 | 139° | 35km/h | 19401m | 3.9m/s | -51.9°C | 0.5% | 0hPa | 2.6V | 18:12:15 | 01:30:38 | 00:00:00 | |
| DJ2DS-15 | 2026-09-05 00:20:51 | 52.69419 | 0.62152 | 131° | 46km/h | 19390m | 7.7m/s | -51.8°C | 3.6% | 0hPa | 2.6V | 00:00:00 | 01:30:36 | 08:30:00 | |
| DM0DOS-11 | 2026-09-05 00:20:41 | 52.69474 | 0.61937 | 117° | 46km/h | 19306m | 5.4m/s | -51.7°C | 3.7% | 0hPa | 2.6V | 08:30:00 | 01:30:23 | 00:00:00 | |
| BIOWL1-15 | 2026-09-05 00:20:37 | 52.69484 | 0.61906 | 113° | 42km/h | 19293m | 7.1m/s | -51.6°C | 0.4% | 0hPa | 2.6V | 18:12:15 | 01:30:21 | 00:00:00 | |
| DM0DOS-11 | 2026-09-05 00:20:33 | 52.69541 | 0.61729 | 132° | 51km/h | 19236m | 6.4m/s | -50.9°C | 3.3% | 0hPa | 2.6V | 08:30:00 | 01:30:12 | 00:00:00 | |
| DJ2DS-15 | 2026-09-05 00:20:31 | 52.69510 | 0.61801 | 115° | 57km/h | 19260m | 6.9m/s | -51.2°C | 3.5% | 0hPa | 2.6V | 00:00:00 | 01:30:16 | 00:00:00 | |
| DM0DOS-11 | 2026-09-05 00:20:21 | 52.69584 | 0.61570 | 111° | 64km/h | 19181m | 7.6m/s | -51.9°C | 3.7% | 0hPa | 2.6V | 08:30:00 | 01:30:03 | 00:00:00 | |
| BIOWL1-15 | 2026-09-05 00:20:13 | 52.69625 | 0.61301 | 105° | 62km/h | 19117m | 6.7m/s | -51.7°C | 0.5% | 0hPa | 2.7V | 18:12:15 | 01:29:53 | 00:00:00 | |
| DM0DOS-11 | 2026-09-05 00:20:13 | 52.69625 | 0.61301 | 105° | 62km/h | 19117m | 6.7m/s | -51.7°C | 3.7% | 0hPa | 2.7V | 08:30:00 | 01:29:53 | 00:00:00 | |
| DJ2DS-15 | 2026-09-05 00:20:10 | 52.69617 | 0.61353 | 103° | 62km/h | 19129m | 5.9m/s | -51.7°C | 3.6% | 0hPa | 2.7V | 00:00:00 | 01:29:55 | 00:00:00 | |
| DB0UT-7 | 2026-09-05 00:20:03 | 52.69645 | 0.61173 | 100° | 60km/h | 19090m | 5.2m/s | -51.4°C | 3.6% | 0hPa | 2.7V | 00:00:00 | 00:00:00 | 00:00:00 | |
| DM0DOS-11 | 2026-09-05 00:20:01 | 52.69654 | 0.61041 | 99° | 60km/h | 19062m | 5m/s | -51.2°C | 3.6% | 0hPa | 2.7V | 08:30:00 | 01:29:43 | 00:00:00 | |
| BIOWL1-15 | 2026-09-05 00:19:58 | 52.69657 | 0.61017 | 101° | 58km/h | 19056m | 6.3m/s | -51.2°C | 0.4% | 0hPa | 2.7V | 18:12:15 | 01:29:42 | 00:00:00 | |
| BIOWL9-15 | 2026-09-05 00:19:55 | 52.69662 | 0.60971 | 100° | 55km/h | 19046m | 4.6m/s | -51.1°C | 1.1% | -1.0hPa | 2.7V | 00:00:00 | 00:00:00 | 00:00:00 | |
| DM0DOS-11 | 2026-09-05 00:19:53 | 52.69682 | 0.60795 | 98° | 64km/h | 19009m | 6.1m/s | -51.2°C | 3.6% | 0hPa | 2.7V | 08:30:00 | 01:29:33 | 00:00:00 | |
| BIOWL1-15 | 2026-09-05 00:19:47 | 52.69700 | 0.60622 | 101° | 60km/h | 18970m | 6m/s | -51°C | 0.4% | 0hPa | 2.6V | 18:12:15 | 01:29:26 | 00:00:00 | |
| DM0DOS-11 | 2026-09-05 00:19:41 | 52.69707 | 0.60548 | 99° | 62km/h | 18955m | 5.3m/s | -50.8°C | 3.5% | 0hPa | 2.7V | 08:30:00 | 01:29:23 | 00:00:00 | |
| DM0DOS-11 | 2026-09-05 00:19:33 | 52.69737 | 0.60305 | 102° | 58km/h | 18901m | 5m/s | -50.5°C | 3.3% | 0hPa | 2.7V | 08:30:00 | 01:29:13 | 00:00:00 | |
| BIOWL1-15 | 2026-09-05 00:19:31 | 52.69726 | 0.60377 | 103° | 58km/h | 18916m | 5.1m/s | -50.5°C | 0.3% | 0hPa | 2.6V | 18:12:15 | 01:29:16 | 00:00:00 | |
| BIOWL1-15 | 2026-09-05 00:19:22 | 52.69766 | 0.60083 | 105° | 60km/h | 18854m | 5.3m/s | -50.7°C | 0.3% | 0hPa | 2.6V | 18:12:15 | 01:29:04 | 00:00:00 | |
| DM0DOS-11 | 2026-09-05 00:19:21 | 52.69770 | 0.60059 | 105° | 60km/h | 18849m | 4.9m/s | -50.7°C | 3.3% | 0hPa | 2.6V | 08:30:00 | 01:29:03 | 00:00:00 | |
| BIOWL1-15 | 2026-09-05 00:19:08 | 52.69816 | 0.59823 | 104° | 64km/h | 18800m | 5.7m/s | -51°C | 0.3% | 0hPa | 2.6V | 18:12:15 | 01:28:53 | 00:00:00 | |
| DB0UT-7 | 2026-09-05 00:19:03 | 52.69834 | 0.59688 | 103° | 62km/h | 18775m | 5.5m/s | -50.9°C | 3.4% | 0hPa | 2.6V | 00:00:00 | 00:00:00 | 00:00:00 | |
| DM0DOS-11 | 2026-09-05 00:19:01 | 52.69860 | 0.59501 | 100° | 64km/h | 18740m | 4.9m/s | -51°C | 3.4% | 0hPa | 2.7V | 08:30:00 | 01:28:41 | 00:00:00 | |
| BIOWL1-15 | 2026-09-05 00:18:57 | 52.69869 | 0.59425 | 102° | 62km/h | 18724m | 5.4m/s | -50.9°C | 0.3% | 0hPa | 2.6V | 18:12:15 | 01:28:38 | 00:00:00 | |
| BIOWL9-15 | 2026-09-05 00:18:53 | 52.69869 | 0.59425 | 101° | 62km/h | 18724m | 5.4m/s | -50.9°C | 1.0% | -1.0hPa | 2.7V | 00:00:00 | 00:00:00 | 00:00:00 | |
| DM0DOS-11 | 2026-09-05 00:18:51 | 52.69892 | 0.59245 | 103° | 66km/h | 18690m | 3.6m/s | -51°C | 3.3% | 0hPa | 2.7V | 08:30:00 | 01:28:31 | 00:00:00 | |
| BIOWL1-15 | 2026-09-05 00:18:42 | 52.69912 | 0.59097 | 104° | 58km/h | 18661m | 4.9m/s | 0°C | 0% | 0hPa | 2.7V | 18:12:15 | 01:28:25 | 00:00:00 | |
| DM0DOS-11 | 2026-09-05 00:18:41 | 52.69930 | 0.59006 | 109° | 62km/h | 18644m | 5.1m/s | -51.9°C | 3.5% | 0hPa | 2.7V | 08:30:00 | 01:28:21 | 00:00:00 | |
| DB0UT-7 | 2026-09-05 00:18:33 | 52.69944 | 0.58927 | 104° | 71km/h | 18630m | 5.5m/s | -51.8°C | 3.5% | 0hPa | 2.7V | 00:00:00 | 01:28:18 | 00:00:00 | |
| DM0DOS-11 | 2026-09-05 00:18:31 | 52.69968 | 0.58707 | 99° | 71km/h | 18587m | 5m/s | -52.4°C | 3.6% | 0hPa | 2.7V | 08:30:00 | 01:28:10 | 00:00:00 | |
| BIOWL1-15 | 2026-09-05 00:18:30 | 52.69970 | 0.58677 | 98° | 73km/h | 18582m | 4.3m/s | 0°C | 0% | 0hPa | 2.7V | 18:12:15 | 01:28:09 | 00:00:00 | |
| DJ2DS-15 | 2026-09-05 00:18:29 | 52.69958 | 0.58817 | 100° | 69km/h | 18609m | 4.2m/s | 0°C | 0% | 0hPa | 2.6V | 00:00:00 | 01:28:14 | 00:00:00 | |
| BIOWL9-15 | 2026-09-05 00:18:23 | 52.69974 | 0.58617 | 93° | 71km/h | 18572m | 5.2m/s | -52.4°C | 1.1% | -1.0hPa | 2.6V | 00:00:00 | 00:00:00 | 00:00:00 | |
| DM0DOS-11 | 2026-09-05 00:18:20 | 52.69975 | 0.58439 | 86° | 69km/h | 18540m | 4.6m/s | -52.6°C | 3.6% | 0hPa | 2.6V | 08:30:00 | 01:28:01 | 00:00:00 | |
| DJ2DS-15 | 2026-09-05 00:18:09 | 52.69972 | 0.58236 | 84° | 73km/h | 18503m | 4.1m/s | 0°C | 0% | 0hPa | 2.6V | 00:00:00 | 01:27:54 | 00:00:00 | |
| DM0DOS-11 | 2026-09-05 00:18:07 | 52.69963 | 0.58147 | 79° | 77km/h | 18485m | 5.8m/s | -52.9°C | 3.7% | 0hPa | 2.6V | 08:30:00 | 01:27:51 | 00:00:00 | |
| DB0UT-7 | 2026-09-05 00:18:03 | 52.69950 | 0.58054 | 75° | 71km/h | 18467m | 5.3m/s | -52.9°C | 3.8% | 0hPa | 2.7V | 00:00:00 | 00:00:00 | 00:00:00 | |
| DM0DOS-11 | 2026-09-05 00:17:57 | 52.69919 | 0.57844 | 79° | 73km/h | 18430m | 5.5m/s | -53°C | 3.7% | 0hPa | 2.7V | 08:30:00 | 01:27:41 | 00:00:00 | |
| DJ2DS-15 | 2026-09-05 00:17:49 | 52.69888 | 0.57642 | 75° | 69km/h | 18394m | 5.9m/s | 0°C | 0% | 0hPa | 2.7V | 00:00:00 | 01:27:34 | 08:30:00 | |
| DM0DOS-11 | 2026-09-05 00:17:47 | 52.69876 | 0.57557 | 82° | 71km/h | 18379m | 6.1m/s | -53°C | 3.7% | 0hPa | 2.7V | 08:30:00 | 01:27:31 | 00:00:00 | |
| DM0DOS-11 | 2026-09-05 00:17:37 | 52.69863 | 0.57266 | 83° | 66km/h | 18329m | 4.7m/s | -53.6°C | 3.8% | 0hPa | 2.7V | 08:30:00 | 01:27:21 | 00:00:00 | |
| DB0UT-7 | 2026-09-05 00:17:33 | 52.69860 | 0.57182 | 89° | 77km/h | 18315m | 5.3m/s | -53.6°C | 3.9% | 0hPa | 2.6V | 00:00:00 | 01:27:18 | 08:30:00 | |
| DJ2DS-15 | 2026-09-05 00:17:29 | 52.69862 | 0.57056 | 94° | 75km/h | 18295m | 4.4m/s | 0°C | 0% | 0hPa | 2.6V | 00:00:00 | 01:27:14 | 00:00:00 | |
| DM0DOS-11 | 2026-09-05 00:17:27 | 52.69866 | 0.56954 | 93° | 84km/h | 18280m | 4.3m/s | -53.7°C | 3.9% | 0hPa | 2.6V | 08:30:00 | 01:27:11 | 00:00:00 | |
| DM0DOS-11 | 2026-09-05 00:17:17 | 52.69862 | 0.56637 | 82° | 77km/h | 18232m | 6.1m/s | -53.8°C | 4% | 0hPa | 2.6V | 08:30:00 | 01:27:01 | 00:00:00 | |
| DB0UT-7 | 2026-09-05 00:17:03 | 52.69825 | 0.56241 | 76° | 71km/h | 18167m | 5.4m/s | -53.7°C | 3.9% | 0hPa | 2.7V | 00:00:00 | 00:00:00 | 00:00:00 | |
| DM0DOS-11 | 2026-09-05 00:17:02 | 52.69798 | 0.56092 | 71° | 77km/h | 18142m | 5.2m/s | -53.9°C | 3.9% | 0hPa | 2.7V | 08:30:00 | 01:26:43 | 00:00:00 | |
| DM0DOS-11 | 2026-09-05 00:16:52 | 52.69728 | 0.55820 | 63° | 73km/h | 18090m | 5.1m/s | -53.7°C | 3.9% | 0hPa | 2.6V | 08:30:00 | 01:26:33 | 00:00:00 | |
| DJ2DS-15 | 2026-09-05 00:16:49 | 52.69736 | 0.55847 | 65° | 69km/h | 18095m | 4.5m/s | 0°C | 0% | 0hPa | 2.6V | 00:00:00 | 01:26:34 | 00:00:00 | |
| DM0DOS-11 | 2026-09-05 00:16:42 | 52.69650 | 0.55547 | 66° | 69km/h | 18042m | 4.8m/s | -54°C | 4% | 0hPa | 2.6V | 08:30:00 | 01:26:23 | 00:00:00 | |
| BIOWL1-15 | 2026-09-05 00:16:39 | 52.69643 | 0.55521 | 69° | 68km/h | 18038m | 4.5m/s | -53.9°C | 0.6% | 0hPa | 2.6V | 18:12:15 | 01:26:22 | 00:00:00 | |
| DM0DOS-11 | 2026-09-05 00:16:32 | 52.69600 | 0.55262 | 73° | 69km/h | 17994m | 4.9m/s | -54.1°C | 4% | 0hPa | 2.7V | 08:30:00 | 01:26:13 | 00:00:00 | |
| BIOWL1-15 | 2026-09-05 00:16:27 | 52.69589 | 0.55209 | 72° | 66km/h | 17985m | 4.2m/s | -54.2°C | 0.7% | 0hPa | 2.6V | 18:12:15 | 01:26:11 | 00:00:00 | |
| DJ2DS-15 | 2026-09-05 00:16:25 | 52.69584 | 0.55182 | 73° | 69km/h | 17980m | 5.6m/s | 0°C | 0% | 0hPa | 2.7V | 00:00:00 | 01:26:10 | 00:00:00 | |
| DM0DOS-11 | 2026-09-05 00:16:21 | 52.69547 | 0.54990 | 70° | 71km/h | 17947m | 5.5m/s | -54.1°C | 3.9% | 0hPa | 2.7V | 08:30:00 | 01:26:03 | 00:00:00 | |
| BIOWL1-15 | 2026-09-05 00:16:15 | 52.69530 | 0.54907 | 75° | 69km/h | 17933m | 5.8m/s | -54.1°C | 0.6% | 0hPa | 2.6V | 18:12:15 | 01:26:00 | 00:00:00 | |
| DB0UT-7 | 2026-09-05 00:16:12 | 52.69517 | 0.54824 | 74° | 68km/h | 17918m | 5.0m/s | -54.1°C | 3.9% | 0hPa | 2.6V | 00:00:00 | 01:25:57 | 00:00:00 | |
| DM0DOS-11 | 2026-09-05 00:16:11 | 52.69499 | 0.54711 | 74° | 71km/h | 17899m | 5.1m/s | -54.1°C | 3.9% | 0hPa | 2.6V | 08:30:00 | 01:25:53 | 00:00:00 | |
| BIOWL1-15 | 2026-09-05 00:16:05 | 52.69483 | 0.54627 | 72° | 69km/h | 17885m | 5.2m/s | -54.2°C | 0.6% | 0hPa | 2.6V | 18:12:15 | 01:25:50 | 00:00:00 | |
| DM0DOS-11 | 2026-09-05 00:16:01 | 52.69448 | 0.54448 | 72° | 62km/h | 17852m | 5m/s | -54.7°C | 4.1% | 0hPa | 2.6V | 08:30:00 | 01:25:43 | 00:00:00 | |
| BIOWL1-15 | 2026-09-05 00:15:54 | 52.69432 | 0.54349 | 81° | 62km/h | 17832m | 5.4m/s | -54.8°C | 0.6% | 0hPa | 2.7V | 18:12:15 | 01:25:39 | 00:00:00 | |
| BIOWL9-15 | 2026-09-05 00:15:47 | 52.69411 | 0.54127 | 86° | 69km/h | 17791m | 5.1m/s | -54.7°C | 1.3% | -1.0hPa | 2.6V | 00:00:00 | 00:00:00 | 00:00:00 | |
| BIOWL1-15 | 2026-09-05 00:15:44 | 52.69408 | 0.53956 | 88° | 69km/h | 17761m | 5.1m/s | -54.8°C | 0.8% | 0hPa | 2.6V | 18:12:15 | 01:25:25 | 00:00:00 | |
| DM0DOS-11 | 2026-09-05 00:15:43 | 52.69407 | 0.53897 | 90° | 73km/h | 17751m | 5.8m/s | -54.8°C | 4.1% | 0hPa | 2.6V | 08:30:00 | 01:25:23 | 00:00:00 | |
| BIOWL1-15 | 2026-09-05 00:15:33 | 52.69411 | 0.53746 | 95° | 75km/h | 17726m | 5.9m/s | -54.9°C | 0.8% | 0hPa | 2.6V | 18:12:15 | 01:25:18 | 00:00:00 | |
| DM0DOS-11 | 2026-09-05 00:15:31 | 52.69420 | 0.53595 | 97° | 68km/h | 17702m | 4.2m/s | -54.8°C | 4.1% | 0hPa | 2.6V | 08:30:00 | 01:25:13 | 00:00:00 | |
| BIOWL1-15 | 2026-09-05 00:15:22 | 52.69433 | 0.53419 | 94° | 73km/h | 17671m | 4.6m/s | -54.8°C | 0% | 0hPa | 2.6V | 18:12:15 | 01:25:07 | 00:00:00 | |
| DM0DOS-11 | 2026-09-05 00:15:19 | 52.69436 | 0.53295 | 90° | 69km/h | 17652m | 4.3m/s | -54.7°C | 4.1% | 0hPa | 2.7V | 08:30:00 | 01:25:03 | 00:00:00 | |
| BIOWL1-15 | 2026-09-05 00:15:11 | 52.69449 | 0.53030 | 91° | 66km/h | 17605m | 5.3m/s | 0°C | 0% | 0hPa | 2.6V | 18:12:15 | 01:24:53 | 00:00:00 | |
| DM0DOS-11 | 2026-09-05 00:15:01 | 52.69458 | 0.52757 | 98° | 64km/h | 17559m | 4.8m/s | -55.1°C | 4.2% | 0hPa | 2.6V | 08:30:00 | 01:24:43 | 00:00:00 | |
| BIOWL1-15 | 2026-09-05 00:14:57 | 52.69473 | 0.52613 | 98° | 75km/h | 17538m | 4.6m/s | 0°C | 0% | 0hPa | 2.6V | 18:12:15 | 01:24:38 | 00:00:00 | |
| DM0DOS-11 | 2026-09-05 00:14:53 | 52.69482 | 0.52461 | 96° | 73km/h | 17515m | 4.7m/s | -54.8°C | 4.2% | 0hPa | 2.7V | 08:30:00 | 01:24:33 | 00:00:00 | |
| BIOWL1-15 | 2026-09-05 00:14:44 | 52.69491 | 0.52343 | 101° | 71km/h | 17496m | 5.7m/s | 0°C | 0% | 0hPa | 2.6V | 18:12:15 | 01:24:29 | 00:00:00 | |
| DM0DOS-11 | 2026-09-05 00:14:43 | 52.69514 | 0.52158 | 98° | 78km/h | 17469m | 5.2m/s | -54.5°C | 4% | 0hPa | 2.6V | 08:30:00 | 01:24:23 | 00:00:00 | |
| BIOWL1-15 | 2026-09-05 00:14:34 | 52.69525 | 0.52028 | 97° | 77km/h | 17451m | 3m/s | 0°C | 0% | 0hPa | 2.6V | 18:12:15 | 01:24:19 | 00:00:00 | |
| DM0DOS-11 | 2026-09-05 00:14:33 | 52.69545 | 0.51829 | 99° | 80km/h | 17423m | 4.2m/s | -54.7°C | 4.1% | 0hPa | 2.7V | 08:30:00 | 01:24:13 | 00:00:00 | |
| DM0DOS-11 | 2026-09-05 00:14:21 | 52.69569 | 0.51507 | 97° | 84km/h | 17377m | 4.5m/s | -54.9°C | 4.1% | 0hPa | 2.7V | 08:30:00 | 01:24:03 | 00:00:00 | |
| DJ2DS-15 | 2026-09-05 00:14:19 | 52.69567 | 0.51541 | 97° | 78km/h | 17382m | 5.9m/s | 0°C | 0% | 0hPa | 2.6V | 00:00:00 | 01:24:04 | 00:00:00 | |
| DM0DOS-11 | 2026-09-05 00:14:13 | 52.69601 | 0.51179 | 96° | 71km/h | 17329m | 4.1m/s | -55.1°C | 4.2% | 0hPa | 2.6V | 08:30:00 | 01:23:53 | 00:00:00 | |
| DJ2DS-15 | 2026-09-05 00:14:13 | 52.69586 | 0.51334 | 98° | 80km/h | 17353m | 4.3m/s | -54.9°C | 0% | -1.0hPa | 2.6V | 00:00:00 | 00:00:00 | 00:00:00 | |
| DB0UT-7 | 2026-09-05 00:14:12 | 52.69589 | 0.51301 | 101° | 77km/h | 17349m | 5.9m/s | -55.0°C | 4.2% | 0hPa | 2.6V | 00:00:00 | 01:23:57 | 00:00:00 | |
| DM0DOS-11 | 2026-09-05 00:14:02 | 52.69630 | 0.50857 | 96° | 84km/h | 17284m | 5.6m/s | -55.2°C | 4.3% | 0hPa | 2.7V | 08:30:00 | 01:23:43 | 00:00:00 | |
| DJ2DS-15 | 2026-09-05 00:13:56 | 52.69634 | 0.50787 | 97° | 69km/h | 17275m | 4.1m/s | 0°C | 0% | 0hPa | 2.6V | 00:00:00 | 01:23:41 | 00:00:00 | |
| DM0DOS-11 | 2026-09-05 00:13:52 | 52.69650 | 0.50528 | 92° | 75km/h | 17237m | 5.9m/s | -55.1°C | 4.3% | 0hPa | 2.6V | 08:30:00 | 01:23:33 | 00:00:00 | |
| DB0UT-7 | 2026-09-05 00:13:42 | 52.69659 | 0.50345 | 96° | 66km/h | 17208m | 4.9m/s | -54.9°C | 4.2% | 0hPa | 2.7V | 00:00:00 | 00:00:00 | 00:00:00 | |
| DM0DOS-11 | 2026-09-05 00:13:39 | 52.69666 | 0.50228 | 93° | 71km/h | 17190m | 5.7m/s | -54.9°C | 4.1% | 0hPa | 2.7V | 08:30:00 | 01:23:23 | 00:00:00 | |
| DJ2DS-15 | 2026-09-05 00:13:37 | 52.69668 | 0.50171 | 93° | 66km/h | 17181m | 4.6m/s | -54.9°C | 1.4% | -1.0hPa | 2.6V | 00:00:00 | 00:00:00 | 00:00:00 | |
| DM0DOS-11 | 2026-09-05 00:13:33 | 52.69683 | 0.49951 | 97° | 68km/h | 17143m | 4.3m/s | -54.7°C | 4.1% | 0hPa | 2.6V | 08:30:00 | 01:23:13 | 00:00:00 | |
| DJ2DS-15 | 2026-09-05 00:13:23 | 52.69692 | 0.49815 | 101° | 62km/h | 17121m | 4.6m/s | 0°C | 0% | 0hPa | 2.6V | 00:00:00 | 01:23:08 | 00:00:00 | |
| DM0DOS-11 | 2026-09-05 00:13:19 | 52.69704 | 0.49691 | 99° | 60km/h | 17097m | 5.3m/s | -54.7°C | 4.1% | 0hPa | 2.6V | 08:30:00 | 01:23:03 | 00:00:00 | |
| DM0DOS-11 | 2026-09-05 00:13:13 | 52.69723 | 0.49435 | 97° | 62km/h | 17051m | 4.9m/s | -55.1°C | 4.2% | 0hPa | 2.7V | 08:30:00 | 01:22:53 | 00:00:00 | |
| DB0UT-7 | 2026-09-05 00:13:12 | 52.69715 | 0.49540 | 98° | 68km/h | 17069m | 3.4m/s | -54.9°C | 4.2% | 0hPa | 2.6V | 00:00:00 | 01:22:57 | 00:00:00 | |
| DM0DOS-11 | 2026-09-05 00:13:03 | 52.69741 | 0.49179 | 95° | 64km/h | 17004m | 4.4m/s | -55.2°C | 4.2% | 0hPa | 2.6V | 08:30:00 | 01:22:43 | 00:00:00 | |
| DJ2DS-15 | 2026-09-05 00:13:03 | 52.69733 | 0.49308 | 95° | 66km/h | 17028m | 4.7m/s | 0°C | 0% | 0hPa | 2.7V | 00:00:00 | 01:22:48 | 00:00:00 | |
| DM0DOS-11 | 2026-09-05 00:12:49 | 52.69761 | 0.48909 | 96° | 66km/h | 16957m | 3.8m/s | -55.5°C | 4.3% | 0hPa | 2.7V | 08:30:00 | 01:22:33 | 00:00:00 | |
| DM0DOS-11 | 2026-09-05 00:12:43 | 52.69782 | 0.48588 | 92° | 71km/h | 16904m | 4.3m/s | -55.4°C | 4.3% | 0hPa | 2.6V | 08:30:00 | 01:22:22 | 00:00:00 | |
| DM0DOS-11 | 2026-09-05 00:12:32 | 52.69791 | 0.48284 | 91° | 75km/h | 16855m | 4.6m/s | -55.2°C | 4.3% | 0hPa | 2.7V | 08:30:00 | 01:22:12 | 00:00:00 | |
| DM0DOS-11 | 2026-09-05 00:12:22 | 52.69791 | 0.47987 | 90° | 71km/h | 16807m | 4.2m/s | -55.2°C | 4.3% | 0hPa | 2.6V | 08:30:00 | 01:22:02 | 00:00:00 | |
| DM0DOS-11 | 2026-09-05 00:12:12 | 52.69784 | 0.47671 | 84° | 80km/h | 16760m | 4.6m/s | -55.1°C | 4.3% | 0hPa | 2.7V | 08:30:00 | 01:21:52 | 00:00:00 | |
| DB0UT-7 | 2026-09-05 00:12:07 | 52.69784 | 0.47671 | 85° | 73km/h | 16761m | 4.6m/s | -55.1°C | 4.3% | 0hPa | 2.6V | 00:00:00 | 01:21:52 | 00:00:00 | |
| DM0DOS-11 | 2026-09-05 00:12:02 | 52.69765 | 0.47356 | 85° | 75km/h | 16712m | 4.5m/s | -54.8°C | 4.3% | 0hPa | 2.6V | 08:30:00 | 01:21:42 | 00:00:00 | |
| DM0DOS-11 | 2026-09-05 00:11:52 | 52.69743 | 0.47062 | 81° | 69km/h | 16664m | 4.9m/s | -54.5°C | 4.2% | 0hPa | 2.6V | 08:30:00 | 01:21:32 | 00:00:00 | |
| BIOWL1-15 | 2026-09-05 00:11:44 | 52.69735 | 0.46974 | 80° | 71km/h | 16649m | 5.1m/s | -54.5°C | 0.8% | 0hPa | 2.7V | 18:12:15 | 01:21:29 | 00:00:00 | |
| DM0DOS-11 | 2026-09-05 00:11:42 | 52.69715 | 0.46770 | 80° | 64km/h | 16615m | 4.9m/s | -54.3°C | 4.2% | 0hPa | 2.7V | 08:30:00 | 01:21:22 | 00:00:00 | |
| BIOWL1-15 | 2026-09-05 00:11:33 | 52.69693 | 0.46557 | 82° | 68km/h | 16573m | 4.2m/s | -54.1°C | 0.8% | 0hPa | 2.6V | 18:12:15 | 01:21:14 | 00:00:00 | |
| DM0DOS-11 | 2026-09-05 00:11:22 | 52.69666 | 0.46251 | 81° | 57km/h | 16512m | 3.7m/s | -54°C | 4.1% | 0hPa | 2.7V | 08:30:00 | 01:21:02 | 00:00:00 | |
| BIOWL1-15 | 2026-09-05 00:11:19 | 52.69660 | 0.46131 | 88° | 60km/h | 16487m | 4.9m/s | -53.8°C | 0.8% | 0hPa | 2.6V | 18:12:15 | 01:20:57 | 00:00:00 | |
| DM0DOS-11 | 2026-09-05 00:11:12 | 52.69658 | 0.46012 | 87° | 53km/h | 16462m | 5m/s | -53.8°C | 4.1% | 0hPa | 2.6V | 08:30:00 | 01:20:52 | 00:00:00 | |
| BIOWL1-15 | 2026-09-05 00:11:03 | 52.69658 | 0.45831 | 95° | 51km/h | 16420m | 3.9m/s | -53.5°C | 0.7% | 0hPa | 2.6V | 18:12:15 | 01:20:44 | 00:00:00 | |
| DM0DOS-11 | 2026-09-05 00:11:02 | 52.69659 | 0.45788 | 93° | 53km/h | 16410m | 5.2m/s | -53.5°C | 4% | 0hPa | 2.7V | 08:30:00 | 01:20:42 | 00:00:00 | |
| DM0DOS-11 | 2026-09-05 00:10:52 | 52.69674 | 0.45568 | 98° | 51km/h | 16356m | 3.9m/s | -53.2°C | 3.9% | 0hPa | 2.7V | 08:30:00 | 01:20:32 | 00:00:00 | |
| BIOWL1-15 | 2026-09-05 00:10:49 | 52.69681 | 0.45503 | 101° | 53km/h | 16341m | 4.3m/s | -53.2°C | 0.6% | 0hPa | 2.6V | 18:12:15 | 01:20:29 | 00:00:00 | |
| DM0DOS-11 | 2026-09-05 00:10:42 | 52.69704 | 0.45346 | 108° | 57km/h | 16304m | 4.4m/s | -53.4°C | 4% | 0hPa | 2.6V | 08:30:00 | 01:20:22 | 00:00:00 | |
| BIOWL1-15 | 2026-09-05 00:10:37 | 52.69704 | 0.45346 | 109° | 57km/h | 16304m | 4.4m/s | -53.4°C | 0.7% | 0hPa | 2.6V | 18:12:15 | 01:20:22 | 00:00:00 | |
| BIOWL1-15 | 2026-09-05 00:10:27 | 52.69752 | 0.45110 | 114° | 68km/h | 16254m | 4.9m/s | -53.1°C | 0.7% | 0hPa | 2.7V | 18:12:15 | 01:20:12 | 00:00:00 | |
| DM0DOS-11 | 2026-09-05 00:10:22 | 52.69810 | 0.44851 | 106° | 66km/h | 16203m | 5m/s | -52.9°C | 3.9% | 0hPa | 2.6V | 08:30:00 | 01:20:02 | 00:00:00 | |
| BIOWL1-15 | 2026-09-05 00:10:18 | 52.69837 | 0.44719 | 109° | 69km/h | 16178m | 4.5m/s | -52.7°C | 0.6% | 0hPa | 2.6V | 18:12:15 | 01:19:57 | 00:00:00 | |
| DM0DOS-11 | 2026-09-05 00:10:12 | 52.69865 | 0.44588 | 106° | 68km/h | 16153m | 4.4m/s | -52.5°C | 3.8% | 0hPa | 2.6V | 08:30:00 | 01:19:52 | 00:00:00 | |
| BIOWL1-15 | 2026-09-05 00:10:10 | 52.69882 | 0.44507 | 111° | 71km/h | 16137m | 4.8m/s | -52.4°C | 0.5% | 0hPa | 2.7V | 18:12:15 | 01:19:49 | 00:00:00 | |
| BIOWL9-15 | 2026-09-05 00:10:05 | 52.69876 | 0.44534 | 109° | 68km/h | 16143m | 5.0m/s | -52.5°C | 1.2% | -1.0hPa | 2.7V | 00:00:00 | 00:00:00 | 00:00:00 | |
| DM0DOS-11 | 2026-09-05 00:10:02 | 52.69923 | 0.44318 | 108° | 68km/h | 16101m | 4.6m/s | -52.3°C | 3.7% | 0hPa | 2.7V | 08:30:00 | 01:19:42 | 00:00:00 | |
| BIOWL1-15 | 2026-09-05 00:09:56 | 52.69928 | 0.44292 | 112° | 68km/h | 16096m | 5.3m/s | -52.3°C | 0.5% | 0hPa | 2.7V | 18:12:15 | 01:19:41 | 00:00:00 | |
| DM0DOS-11 | 2026-09-05 00:09:52 | 52.69980 | 0.44045 | 107° | 68km/h | 16050m | 4.8m/s | -52.6°C | 3.8% | 0hPa | 2.6V | 08:30:00 | 01:19:32 | 00:00:00 | |
| BIOWL1-15 | 2026-09-05 00:09:45 | 52.70003 | 0.43939 | 111° | 69km/h | 16029m | 5.8m/s | -52.7°C | 0.6% | 0hPa | 2.7V | 18:12:15 | 01:19:28 | 00:00:00 | |
| DM0DOS-11 | 2026-09-05 00:09:42 | 52.70044 | 0.43771 | 110° | 73km/h | 15998m | 4.9m/s | -52.8°C | 3.9% | 0hPa | 2.7V | 08:30:00 | 01:19:22 | 00:00:00 | |
| BIOWL1-15 | 2026-09-05 00:09:32 | 52.70107 | 0.43513 | 112° | 77km/h | 15953m | 4.4m/s | -52.8°C | 0.6% | 0hPa | 2.6V | 18:12:15 | 01:19:13 | 00:00:00 | |
| DM0DOS-11 | 2026-09-05 00:09:32 | 52.70114 | 0.43483 | 109° | 78km/h | 15947m | 5.7m/s | -52.8°C | 3.9% | 0hPa | 2.6V | 08:30:00 | 01:19:12 | 00:00:00 | |
| DM0DOS-11 | 2026-09-05 00:09:22 | 52.70179 | 0.43173 | 109° | 78km/h | 15898m | 5m/s | -52.8°C | 3.9% | 0hPa | 2.7V | 08:30:00 | 01:19:02 | 00:00:00 | |
| BIOWL1-15 | 2026-09-05 00:09:19 | 52.70165 | 0.43234 | 110° | 78km/h | 15908m | 5.5m/s | 0°C | 0% | 0hPa | 2.6V | 18:12:15 | 01:19:04 | 00:00:00 | |
| DM0DOS-11 | 2026-09-05 00:09:12 | 52.70226 | 0.42871 | 105° | 75km/h | 15850m | 5m/s | -52.5°C | 3.8% | 0hPa | 2.6V | 08:30:00 | 01:18:52 | 00:00:00 | |
| BIOWL1-15 | 2026-09-05 00:09:08 | 52.70221 | 0.42900 | 104° | 73km/h | 15855m | 5.1m/s | 0°C | 0% | 0hPa | 2.6V | 18:12:15 | 01:18:53 | 00:00:00 | |
| BIOWL1-15 | 2026-09-05 00:08:58 | 52.70265 | 0.42598 | 101° | 71km/h | 15806m | 3.7m/s | 0°C | 0% | 0hPa | 2.7V | 18:12:15 | 01:18:43 | 00:00:00 | |
| DM0DOS-11 | 2026-09-05 00:08:52 | 52.70321 | 0.42259 | 104° | 78km/h | 15753m | 5m/s | -52.3°C | 3.7% | 0hPa | 2.6V | 08:30:00 | 01:18:32 | 00:00:00 | |
| BIOWL1-15 | 2026-09-05 00:08:43 | 52.70346 | 0.42113 | 107° | 71km/h | 15729m | 5.1m/s | 0°C | 0% | 0hPa | 2.6V | 18:12:15 | 01:18:27 | 00:00:00 | |
| DM0DOS-11 | 2026-09-05 00:08:42 | 52.70373 | 0.41968 | 106° | 73km/h | 15704m | 5.7m/s | -52.5°C | 3.7% | 0hPa | 2.6V | 08:30:00 | 01:18:22 | 00:00:00 | |
| DB0UT-7 | 2026-09-05 00:08:37 | 52.70373 | 0.41968 | 107° | 75km/h | 15705m | 5.7m/s | 0°C | 0% | 0hPa | 2.7V | 00:00:00 | 00:00:00 | 00:00:00 | |
| DM0DOS-11 | 2026-09-05 00:08:32 | 52.70411 | 0.41679 | 102° | 71km/h | 15657m | 5.2m/s | -52.6°C | 3.8% | 0hPa | 2.7V | 08:30:00 | 01:18:12 | 00:00:00 | |
| DM0DOS-11 | 2026-09-05 00:08:22 | 52.70562 | 0.40543 | 101° | 86km/h | 15493m | 5.1m/s | -52.3°C | 3.7% | 0hPa | 2.6V | 08:30:00 | 01:17:37 | 00:00:00 | |
| DB0UT-7 | 2026-09-05 00:08:16 | 52.70497 | 0.41060 | 102° | 80km/h | 15563m | 5.3m/s | 0°C | 0% | 0hPa | 2.7V | 00:00:00 | 01:17:52 | 00:00:00 | |
| DM0DOS-11 | 2026-09-05 00:08:05 | 52.70572 | 0.40472 | 104° | 89km/h | 15484m | 5.6m/s | -52.4°C | 3.7% | 0hPa | 2.7V | 08:30:00 | 01:17:35 | 00:00:00 | |
| DM0DOS-11 | 2026-09-05 00:07:42 | 52.70626 | 0.40110 | 101° | 91km/h | 15435m | 5.3m/s | -52.6°C | 3.9% | 0hPa | 2.6V | 08:30:00 | 01:17:25 | 00:00:00 | |
| DM0DOS-11 | 2026-09-05 00:07:32 | 52.70684 | 0.39726 | 104° | 91km/h | 15389m | 5.6m/s | -52.9°C | 3.9% | 0hPa | 2.6V | 08:30:00 | 01:17:15 | 00:00:00 | |
| DM0DOS-11 | 2026-09-05 00:07:22 | 52.70738 | 0.39348 | 101° | 97km/h | 15345m | 4.1m/s | -53°C | 4% | 0hPa | 2.7V | 08:30:00 | 01:17:05 | 00:00:00 | |
| DM0DOS-11 | 2026-09-05 00:07:12 | 52.70789 | 0.38940 | 100° | 102km/h | 15299m | 4.8m/s | -52.7°C | 3.9% | 0hPa | 2.6V | 08:30:00 | 01:16:55 | 00:00:00 | |
| DM0DOS-11 | 2026-09-05 00:07:02 | 52.70834 | 0.38515 | 99° | 104km/h | 15256m | 4.7m/s | -52.5°C | 3.8% | 0hPa | 2.7V | 08:30:00 | 01:16:45 | 00:00:00 | |
| DM0DOS-11 | 2026-09-05 00:06:52 | 52.70872 | 0.38088 | 96° | 100km/h | 15212m | 5m/s | -52.3°C | 3.8% | 0hPa | 2.7V | 08:30:00 | 01:16:35 | 00:00:00 | |
| DM0DOS-11 | 2026-09-05 00:06:42 | 52.70902 | 0.37664 | 96° | 100km/h | 15171m | 5.2m/s | -52.6°C | 3.9% | 0hPa | 2.6V | 08:30:00 | 01:16:25 | 00:00:00 | |
| DM0DOS-11 | 2026-09-05 00:06:32 | 52.70923 | 0.37250 | 96° | 100km/h | 15128m | 3.9m/s | -52.5°C | 3.9% | 0hPa | 2.6V | 08:30:00 | 01:16:15 | 00:00:00 | |
| DM0DOS-11 | 2026-09-05 00:06:22 | 52.70955 | 0.36833 | 98° | 95km/h | 15086m | 4.3m/s | -52.4°C | 3.9% | 0hPa | 2.7V | 08:30:00 | 01:16:05 | 00:00:00 | |
| DM0DOS-11 | 2026-09-05 00:06:12 | 52.70981 | 0.36434 | 97° | 99km/h | 15044m | 4.4m/s | -52.1°C | 3.8% | 0hPa | 2.6V | 08:30:00 | 01:15:55 | 00:00:00 | |
| DM0DOS-11 | 2026-09-05 00:06:02 | 52.70996 | 0.36046 | 94° | 91km/h | 15003m | 4.8m/s | -51.9°C | 3.9% | 0hPa | 2.6V | 08:30:00 | 01:15:45 | 00:00:00 | |
| DM0DOS-11 | 2026-09-05 00:05:51 | 52.71016 | 0.35671 | 93° | 93km/h | 14957m | 1.9m/s | -51.5°C | 3.7% | 0hPa | 2.7V | 08:30:00 | 01:15:35 | 00:00:00 | |
| DM0DOS-11 | 2026-09-05 00:05:41 | 52.71031 | 0.35315 | 93° | 82km/h | 14911m | 5.4m/s | -51.1°C | 3.7% | 0hPa | 2.6V | 08:30:00 | 01:15:25 | 00:00:00 | |
| DM0DOS-11 | 2026-09-05 00:05:32 | 52.71049 | 0.34976 | 92° | 80km/h | 14868m | 4.6m/s | -50.8°C | 3.6% | 0hPa | 2.7V | 08:30:00 | 01:15:15 | 00:00:00 | |
| DM0DOS-11 | 2026-09-05 00:05:22 | 52.71065 | 0.34648 | 92° | 78km/h | 14823m | 5.4m/s | -50.5°C | 3.5% | 0hPa | 2.7V | 08:30:00 | 01:15:05 | 00:00:00 | |
| DM0DOS-11 | 2026-09-05 00:05:12 | 52.71087 | 0.34321 | 101° | 78km/h | 14779m | 5m/s | -50.1°C | 3.5% | 0hPa | 2.7V | 08:30:00 | 01:14:55 | 00:00:00 | |
| DM0DOS-11 | 2026-09-05 00:05:02 | 52.71112 | 0.34009 | 98° | 78km/h | 14734m | 4.7m/s | -49.8°C | 3.4% | 0hPa | 2.6V | 08:30:00 | 01:14:45 | 00:00:00 | |
| DM0DOS-11 | 2026-09-05 00:04:52 | 52.71145 | 0.33698 | 97° | 77km/h | 14691m | 3.5m/s | -49.8°C | 3.4% | 0hPa | 2.7V | 08:30:00 | 01:14:35 | 00:00:00 | |
| DM0DOS-11 | 2026-09-05 00:04:42 | 52.71188 | 0.33377 | 109° | 78km/h | 14646m | 5.7m/s | -49.8°C | 3.4% | 0hPa | 2.6V | 08:30:00 | 01:14:25 | 00:00:00 | |
| DM0DOS-11 | 2026-09-05 00:04:34 | 52.71241 | 0.33083 | 108° | 82km/h | 14594m | 5.8m/s | -49.9°C | 3.4% | 0hPa | 2.6V | 08:30:00 | 01:14:15 | 00:00:00 | |
| DM0DOS-11 | 2026-09-05 00:04:27 | 52.71312 | 0.32725 | 108° | 93km/h | 14540m | 5.5m/s | -50.6°C | 3.5% | 0hPa | 2.6V | 08:30:00 | 01:14:05 | 00:00:00 | |
| DM0DOS-11 | 2026-09-05 00:04:13 | 52.71381 | 0.32344 | 105° | 104km/h | 14490m | 4.9m/s | -50.5°C | 3.5% | 0hPa | 2.7V | 08:30:00 | 01:13:55 | 00:00:00 | |
| DM0DOS-11 | 2026-09-05 00:04:02 | 52.71442 | 0.31924 | 103° | 104km/h | 14441m | 3.9m/s | -50.8°C | 3.6% | 0hPa | 2.6V | 08:30:00 | 01:13:45 | 00:00:00 | |
| DM0DOS-11 | 2026-09-05 00:03:52 | 52.71510 | 0.31494 | 108° | 106km/h | 14395m | 4.5m/s | -51.1°C | 3.7% | 0hPa | 2.6V | 08:30:00 | 01:13:35 | 00:00:00 | |
| DM0DOS-11 | 2026-09-05 00:03:42 | 52.71586 | 0.31033 | 103° | 115km/h | 14343m | 6.4m/s | -51.3°C | 0% | 0hPa | 2.7V | 08:30:00 | 01:13:25 | 00:00:00 | |
| DM0DOS-11 | 2026-09-05 00:03:33 | 52.71638 | 0.30566 | 98° | 124km/h | 14294m | 5m/s | -51.8°C | 0% | 0hPa | 2.7V | 08:30:00 | 01:13:15 | 00:00:00 | |
| DM0DOS-11 | 2026-09-05 00:03:22 | 52.71677 | 0.30092 | 97° | 111km/h | 14245m | 5.4m/s | 0°C | 0% | 0hPa | 2.6V | 00:00:00 | 01:13:05 | 00:00:00 | |
| DM0DOS-11 | 2026-09-05 00:03:15 | 52.71733 | 0.29563 | 103° | 115km/h | 14191m | 5.6m/s | 0°C | 0% | 0hPa | 2.6V | 00:00:00 | 01:12:54 | 00:00:00 | |
| DM0DOS-11 | 2026-09-05 00:03:03 | 52.71813 | 0.28977 | 100° | 119km/h | 14133m | 3.6m/s | 0°C | 0% | 0hPa | 2.7V | 00:00:00 | 01:12:42 | 00:00:00 |